<?xml version="1.0" encoding="UTF-8" standalone="no" ?>
<gpx xmlns="http://www.topografix.com/GPX/1/1" xmlns:xsi="http://www.w3.org/2001/XMLSchema-instance" xsi:schemaLocation="http://www.topografix.com/GPX/1/1 http://www.topografix.com/GPX/1/1/gpx.xsd" version="1.1" creator="VisuGPX - https://www.visugpx.com">
  <metadata>
    <name>Joyeux Randonneurs à L'Isle</name>
    <desc><![CDATA[Randonnée accessible à tous. Il existe pratiquement toujours des possibilités  pour raccourcir le circuit à environ  6km.  Panne de GPS le morceau manquant est facile a reconstituer]]></desc>
  </metadata>
  <trk>
    <name><![CDATA[Tracé 3 nov. 2015 14:11:54 L'Isle]]></name>
    <trkseg>
      <trkpt lat="45.27582" lon="0.55508">
        <ele>108</ele>
        <time>2015-11-03T13:12:00Z</time>
      </trkpt>
      <trkpt lat="45.2758" lon="0.55513">
        <ele>104</ele>
        <time>2015-11-03T13:12:13Z</time>
      </trkpt>
      <trkpt lat="45.27577" lon="0.55523">
        <ele>103</ele>
        <time>2015-11-03T13:12:17Z</time>
      </trkpt>
      <trkpt lat="45.27575" lon="0.55532">
        <ele>103</ele>
        <time>2015-11-03T13:12:21Z</time>
      </trkpt>
      <trkpt lat="45.27573" lon="0.55542">
        <ele>104</ele>
        <time>2015-11-03T13:12:26Z</time>
      </trkpt>
      <trkpt lat="45.27572" lon="0.55552">
        <ele>102</ele>
        <time>2015-11-03T13:12:30Z</time>
      </trkpt>
      <trkpt lat="45.27571" lon="0.55559">
        <ele>103</ele>
        <time>2015-11-03T13:12:34Z</time>
      </trkpt>
      <trkpt lat="45.27569" lon="0.55571">
        <ele>103</ele>
        <time>2015-11-03T13:12:39Z</time>
      </trkpt>
      <trkpt lat="45.27566" lon="0.55581">
        <ele>100</ele>
        <time>2015-11-03T13:12:44Z</time>
      </trkpt>
      <trkpt lat="45.27563" lon="0.55591">
        <ele>103</ele>
        <time>2015-11-03T13:12:48Z</time>
      </trkpt>
      <trkpt lat="45.27563" lon="0.55595">
        <ele>104</ele>
        <time>2015-11-03T13:12:52Z</time>
      </trkpt>
      <trkpt lat="45.27562" lon="0.55607">
        <ele>103</ele>
        <time>2015-11-03T13:12:57Z</time>
      </trkpt>
      <trkpt lat="45.27563" lon="0.55612">
        <ele>103</ele>
        <time>2015-11-03T13:13:02Z</time>
      </trkpt>
      <trkpt lat="45.27562" lon="0.55622">
        <ele>105</ele>
        <time>2015-11-03T13:13:07Z</time>
      </trkpt>
      <trkpt lat="45.27561" lon="0.55631">
        <ele>104</ele>
        <time>2015-11-03T13:13:11Z</time>
      </trkpt>
      <trkpt lat="45.2756" lon="0.55642">
        <ele>105</ele>
        <time>2015-11-03T13:13:16Z</time>
      </trkpt>
      <trkpt lat="45.2756" lon="0.5565">
        <ele>105</ele>
        <time>2015-11-03T13:13:20Z</time>
      </trkpt>
      <trkpt lat="45.27558" lon="0.55658">
        <ele>106</ele>
        <time>2015-11-03T13:13:24Z</time>
      </trkpt>
      <trkpt lat="45.27558" lon="0.55669">
        <ele>107</ele>
        <time>2015-11-03T13:13:29Z</time>
      </trkpt>
      <trkpt lat="45.27557" lon="0.55676">
        <ele>109</ele>
        <time>2015-11-03T13:13:33Z</time>
      </trkpt>
      <trkpt lat="45.27558" lon="0.55688">
        <ele>108</ele>
        <time>2015-11-03T13:13:38Z</time>
      </trkpt>
      <trkpt lat="45.27558" lon="0.55696">
        <ele>109</ele>
        <time>2015-11-03T13:13:42Z</time>
      </trkpt>
      <trkpt lat="45.27558" lon="0.55704">
        <ele>110</ele>
        <time>2015-11-03T13:13:47Z</time>
      </trkpt>
      <trkpt lat="45.27559" lon="0.55711">
        <ele>110</ele>
        <time>2015-11-03T13:13:51Z</time>
      </trkpt>
      <trkpt lat="45.2756" lon="0.55716">
        <ele>111</ele>
        <time>2015-11-03T13:13:55Z</time>
      </trkpt>
      <trkpt lat="45.27561" lon="0.55725">
        <ele>110</ele>
        <time>2015-11-03T13:13:59Z</time>
      </trkpt>
      <trkpt lat="45.27564" lon="0.55732">
        <ele>111</ele>
        <time>2015-11-03T13:14:03Z</time>
      </trkpt>
      <trkpt lat="45.27566" lon="0.55737">
        <ele>111</ele>
        <time>2015-11-03T13:14:07Z</time>
      </trkpt>
      <trkpt lat="45.27568" lon="0.55742">
        <ele>111</ele>
        <time>2015-11-03T13:14:11Z</time>
      </trkpt>
      <trkpt lat="45.27569" lon="0.55747">
        <ele>112</ele>
        <time>2015-11-03T13:14:16Z</time>
      </trkpt>
      <trkpt lat="45.2757" lon="0.55756">
        <ele>113</ele>
        <time>2015-11-03T13:14:21Z</time>
      </trkpt>
      <trkpt lat="45.27572" lon="0.55761">
        <ele>114</ele>
        <time>2015-11-03T13:14:25Z</time>
      </trkpt>
      <trkpt lat="45.27573" lon="0.55767">
        <ele>113</ele>
        <time>2015-11-03T13:14:29Z</time>
      </trkpt>
      <trkpt lat="45.27576" lon="0.55772">
        <ele>115</ele>
        <time>2015-11-03T13:14:33Z</time>
      </trkpt>
      <trkpt lat="45.27577" lon="0.5578">
        <ele>115</ele>
        <time>2015-11-03T13:14:38Z</time>
      </trkpt>
      <trkpt lat="45.27577" lon="0.55786">
        <ele>115</ele>
        <time>2015-11-03T13:14:43Z</time>
      </trkpt>
      <trkpt lat="45.27577" lon="0.55792">
        <ele>114</ele>
        <time>2015-11-03T13:14:47Z</time>
      </trkpt>
      <trkpt lat="45.27579" lon="0.558">
        <ele>113</ele>
        <time>2015-11-03T13:14:52Z</time>
      </trkpt>
      <trkpt lat="45.2758" lon="0.55805">
        <ele>114</ele>
        <time>2015-11-03T13:14:57Z</time>
      </trkpt>
      <trkpt lat="45.2758" lon="0.55812">
        <ele>116</ele>
        <time>2015-11-03T13:15:01Z</time>
      </trkpt>
      <trkpt lat="45.27581" lon="0.55822">
        <ele>114</ele>
        <time>2015-11-03T13:15:06Z</time>
      </trkpt>
      <trkpt lat="45.27581" lon="0.55829">
        <ele>115</ele>
        <time>2015-11-03T13:15:10Z</time>
      </trkpt>
      <trkpt lat="45.27581" lon="0.55837">
        <ele>114</ele>
        <time>2015-11-03T13:15:14Z</time>
      </trkpt>
      <trkpt lat="45.2758" lon="0.55847">
        <ele>113</ele>
        <time>2015-11-03T13:15:19Z</time>
      </trkpt>
      <trkpt lat="45.27579" lon="0.55854">
        <ele>113</ele>
        <time>2015-11-03T13:15:23Z</time>
      </trkpt>
      <trkpt lat="45.27579" lon="0.5586">
        <ele>114</ele>
        <time>2015-11-03T13:15:27Z</time>
      </trkpt>
      <trkpt lat="45.27579" lon="0.55866">
        <ele>116</ele>
        <time>2015-11-03T13:15:31Z</time>
      </trkpt>
      <trkpt lat="45.27578" lon="0.55872">
        <ele>116</ele>
        <time>2015-11-03T13:15:35Z</time>
      </trkpt>
      <trkpt lat="45.27578" lon="0.55882">
        <ele>114</ele>
        <time>2015-11-03T13:15:40Z</time>
      </trkpt>
      <trkpt lat="45.27577" lon="0.5589">
        <ele>115</ele>
        <time>2015-11-03T13:15:45Z</time>
      </trkpt>
      <trkpt lat="45.27577" lon="0.55897">
        <ele>115</ele>
        <time>2015-11-03T13:15:49Z</time>
      </trkpt>
      <trkpt lat="45.27576" lon="0.55905">
        <ele>115</ele>
        <time>2015-11-03T13:15:54Z</time>
      </trkpt>
      <trkpt lat="45.27575" lon="0.55911">
        <ele>114</ele>
        <time>2015-11-03T13:15:58Z</time>
      </trkpt>
      <trkpt lat="45.27573" lon="0.55917">
        <ele>113</ele>
        <time>2015-11-03T13:16:02Z</time>
      </trkpt>
      <trkpt lat="45.27571" lon="0.55923">
        <ele>115</ele>
        <time>2015-11-03T13:16:07Z</time>
      </trkpt>
      <trkpt lat="45.2757" lon="0.55928">
        <ele>114</ele>
        <time>2015-11-03T13:16:11Z</time>
      </trkpt>
      <trkpt lat="45.27568" lon="0.55935">
        <ele>116</ele>
        <time>2015-11-03T13:16:15Z</time>
      </trkpt>
      <trkpt lat="45.27566" lon="0.55941">
        <ele>116</ele>
        <time>2015-11-03T13:16:19Z</time>
      </trkpt>
      <trkpt lat="45.27564" lon="0.55949">
        <ele>116</ele>
        <time>2015-11-03T13:16:24Z</time>
      </trkpt>
      <trkpt lat="45.27562" lon="0.55956">
        <ele>115</ele>
        <time>2015-11-03T13:16:28Z</time>
      </trkpt>
      <trkpt lat="45.27561" lon="0.55963">
        <ele>115</ele>
        <time>2015-11-03T13:16:32Z</time>
      </trkpt>
      <trkpt lat="45.27559" lon="0.55971">
        <ele>114</ele>
        <time>2015-11-03T13:16:37Z</time>
      </trkpt>
      <trkpt lat="45.27557" lon="0.55975">
        <ele>114</ele>
        <time>2015-11-03T13:16:41Z</time>
      </trkpt>
      <trkpt lat="45.27556" lon="0.55981">
        <ele>114</ele>
        <time>2015-11-03T13:16:46Z</time>
      </trkpt>
      <trkpt lat="45.27553" lon="0.55985">
        <ele>115</ele>
        <time>2015-11-03T13:16:50Z</time>
      </trkpt>
      <trkpt lat="45.27549" lon="0.55992">
        <ele>115</ele>
        <time>2015-11-03T13:16:55Z</time>
      </trkpt>
      <trkpt lat="45.27546" lon="0.55998">
        <ele>115</ele>
        <time>2015-11-03T13:16:59Z</time>
      </trkpt>
      <trkpt lat="45.27544" lon="0.56006">
        <ele>115</ele>
        <time>2015-11-03T13:17:04Z</time>
      </trkpt>
      <trkpt lat="45.27541" lon="0.56013">
        <ele>116</ele>
        <time>2015-11-03T13:17:09Z</time>
      </trkpt>
      <trkpt lat="45.27538" lon="0.56018">
        <ele>117</ele>
        <time>2015-11-03T13:17:13Z</time>
      </trkpt>
      <trkpt lat="45.27535" lon="0.56024">
        <ele>116</ele>
        <time>2015-11-03T13:17:18Z</time>
      </trkpt>
      <trkpt lat="45.27532" lon="0.5603">
        <ele>116</ele>
        <time>2015-11-03T13:17:22Z</time>
      </trkpt>
      <trkpt lat="45.27529" lon="0.56036">
        <ele>116</ele>
        <time>2015-11-03T13:17:26Z</time>
      </trkpt>
      <trkpt lat="45.27526" lon="0.56042">
        <ele>117</ele>
        <time>2015-11-03T13:17:30Z</time>
      </trkpt>
      <trkpt lat="45.27522" lon="0.56049">
        <ele>117</ele>
        <time>2015-11-03T13:17:35Z</time>
      </trkpt>
      <trkpt lat="45.2752" lon="0.56055">
        <ele>117</ele>
        <time>2015-11-03T13:17:39Z</time>
      </trkpt>
      <trkpt lat="45.27517" lon="0.5606">
        <ele>116</ele>
        <time>2015-11-03T13:17:43Z</time>
      </trkpt>
      <trkpt lat="45.27514" lon="0.56066">
        <ele>117</ele>
        <time>2015-11-03T13:17:47Z</time>
      </trkpt>
      <trkpt lat="45.27511" lon="0.56071">
        <ele>117</ele>
        <time>2015-11-03T13:17:52Z</time>
      </trkpt>
      <trkpt lat="45.27507" lon="0.56078">
        <ele>117</ele>
        <time>2015-11-03T13:17:57Z</time>
      </trkpt>
      <trkpt lat="45.27504" lon="0.56084">
        <ele>117</ele>
        <time>2015-11-03T13:18:01Z</time>
      </trkpt>
      <trkpt lat="45.275" lon="0.56091">
        <ele>118</ele>
        <time>2015-11-03T13:18:06Z</time>
      </trkpt>
      <trkpt lat="45.27497" lon="0.56097">
        <ele>118</ele>
        <time>2015-11-03T13:18:10Z</time>
      </trkpt>
      <trkpt lat="45.27494" lon="0.56103">
        <ele>118</ele>
        <time>2015-11-03T13:18:14Z</time>
      </trkpt>
      <trkpt lat="45.27491" lon="0.5611">
        <ele>118</ele>
        <time>2015-11-03T13:18:19Z</time>
      </trkpt>
      <trkpt lat="45.27489" lon="0.56116">
        <ele>118</ele>
        <time>2015-11-03T13:18:23Z</time>
      </trkpt>
      <trkpt lat="45.27486" lon="0.56122">
        <ele>118</ele>
        <time>2015-11-03T13:18:28Z</time>
      </trkpt>
      <trkpt lat="45.27483" lon="0.56126">
        <ele>118</ele>
        <time>2015-11-03T13:18:32Z</time>
      </trkpt>
      <trkpt lat="45.2748" lon="0.5613">
        <ele>117</ele>
        <time>2015-11-03T13:18:36Z</time>
      </trkpt>
      <trkpt lat="45.27478" lon="0.56135">
        <ele>120</ele>
        <time>2015-11-03T13:18:41Z</time>
      </trkpt>
      <trkpt lat="45.27477" lon="0.56141">
        <ele>120</ele>
        <time>2015-11-03T13:18:45Z</time>
      </trkpt>
      <trkpt lat="45.27474" lon="0.56149">
        <ele>119</ele>
        <time>2015-11-03T13:18:49Z</time>
      </trkpt>
      <trkpt lat="45.27472" lon="0.56154">
        <ele>120</ele>
        <time>2015-11-03T13:18:53Z</time>
      </trkpt>
      <trkpt lat="45.2747" lon="0.56159">
        <ele>119</ele>
        <time>2015-11-03T13:18:57Z</time>
      </trkpt>
      <trkpt lat="45.27468" lon="0.56164">
        <ele>118</ele>
        <time>2015-11-03T13:19:01Z</time>
      </trkpt>
      <trkpt lat="45.27466" lon="0.56171">
        <ele>118</ele>
        <time>2015-11-03T13:19:05Z</time>
      </trkpt>
      <trkpt lat="45.27463" lon="0.56178">
        <ele>118</ele>
        <time>2015-11-03T13:19:10Z</time>
      </trkpt>
      <trkpt lat="45.27461" lon="0.56186">
        <ele>118</ele>
        <time>2015-11-03T13:19:14Z</time>
      </trkpt>
      <trkpt lat="45.27458" lon="0.56192">
        <ele>121</ele>
        <time>2015-11-03T13:19:19Z</time>
      </trkpt>
      <trkpt lat="45.27457" lon="0.56198">
        <ele>121</ele>
        <time>2015-11-03T13:19:23Z</time>
      </trkpt>
      <trkpt lat="45.27455" lon="0.56203">
        <ele>120</ele>
        <time>2015-11-03T13:19:28Z</time>
      </trkpt>
      <trkpt lat="45.27453" lon="0.56209">
        <ele>121</ele>
        <time>2015-11-03T13:19:32Z</time>
      </trkpt>
      <trkpt lat="45.2745" lon="0.56214">
        <ele>120</ele>
        <time>2015-11-03T13:19:36Z</time>
      </trkpt>
      <trkpt lat="45.27447" lon="0.56219">
        <ele>121</ele>
        <time>2015-11-03T13:19:40Z</time>
      </trkpt>
      <trkpt lat="45.27444" lon="0.56226">
        <ele>120</ele>
        <time>2015-11-03T13:19:44Z</time>
      </trkpt>
      <trkpt lat="45.27443" lon="0.56232">
        <ele>120</ele>
        <time>2015-11-03T13:19:48Z</time>
      </trkpt>
      <trkpt lat="45.2744" lon="0.56239">
        <ele>121</ele>
        <time>2015-11-03T13:19:53Z</time>
      </trkpt>
      <trkpt lat="45.27438" lon="0.56247">
        <ele>121</ele>
        <time>2015-11-03T13:19:58Z</time>
      </trkpt>
      <trkpt lat="45.27436" lon="0.56251">
        <ele>124</ele>
        <time>2015-11-03T13:20:03Z</time>
      </trkpt>
      <trkpt lat="45.27434" lon="0.56256">
        <ele>124</ele>
        <time>2015-11-03T13:20:07Z</time>
      </trkpt>
      <trkpt lat="45.2743" lon="0.56259">
        <ele>125</ele>
        <time>2015-11-03T13:20:11Z</time>
      </trkpt>
      <trkpt lat="45.27426" lon="0.56261">
        <ele>125</ele>
        <time>2015-11-03T13:20:15Z</time>
      </trkpt>
      <trkpt lat="45.27424" lon="0.56267">
        <ele>125</ele>
        <time>2015-11-03T13:20:19Z</time>
      </trkpt>
      <trkpt lat="45.27421" lon="0.56273">
        <ele>126</ele>
        <time>2015-11-03T13:20:24Z</time>
      </trkpt>
      <trkpt lat="45.27418" lon="0.56276">
        <ele>129</ele>
        <time>2015-11-03T13:20:30Z</time>
      </trkpt>
      <trkpt lat="45.27414" lon="0.56287">
        <ele>127</ele>
        <time>2015-11-03T13:20:35Z</time>
      </trkpt>
      <trkpt lat="45.27411" lon="0.56294">
        <ele>125</ele>
        <time>2015-11-03T13:20:39Z</time>
      </trkpt>
      <trkpt lat="45.27407" lon="0.563">
        <ele>126</ele>
        <time>2015-11-03T13:20:44Z</time>
      </trkpt>
      <trkpt lat="45.27404" lon="0.56304">
        <ele>127</ele>
        <time>2015-11-03T13:20:48Z</time>
      </trkpt>
      <trkpt lat="45.27402" lon="0.56311">
        <ele>126</ele>
        <time>2015-11-03T13:20:52Z</time>
      </trkpt>
      <trkpt lat="45.274" lon="0.5632">
        <ele>124</ele>
        <time>2015-11-03T13:20:56Z</time>
      </trkpt>
      <trkpt lat="45.27395" lon="0.56327">
        <ele>123</ele>
        <time>2015-11-03T13:21:01Z</time>
      </trkpt>
      <trkpt lat="45.27391" lon="0.56332">
        <ele>123</ele>
        <time>2015-11-03T13:21:05Z</time>
      </trkpt>
      <trkpt lat="45.27388" lon="0.56336">
        <ele>122</ele>
        <time>2015-11-03T13:21:09Z</time>
      </trkpt>
      <trkpt lat="45.27384" lon="0.5634">
        <ele>122</ele>
        <time>2015-11-03T13:21:13Z</time>
      </trkpt>
      <trkpt lat="45.27381" lon="0.56345">
        <ele>123</ele>
        <time>2015-11-03T13:21:18Z</time>
      </trkpt>
      <trkpt lat="45.27376" lon="0.5635">
        <ele>125</ele>
        <time>2015-11-03T13:21:23Z</time>
      </trkpt>
      <trkpt lat="45.27372" lon="0.56355">
        <ele>124</ele>
        <time>2015-11-03T13:21:27Z</time>
      </trkpt>
      <trkpt lat="45.27367" lon="0.56359">
        <ele>125</ele>
        <time>2015-11-03T13:21:32Z</time>
      </trkpt>
      <trkpt lat="45.27363" lon="0.56363">
        <ele>127</ele>
        <time>2015-11-03T13:21:36Z</time>
      </trkpt>
      <trkpt lat="45.27358" lon="0.56367">
        <ele>127</ele>
        <time>2015-11-03T13:21:41Z</time>
      </trkpt>
      <trkpt lat="45.27355" lon="0.56371">
        <ele>125</ele>
        <time>2015-11-03T13:21:45Z</time>
      </trkpt>
      <trkpt lat="45.27352" lon="0.56373">
        <ele>125</ele>
        <time>2015-11-03T13:21:49Z</time>
      </trkpt>
      <trkpt lat="45.27348" lon="0.56376">
        <ele>126</ele>
        <time>2015-11-03T13:21:53Z</time>
      </trkpt>
      <trkpt lat="45.27343" lon="0.5638">
        <ele>127</ele>
        <time>2015-11-03T13:21:58Z</time>
      </trkpt>
      <trkpt lat="45.27339" lon="0.56384">
        <ele>128</ele>
        <time>2015-11-03T13:22:02Z</time>
      </trkpt>
      <trkpt lat="45.27335" lon="0.56388">
        <ele>127</ele>
        <time>2015-11-03T13:22:06Z</time>
      </trkpt>
      <trkpt lat="45.27331" lon="0.56393">
        <ele>126</ele>
        <time>2015-11-03T13:22:10Z</time>
      </trkpt>
      <trkpt lat="45.27327" lon="0.56396">
        <ele>128</ele>
        <time>2015-11-03T13:22:14Z</time>
      </trkpt>
      <trkpt lat="45.27323" lon="0.564">
        <ele>128</ele>
        <time>2015-11-03T13:22:19Z</time>
      </trkpt>
      <trkpt lat="45.27319" lon="0.56405">
        <ele>127</ele>
        <time>2015-11-03T13:22:23Z</time>
      </trkpt>
      <trkpt lat="45.27315" lon="0.56409">
        <ele>127</ele>
        <time>2015-11-03T13:22:27Z</time>
      </trkpt>
      <trkpt lat="45.2731" lon="0.56415">
        <ele>127</ele>
        <time>2015-11-03T13:22:32Z</time>
      </trkpt>
      <trkpt lat="45.27308" lon="0.5642">
        <ele>125</ele>
        <time>2015-11-03T13:22:36Z</time>
      </trkpt>
      <trkpt lat="45.27302" lon="0.56425">
        <ele>125</ele>
        <time>2015-11-03T13:22:41Z</time>
      </trkpt>
      <trkpt lat="45.27297" lon="0.56429">
        <ele>127</ele>
        <time>2015-11-03T13:22:45Z</time>
      </trkpt>
      <trkpt lat="45.27292" lon="0.56432">
        <ele>128</ele>
        <time>2015-11-03T13:22:49Z</time>
      </trkpt>
      <trkpt lat="45.27288" lon="0.56435">
        <ele>129</ele>
        <time>2015-11-03T13:22:53Z</time>
      </trkpt>
      <trkpt lat="45.27284" lon="0.5644">
        <ele>129</ele>
        <time>2015-11-03T13:22:58Z</time>
      </trkpt>
      <trkpt lat="45.2728" lon="0.56443">
        <ele>128</ele>
        <time>2015-11-03T13:23:02Z</time>
      </trkpt>
      <trkpt lat="45.27275" lon="0.56448">
        <ele>127</ele>
        <time>2015-11-03T13:23:07Z</time>
      </trkpt>
      <trkpt lat="45.27271" lon="0.56452">
        <ele>128</ele>
        <time>2015-11-03T13:23:11Z</time>
      </trkpt>
      <trkpt lat="45.27267" lon="0.56456">
        <ele>129</ele>
        <time>2015-11-03T13:23:15Z</time>
      </trkpt>
      <trkpt lat="45.27263" lon="0.5646">
        <ele>128</ele>
        <time>2015-11-03T13:23:19Z</time>
      </trkpt>
      <trkpt lat="45.27259" lon="0.56465">
        <ele>129</ele>
        <time>2015-11-03T13:23:24Z</time>
      </trkpt>
      <trkpt lat="45.27255" lon="0.56468">
        <ele>130</ele>
        <time>2015-11-03T13:23:28Z</time>
      </trkpt>
      <trkpt lat="45.27252" lon="0.56472">
        <ele>130</ele>
        <time>2015-11-03T13:23:32Z</time>
      </trkpt>
      <trkpt lat="45.27247" lon="0.56478">
        <ele>129</ele>
        <time>2015-11-03T13:23:37Z</time>
      </trkpt>
      <trkpt lat="45.27244" lon="0.56481">
        <ele>129</ele>
        <time>2015-11-03T13:23:42Z</time>
      </trkpt>
      <trkpt lat="45.2724" lon="0.56481">
        <ele>131</ele>
        <time>2015-11-03T13:23:47Z</time>
      </trkpt>
      <trkpt lat="45.27236" lon="0.56484">
        <ele>130</ele>
        <time>2015-11-03T13:23:54Z</time>
      </trkpt>
      <trkpt lat="45.27233" lon="0.56487">
        <ele>129</ele>
        <time>2015-11-03T13:24:02Z</time>
      </trkpt>
      <trkpt lat="45.27231" lon="0.56492">
        <ele>128</ele>
        <time>2015-11-03T13:24:14Z</time>
      </trkpt>
      <trkpt lat="45.27234" lon="0.56496">
        <ele>128</ele>
        <time>2015-11-03T13:24:19Z</time>
      </trkpt>
      <trkpt lat="45.27236" lon="0.56502">
        <ele>128</ele>
        <time>2015-11-03T13:24:24Z</time>
      </trkpt>
      <trkpt lat="45.27238" lon="0.56508">
        <ele>128</ele>
        <time>2015-11-03T13:24:29Z</time>
      </trkpt>
      <trkpt lat="45.27239" lon="0.56514">
        <ele>128</ele>
        <time>2015-11-03T13:24:33Z</time>
      </trkpt>
      <trkpt lat="45.27238" lon="0.5652">
        <ele>129</ele>
        <time>2015-11-03T13:24:38Z</time>
      </trkpt>
      <trkpt lat="45.27234" lon="0.56525">
        <ele>129</ele>
        <time>2015-11-03T13:24:42Z</time>
      </trkpt>
      <trkpt lat="45.27233" lon="0.5653">
        <ele>130</ele>
        <time>2015-11-03T13:24:46Z</time>
      </trkpt>
      <trkpt lat="45.27232" lon="0.56538">
        <ele>130</ele>
        <time>2015-11-03T13:24:51Z</time>
      </trkpt>
      <trkpt lat="45.27229" lon="0.56542">
        <ele>131</ele>
        <time>2015-11-03T13:24:55Z</time>
      </trkpt>
      <trkpt lat="45.27228" lon="0.56548">
        <ele>131</ele>
        <time>2015-11-03T13:24:59Z</time>
      </trkpt>
      <trkpt lat="45.27226" lon="0.56553">
        <ele>133</ele>
        <time>2015-11-03T13:25:04Z</time>
      </trkpt>
      <trkpt lat="45.27224" lon="0.56561">
        <ele>134</ele>
        <time>2015-11-03T13:25:09Z</time>
      </trkpt>
      <trkpt lat="45.27224" lon="0.56569">
        <ele>133</ele>
        <time>2015-11-03T13:25:13Z</time>
      </trkpt>
      <trkpt lat="45.27223" lon="0.56577">
        <ele>131</ele>
        <time>2015-11-03T13:25:17Z</time>
      </trkpt>
      <trkpt lat="45.27224" lon="0.56589">
        <ele>129</ele>
        <time>2015-11-03T13:25:22Z</time>
      </trkpt>
      <trkpt lat="45.27223" lon="0.56596">
        <ele>129</ele>
        <time>2015-11-03T13:25:26Z</time>
      </trkpt>
      <trkpt lat="45.27221" lon="0.56602">
        <ele>130</ele>
        <time>2015-11-03T13:25:33Z</time>
      </trkpt>
      <trkpt lat="45.27221" lon="0.56607">
        <ele>130</ele>
        <time>2015-11-03T13:25:38Z</time>
      </trkpt>
      <trkpt lat="45.2722" lon="0.56613">
        <ele>131</ele>
        <time>2015-11-03T13:25:42Z</time>
      </trkpt>
      <trkpt lat="45.2722" lon="0.5662">
        <ele>131</ele>
        <time>2015-11-03T13:25:46Z</time>
      </trkpt>
      <trkpt lat="45.27219" lon="0.56624">
        <ele>132</ele>
        <time>2015-11-03T13:25:50Z</time>
      </trkpt>
      <trkpt lat="45.27218" lon="0.5663">
        <ele>131</ele>
        <time>2015-11-03T13:25:54Z</time>
      </trkpt>
      <trkpt lat="45.27217" lon="0.56636">
        <ele>133</ele>
        <time>2015-11-03T13:25:58Z</time>
      </trkpt>
      <trkpt lat="45.27217" lon="0.56641">
        <ele>134</ele>
        <time>2015-11-03T13:26:03Z</time>
      </trkpt>
      <trkpt lat="45.27215" lon="0.56646">
        <ele>137</ele>
        <time>2015-11-03T13:26:08Z</time>
      </trkpt>
      <trkpt lat="45.27215" lon="0.56653">
        <ele>138</ele>
        <time>2015-11-03T13:26:14Z</time>
      </trkpt>
      <trkpt lat="45.27215" lon="0.56657">
        <ele>141</ele>
        <time>2015-11-03T13:26:18Z</time>
      </trkpt>
      <trkpt lat="45.27214" lon="0.56667">
        <ele>139</ele>
        <time>2015-11-03T13:26:23Z</time>
      </trkpt>
      <trkpt lat="45.27213" lon="0.56675">
        <ele>139</ele>
        <time>2015-11-03T13:26:28Z</time>
      </trkpt>
      <trkpt lat="45.27212" lon="0.5668">
        <ele>140</ele>
        <time>2015-11-03T13:26:33Z</time>
      </trkpt>
      <trkpt lat="45.27211" lon="0.56685">
        <ele>142</ele>
        <time>2015-11-03T13:26:38Z</time>
      </trkpt>
      <trkpt lat="45.27209" lon="0.5669">
        <ele>144</ele>
        <time>2015-11-03T13:26:43Z</time>
      </trkpt>
      <trkpt lat="45.27208" lon="0.56695">
        <ele>146</ele>
        <time>2015-11-03T13:26:49Z</time>
      </trkpt>
      <trkpt lat="45.27206" lon="0.56701">
        <ele>145</ele>
        <time>2015-11-03T13:26:53Z</time>
      </trkpt>
      <trkpt lat="45.27205" lon="0.56709">
        <ele>144</ele>
        <time>2015-11-03T13:26:58Z</time>
      </trkpt>
      <trkpt lat="45.27205" lon="0.56714">
        <ele>144</ele>
        <time>2015-11-03T13:27:02Z</time>
      </trkpt>
      <trkpt lat="45.27202" lon="0.56721">
        <ele>143</ele>
        <time>2015-11-03T13:27:07Z</time>
      </trkpt>
      <trkpt lat="45.272" lon="0.56725">
        <ele>144</ele>
        <time>2015-11-03T13:27:11Z</time>
      </trkpt>
      <trkpt lat="45.27198" lon="0.56735">
        <ele>143</ele>
        <time>2015-11-03T13:27:16Z</time>
      </trkpt>
      <trkpt lat="45.27195" lon="0.5674">
        <ele>143</ele>
        <time>2015-11-03T13:27:21Z</time>
      </trkpt>
      <trkpt lat="45.27194" lon="0.56747">
        <ele>142</ele>
        <time>2015-11-03T13:27:25Z</time>
      </trkpt>
      <trkpt lat="45.27192" lon="0.56753">
        <ele>143</ele>
        <time>2015-11-03T13:27:30Z</time>
      </trkpt>
      <trkpt lat="45.2719" lon="0.56758">
        <ele>143</ele>
        <time>2015-11-03T13:27:34Z</time>
      </trkpt>
      <trkpt lat="45.27188" lon="0.56764">
        <ele>141</ele>
        <time>2015-11-03T13:27:38Z</time>
      </trkpt>
      <trkpt lat="45.27185" lon="0.5677">
        <ele>141</ele>
        <time>2015-11-03T13:27:43Z</time>
      </trkpt>
      <trkpt lat="45.2718" lon="0.56773">
        <ele>141</ele>
        <time>2015-11-03T13:27:47Z</time>
      </trkpt>
      <trkpt lat="45.27177" lon="0.56775">
        <ele>140</ele>
        <time>2015-11-03T13:27:52Z</time>
      </trkpt>
      <trkpt lat="45.27174" lon="0.56781">
        <ele>139</ele>
        <time>2015-11-03T13:27:56Z</time>
      </trkpt>
      <trkpt lat="45.27171" lon="0.56785">
        <ele>140</ele>
        <time>2015-11-03T13:28:00Z</time>
      </trkpt>
      <trkpt lat="45.27168" lon="0.56788">
        <ele>141</ele>
        <time>2015-11-03T13:28:04Z</time>
      </trkpt>
      <trkpt lat="45.27164" lon="0.56796">
        <ele>138</ele>
        <time>2015-11-03T13:28:09Z</time>
      </trkpt>
      <trkpt lat="45.2716" lon="0.56798">
        <ele>139</ele>
        <time>2015-11-03T13:28:13Z</time>
      </trkpt>
      <trkpt lat="45.27156" lon="0.568">
        <ele>139</ele>
        <time>2015-11-03T13:28:17Z</time>
      </trkpt>
      <trkpt lat="45.27151" lon="0.56801">
        <ele>138</ele>
        <time>2015-11-03T13:28:22Z</time>
      </trkpt>
      <trkpt lat="45.27148" lon="0.56804">
        <ele>137</ele>
        <time>2015-11-03T13:28:26Z</time>
      </trkpt>
      <trkpt lat="45.27145" lon="0.56808">
        <ele>136</ele>
        <time>2015-11-03T13:28:30Z</time>
      </trkpt>
      <trkpt lat="45.2714" lon="0.56809">
        <ele>136</ele>
        <time>2015-11-03T13:28:35Z</time>
      </trkpt>
      <trkpt lat="45.27134" lon="0.56808">
        <ele>135</ele>
        <time>2015-11-03T13:28:39Z</time>
      </trkpt>
      <trkpt lat="45.2713" lon="0.56814">
        <ele>137</ele>
        <time>2015-11-03T13:28:44Z</time>
      </trkpt>
      <trkpt lat="45.27128" lon="0.56822">
        <ele>135</ele>
        <time>2015-11-03T13:28:48Z</time>
      </trkpt>
      <trkpt lat="45.27125" lon="0.56825">
        <ele>137</ele>
        <time>2015-11-03T13:28:52Z</time>
      </trkpt>
      <trkpt lat="45.2712" lon="0.56825">
        <ele>140</ele>
        <time>2015-11-03T13:28:56Z</time>
      </trkpt>
      <trkpt lat="45.27117" lon="0.5683">
        <ele>140</ele>
        <time>2015-11-03T13:29:01Z</time>
      </trkpt>
      <trkpt lat="45.27113" lon="0.56833">
        <ele>139</ele>
        <time>2015-11-03T13:29:05Z</time>
      </trkpt>
      <trkpt lat="45.27109" lon="0.56836">
        <ele>140</ele>
        <time>2015-11-03T13:29:10Z</time>
      </trkpt>
      <trkpt lat="45.27106" lon="0.56844">
        <ele>139</ele>
        <time>2015-11-03T13:29:14Z</time>
      </trkpt>
      <trkpt lat="45.27103" lon="0.56848">
        <ele>141</ele>
        <time>2015-11-03T13:29:19Z</time>
      </trkpt>
      <trkpt lat="45.271" lon="0.56851">
        <ele>141</ele>
        <time>2015-11-03T13:29:25Z</time>
      </trkpt>
      <trkpt lat="45.27095" lon="0.56852">
        <ele>140</ele>
        <time>2015-11-03T13:29:29Z</time>
      </trkpt>
      <trkpt lat="45.27089" lon="0.56853">
        <ele>139</ele>
        <time>2015-11-03T13:29:33Z</time>
      </trkpt>
      <trkpt lat="45.27085" lon="0.56856">
        <ele>138</ele>
        <time>2015-11-03T13:29:37Z</time>
      </trkpt>
      <trkpt lat="45.2708" lon="0.56859">
        <ele>138</ele>
        <time>2015-11-03T13:29:41Z</time>
      </trkpt>
      <trkpt lat="45.27075" lon="0.5686">
        <ele>140</ele>
        <time>2015-11-03T13:29:45Z</time>
      </trkpt>
      <trkpt lat="45.27072" lon="0.5686">
        <ele>142</ele>
        <time>2015-11-03T13:29:53Z</time>
      </trkpt>
      <trkpt lat="45.27067" lon="0.56859">
        <ele>142</ele>
        <time>2015-11-03T13:29:57Z</time>
      </trkpt>
      <trkpt lat="45.27062" lon="0.56858">
        <ele>145</ele>
        <time>2015-11-03T13:30:06Z</time>
      </trkpt>
      <trkpt lat="45.27057" lon="0.56858">
        <ele>143</ele>
        <time>2015-11-03T13:30:11Z</time>
      </trkpt>
      <trkpt lat="45.27053" lon="0.56858">
        <ele>144</ele>
        <time>2015-11-03T13:30:17Z</time>
      </trkpt>
      <trkpt lat="45.27049" lon="0.56858">
        <ele>145</ele>
        <time>2015-11-03T13:30:21Z</time>
      </trkpt>
      <trkpt lat="45.27045" lon="0.5686">
        <ele>149</ele>
        <time>2015-11-03T13:30:27Z</time>
      </trkpt>
      <trkpt lat="45.27043" lon="0.56865">
        <ele>151</ele>
        <time>2015-11-03T13:30:34Z</time>
      </trkpt>
      <trkpt lat="45.27042" lon="0.56871">
        <ele>150</ele>
        <time>2015-11-03T13:30:46Z</time>
      </trkpt>
      <trkpt lat="45.27045" lon="0.56876">
        <ele>149</ele>
        <time>2015-11-03T13:30:50Z</time>
      </trkpt>
      <trkpt lat="45.27047" lon="0.56881">
        <ele>148</ele>
        <time>2015-11-03T13:30:56Z</time>
      </trkpt>
      <trkpt lat="45.27044" lon="0.56877">
        <ele>152</ele>
        <time>2015-11-03T13:31:45Z</time>
      </trkpt>
      <trkpt lat="45.2704" lon="0.56876">
        <ele>155</ele>
        <time>2015-11-03T13:31:51Z</time>
      </trkpt>
      <trkpt lat="45.27036" lon="0.56875">
        <ele>159</ele>
        <time>2015-11-03T13:31:56Z</time>
      </trkpt>
      <trkpt lat="45.27031" lon="0.56877">
        <ele>159</ele>
        <time>2015-11-03T13:32:01Z</time>
      </trkpt>
      <trkpt lat="45.27027" lon="0.56877">
        <ele>161</ele>
        <time>2015-11-03T13:32:05Z</time>
      </trkpt>
      <trkpt lat="45.27022" lon="0.56884">
        <ele>159</ele>
        <time>2015-11-03T13:32:09Z</time>
      </trkpt>
      <trkpt lat="45.27018" lon="0.56884">
        <ele>157</ele>
        <time>2015-11-03T13:32:14Z</time>
      </trkpt>
      <trkpt lat="45.27012" lon="0.56889">
        <ele>154</ele>
        <time>2015-11-03T13:32:19Z</time>
      </trkpt>
      <trkpt lat="45.27007" lon="0.56891">
        <ele>153</ele>
        <time>2015-11-03T13:32:23Z</time>
      </trkpt>
      <trkpt lat="45.27002" lon="0.56897">
        <ele>153</ele>
        <time>2015-11-03T13:32:27Z</time>
      </trkpt>
      <trkpt lat="45.26997" lon="0.569">
        <ele>151</ele>
        <time>2015-11-03T13:32:31Z</time>
      </trkpt>
      <trkpt lat="45.26993" lon="0.56905">
        <ele>150</ele>
        <time>2015-11-03T13:32:35Z</time>
      </trkpt>
      <trkpt lat="45.2699" lon="0.56905">
        <ele>153</ele>
        <time>2015-11-03T13:32:41Z</time>
      </trkpt>
      <trkpt lat="45.26986" lon="0.56905">
        <ele>156</ele>
        <time>2015-11-03T13:32:47Z</time>
      </trkpt>
      <trkpt lat="45.26981" lon="0.56904">
        <ele>155</ele>
        <time>2015-11-03T13:32:51Z</time>
      </trkpt>
      <trkpt lat="45.26977" lon="0.56903">
        <ele>155</ele>
        <time>2015-11-03T13:32:59Z</time>
      </trkpt>
      <trkpt lat="45.26975" lon="0.56898">
        <ele>158</ele>
        <time>2015-11-03T13:33:08Z</time>
      </trkpt>
      <trkpt lat="45.26971" lon="0.56897">
        <ele>157</ele>
        <time>2015-11-03T13:33:13Z</time>
      </trkpt>
      <trkpt lat="45.26964" lon="0.56894">
        <ele>158</ele>
        <time>2015-11-03T13:33:18Z</time>
      </trkpt>
      <trkpt lat="45.26962" lon="0.5689">
        <ele>165</ele>
        <time>2015-11-03T13:33:24Z</time>
      </trkpt>
      <trkpt lat="45.2696" lon="0.56886">
        <ele>164</ele>
        <time>2015-11-03T13:33:29Z</time>
      </trkpt>
      <trkpt lat="45.26952" lon="0.5688">
        <ele>165</ele>
        <time>2015-11-03T13:33:34Z</time>
      </trkpt>
      <trkpt lat="45.26944" lon="0.56878">
        <ele>167</ele>
        <time>2015-11-03T13:33:39Z</time>
      </trkpt>
      <trkpt lat="45.2694" lon="0.56881">
        <ele>165</ele>
        <time>2015-11-03T13:33:45Z</time>
      </trkpt>
      <trkpt lat="45.26931" lon="0.56885">
        <ele>162</ele>
        <time>2015-11-03T13:33:50Z</time>
      </trkpt>
      <trkpt lat="45.26925" lon="0.56886">
        <ele>160</ele>
        <time>2015-11-03T13:33:54Z</time>
      </trkpt>
      <trkpt lat="45.2692" lon="0.56885">
        <ele>161</ele>
        <time>2015-11-03T13:33:58Z</time>
      </trkpt>
      <trkpt lat="45.26914" lon="0.56885">
        <ele>162</ele>
        <time>2015-11-03T13:34:03Z</time>
      </trkpt>
      <trkpt lat="45.26909" lon="0.56883">
        <ele>163</ele>
        <time>2015-11-03T13:34:07Z</time>
      </trkpt>
      <trkpt lat="45.26904" lon="0.56885">
        <ele>161</ele>
        <time>2015-11-03T13:34:11Z</time>
      </trkpt>
      <trkpt lat="45.26899" lon="0.56887">
        <ele>160</ele>
        <time>2015-11-03T13:34:15Z</time>
      </trkpt>
      <trkpt lat="45.26894" lon="0.56889">
        <ele>162</ele>
        <time>2015-11-03T13:34:20Z</time>
      </trkpt>
      <trkpt lat="45.26893" lon="0.56894">
        <ele>159</ele>
        <time>2015-11-03T13:34:24Z</time>
      </trkpt>
      <trkpt lat="45.26885" lon="0.56892">
        <ele>160</ele>
        <time>2015-11-03T13:34:29Z</time>
      </trkpt>
      <trkpt lat="45.2688" lon="0.56894">
        <ele>161</ele>
        <time>2015-11-03T13:34:33Z</time>
      </trkpt>
      <trkpt lat="45.26876" lon="0.56895">
        <ele>163</ele>
        <time>2015-11-03T13:34:38Z</time>
      </trkpt>
      <trkpt lat="45.2687" lon="0.56902">
        <ele>160</ele>
        <time>2015-11-03T13:34:43Z</time>
      </trkpt>
      <trkpt lat="45.26866" lon="0.56905">
        <ele>160</ele>
        <time>2015-11-03T13:34:47Z</time>
      </trkpt>
      <trkpt lat="45.26861" lon="0.56904">
        <ele>160</ele>
        <time>2015-11-03T13:34:52Z</time>
      </trkpt>
      <trkpt lat="45.26855" lon="0.56906">
        <ele>159</ele>
        <time>2015-11-03T13:34:57Z</time>
      </trkpt>
      <trkpt lat="45.26851" lon="0.5691">
        <ele>159</ele>
        <time>2015-11-03T13:35:01Z</time>
      </trkpt>
      <trkpt lat="45.26845" lon="0.56911">
        <ele>160</ele>
        <time>2015-11-03T13:35:06Z</time>
      </trkpt>
      <trkpt lat="45.26841" lon="0.56913">
        <ele>162</ele>
        <time>2015-11-03T13:35:10Z</time>
      </trkpt>
      <trkpt lat="45.26835" lon="0.56916">
        <ele>164</ele>
        <time>2015-11-03T13:35:15Z</time>
      </trkpt>
      <trkpt lat="45.26831" lon="0.56919">
        <ele>164</ele>
        <time>2015-11-03T13:35:20Z</time>
      </trkpt>
      <trkpt lat="45.26825" lon="0.56924">
        <ele>163</ele>
        <time>2015-11-03T13:35:25Z</time>
      </trkpt>
      <trkpt lat="45.26819" lon="0.56928">
        <ele>162</ele>
        <time>2015-11-03T13:35:29Z</time>
      </trkpt>
      <trkpt lat="45.26813" lon="0.5693">
        <ele>163</ele>
        <time>2015-11-03T13:35:33Z</time>
      </trkpt>
      <trkpt lat="45.26805" lon="0.56933">
        <ele>166</ele>
        <time>2015-11-03T13:35:38Z</time>
      </trkpt>
      <trkpt lat="45.268" lon="0.56936">
        <ele>167</ele>
        <time>2015-11-03T13:35:42Z</time>
      </trkpt>
      <trkpt lat="45.26793" lon="0.5694">
        <ele>168</ele>
        <time>2015-11-03T13:35:47Z</time>
      </trkpt>
      <trkpt lat="45.26788" lon="0.56942">
        <ele>170</ele>
        <time>2015-11-03T13:35:51Z</time>
      </trkpt>
      <trkpt lat="45.2678" lon="0.56947">
        <ele>171</ele>
        <time>2015-11-03T13:35:56Z</time>
      </trkpt>
      <trkpt lat="45.26774" lon="0.5695">
        <ele>172</ele>
        <time>2015-11-03T13:36:00Z</time>
      </trkpt>
      <trkpt lat="45.26768" lon="0.56954">
        <ele>172</ele>
        <time>2015-11-03T13:36:04Z</time>
      </trkpt>
      <trkpt lat="45.26762" lon="0.56958">
        <ele>173</ele>
        <time>2015-11-03T13:36:09Z</time>
      </trkpt>
      <trkpt lat="45.26755" lon="0.5696">
        <ele>175</ele>
        <time>2015-11-03T13:36:14Z</time>
      </trkpt>
      <trkpt lat="45.26751" lon="0.56964">
        <ele>173</ele>
        <time>2015-11-03T13:36:18Z</time>
      </trkpt>
      <trkpt lat="45.26746" lon="0.56966">
        <ele>173</ele>
        <time>2015-11-03T13:36:22Z</time>
      </trkpt>
      <trkpt lat="45.26741" lon="0.56971">
        <ele>171</ele>
        <time>2015-11-03T13:36:26Z</time>
      </trkpt>
      <trkpt lat="45.26737" lon="0.56974">
        <ele>164</ele>
        <time>2015-11-03T13:36:30Z</time>
      </trkpt>
      <trkpt lat="45.26729" lon="0.56972">
        <ele>169</ele>
        <time>2015-11-03T13:36:35Z</time>
      </trkpt>
      <trkpt lat="45.26723" lon="0.56973">
        <ele>167</ele>
        <time>2015-11-03T13:36:39Z</time>
      </trkpt>
      <trkpt lat="45.26718" lon="0.5698">
        <ele>170</ele>
        <time>2015-11-03T13:36:44Z</time>
      </trkpt>
      <trkpt lat="45.26713" lon="0.56981">
        <ele>170</ele>
        <time>2015-11-03T13:36:48Z</time>
      </trkpt>
      <trkpt lat="45.26707" lon="0.56985">
        <ele>172</ele>
        <time>2015-11-03T13:36:53Z</time>
      </trkpt>
      <trkpt lat="45.26702" lon="0.56986">
        <ele>173</ele>
        <time>2015-11-03T13:36:57Z</time>
      </trkpt>
      <trkpt lat="45.26698" lon="0.56985">
        <ele>173</ele>
        <time>2015-11-03T13:37:01Z</time>
      </trkpt>
      <trkpt lat="45.26694" lon="0.56986">
        <ele>173</ele>
        <time>2015-11-03T13:37:05Z</time>
      </trkpt>
      <trkpt lat="45.26686" lon="0.56985">
        <ele>177</ele>
        <time>2015-11-03T13:37:10Z</time>
      </trkpt>
      <trkpt lat="45.26682" lon="0.56983">
        <ele>178</ele>
        <time>2015-11-03T13:37:14Z</time>
      </trkpt>
      <trkpt lat="45.26676" lon="0.56979">
        <ele>177</ele>
        <time>2015-11-03T13:37:19Z</time>
      </trkpt>
      <trkpt lat="45.26671" lon="0.56976">
        <ele>178</ele>
        <time>2015-11-03T13:37:24Z</time>
      </trkpt>
      <trkpt lat="45.26667" lon="0.56976">
        <ele>178</ele>
        <time>2015-11-03T13:37:28Z</time>
      </trkpt>
      <trkpt lat="45.26661" lon="0.56974">
        <ele>180</ele>
        <time>2015-11-03T13:37:32Z</time>
      </trkpt>
      <trkpt lat="45.26655" lon="0.56972">
        <ele>180</ele>
        <time>2015-11-03T13:37:37Z</time>
      </trkpt>
      <trkpt lat="45.26649" lon="0.56971">
        <ele>183</ele>
        <time>2015-11-03T13:37:41Z</time>
      </trkpt>
      <trkpt lat="45.26642" lon="0.56972">
        <ele>183</ele>
        <time>2015-11-03T13:37:46Z</time>
      </trkpt>
      <trkpt lat="45.26638" lon="0.56973">
        <ele>186</ele>
        <time>2015-11-03T13:37:50Z</time>
      </trkpt>
      <trkpt lat="45.26632" lon="0.56973">
        <ele>183</ele>
        <time>2015-11-03T13:37:55Z</time>
      </trkpt>
      <trkpt lat="45.26626" lon="0.56977">
        <ele>180</ele>
        <time>2015-11-03T13:38:00Z</time>
      </trkpt>
      <trkpt lat="45.26621" lon="0.56979">
        <ele>179</ele>
        <time>2015-11-03T13:38:04Z</time>
      </trkpt>
      <trkpt lat="45.26615" lon="0.56981">
        <ele>180</ele>
        <time>2015-11-03T13:38:08Z</time>
      </trkpt>
      <trkpt lat="45.26612" lon="0.56984">
        <ele>180</ele>
        <time>2015-11-03T13:39:50Z</time>
      </trkpt>
      <trkpt lat="45.26612" lon="0.5699">
        <ele>185</ele>
        <time>2015-11-03T13:40:06Z</time>
      </trkpt>
      <trkpt lat="45.26614" lon="0.56996">
        <ele>184</ele>
        <time>2015-11-03T13:40:12Z</time>
      </trkpt>
      <trkpt lat="45.26617" lon="0.56999">
        <ele>184</ele>
        <time>2015-11-03T13:40:17Z</time>
      </trkpt>
      <trkpt lat="45.2662" lon="0.57">
        <ele>187</ele>
        <time>2015-11-03T13:40:22Z</time>
      </trkpt>
      <trkpt lat="45.26624" lon="0.57002">
        <ele>187</ele>
        <time>2015-11-03T13:40:26Z</time>
      </trkpt>
      <trkpt lat="45.26627" lon="0.57006">
        <ele>190</ele>
        <time>2015-11-03T13:40:31Z</time>
      </trkpt>
      <trkpt lat="45.26627" lon="0.5701">
        <ele>195</ele>
        <time>2015-11-03T13:40:40Z</time>
      </trkpt>
      <trkpt lat="45.26628" lon="0.57017">
        <ele>197</ele>
        <time>2015-11-03T13:40:45Z</time>
      </trkpt>
      <trkpt lat="45.26629" lon="0.57023">
        <ele>199</ele>
        <time>2015-11-03T13:40:51Z</time>
      </trkpt>
      <trkpt lat="45.2663" lon="0.5703">
        <ele>202</ele>
        <time>2015-11-03T13:40:55Z</time>
      </trkpt>
      <trkpt lat="45.2663" lon="0.57036">
        <ele>204</ele>
        <time>2015-11-03T13:40:59Z</time>
      </trkpt>
      <trkpt lat="45.2663" lon="0.57041">
        <ele>206</ele>
        <time>2015-11-03T13:41:04Z</time>
      </trkpt>
      <trkpt lat="45.2663" lon="0.5705">
        <ele>206</ele>
        <time>2015-11-03T13:41:08Z</time>
      </trkpt>
      <trkpt lat="45.26628" lon="0.57056">
        <ele>208</ele>
        <time>2015-11-03T13:41:13Z</time>
      </trkpt>
      <trkpt lat="45.26626" lon="0.57067">
        <ele>205</ele>
        <time>2015-11-03T13:41:18Z</time>
      </trkpt>
      <trkpt lat="45.26628" lon="0.57076">
        <ele>203</ele>
        <time>2015-11-03T13:41:22Z</time>
      </trkpt>
      <trkpt lat="45.26626" lon="0.57081">
        <ele>205</ele>
        <time>2015-11-03T13:41:27Z</time>
      </trkpt>
      <trkpt lat="45.2663" lon="0.57095">
        <ele>200</ele>
        <time>2015-11-03T13:41:31Z</time>
      </trkpt>
      <trkpt lat="45.2663" lon="0.571">
        <ele>201</ele>
        <time>2015-11-03T13:41:39Z</time>
      </trkpt>
      <trkpt lat="45.26631" lon="0.57107">
        <ele>200</ele>
        <time>2015-11-03T13:41:43Z</time>
      </trkpt>
      <trkpt lat="45.26632" lon="0.57114">
        <ele>205</ele>
        <time>2015-11-03T13:41:48Z</time>
      </trkpt>
      <trkpt lat="45.26633" lon="0.57122">
        <ele>204</ele>
        <time>2015-11-03T13:41:52Z</time>
      </trkpt>
      <trkpt lat="45.26635" lon="0.5713">
        <ele>204</ele>
        <time>2015-11-03T13:41:57Z</time>
      </trkpt>
      <trkpt lat="45.26637" lon="0.57136">
        <ele>204</ele>
        <time>2015-11-03T13:42:01Z</time>
      </trkpt>
      <trkpt lat="45.2664" lon="0.57143">
        <ele>201</ele>
        <time>2015-11-03T13:42:05Z</time>
      </trkpt>
      <trkpt lat="45.2664" lon="0.57148">
        <ele>200</ele>
        <time>2015-11-03T13:42:13Z</time>
      </trkpt>
      <trkpt lat="45.26645" lon="0.57155">
        <ele>200</ele>
        <time>2015-11-03T13:42:17Z</time>
      </trkpt>
      <trkpt lat="45.26648" lon="0.5716">
        <ele>200</ele>
        <time>2015-11-03T13:42:21Z</time>
      </trkpt>
      <trkpt lat="45.26651" lon="0.57163">
        <ele>202</ele>
        <time>2015-11-03T13:42:26Z</time>
      </trkpt>
      <trkpt lat="45.26657" lon="0.57171">
        <ele>201</ele>
        <time>2015-11-03T13:42:30Z</time>
      </trkpt>
      <trkpt lat="45.2666" lon="0.57176">
        <ele>200</ele>
        <time>2015-11-03T13:42:35Z</time>
      </trkpt>
      <trkpt lat="45.26663" lon="0.57185">
        <ele>198</ele>
        <time>2015-11-03T13:42:40Z</time>
      </trkpt>
      <trkpt lat="45.26661" lon="0.57189">
        <ele>197</ele>
        <time>2015-11-03T13:42:46Z</time>
      </trkpt>
      <trkpt lat="45.26662" lon="0.57194">
        <ele>198</ele>
        <time>2015-11-03T13:42:50Z</time>
      </trkpt>
      <trkpt lat="45.26664" lon="0.57203">
        <ele>194</ele>
        <time>2015-11-03T13:42:54Z</time>
      </trkpt>
      <trkpt lat="45.26666" lon="0.57207">
        <ele>196</ele>
        <time>2015-11-03T13:43:04Z</time>
      </trkpt>
      <trkpt lat="45.26669" lon="0.5721">
        <ele>196</ele>
        <time>2015-11-03T13:43:09Z</time>
      </trkpt>
      <trkpt lat="45.26673" lon="0.5721">
        <ele>196</ele>
        <time>2015-11-03T13:43:13Z</time>
      </trkpt>
      <trkpt lat="45.26677" lon="0.57212">
        <ele>198</ele>
        <time>2015-11-03T13:43:17Z</time>
      </trkpt>
      <trkpt lat="45.26681" lon="0.57213">
        <ele>197</ele>
        <time>2015-11-03T13:43:25Z</time>
      </trkpt>
      <trkpt lat="45.26685" lon="0.57214">
        <ele>202</ele>
        <time>2015-11-03T13:43:31Z</time>
      </trkpt>
      <trkpt lat="45.26691" lon="0.57214">
        <ele>200</ele>
        <time>2015-11-03T13:43:36Z</time>
      </trkpt>
      <trkpt lat="45.26695" lon="0.57214">
        <ele>199</ele>
        <time>2015-11-03T13:43:40Z</time>
      </trkpt>
      <trkpt lat="45.267" lon="0.57214">
        <ele>205</ele>
        <time>2015-11-03T13:43:48Z</time>
      </trkpt>
      <trkpt lat="45.26707" lon="0.57214">
        <ele>202</ele>
        <time>2015-11-03T13:43:52Z</time>
      </trkpt>
      <trkpt lat="45.26713" lon="0.57215">
        <ele>200</ele>
        <time>2015-11-03T13:43:56Z</time>
      </trkpt>
      <trkpt lat="45.26715" lon="0.57219">
        <ele>197</ele>
        <time>2015-11-03T13:44:00Z</time>
      </trkpt>
      <trkpt lat="45.26722" lon="0.57215">
        <ele>194</ele>
        <time>2015-11-03T13:44:04Z</time>
      </trkpt>
      <trkpt lat="45.26729" lon="0.57216">
        <ele>191</ele>
        <time>2015-11-03T13:44:09Z</time>
      </trkpt>
      <trkpt lat="45.26734" lon="0.57216">
        <ele>188</ele>
        <time>2015-11-03T13:44:13Z</time>
      </trkpt>
      <trkpt lat="45.26739" lon="0.57217">
        <ele>188</ele>
        <time>2015-11-03T13:44:17Z</time>
      </trkpt>
      <trkpt lat="45.26745" lon="0.57216">
        <ele>188</ele>
        <time>2015-11-03T13:44:22Z</time>
      </trkpt>
      <trkpt lat="45.26752" lon="0.57214">
        <ele>194</ele>
        <time>2015-11-03T13:44:26Z</time>
      </trkpt>
      <trkpt lat="45.26758" lon="0.57216">
        <ele>193</ele>
        <time>2015-11-03T13:44:31Z</time>
      </trkpt>
      <trkpt lat="45.26763" lon="0.57224">
        <ele>190</ele>
        <time>2015-11-03T13:44:36Z</time>
      </trkpt>
      <trkpt lat="45.26768" lon="0.57229">
        <ele>193</ele>
        <time>2015-11-03T13:44:41Z</time>
      </trkpt>
      <trkpt lat="45.2677" lon="0.57235">
        <ele>193</ele>
        <time>2015-11-03T13:44:45Z</time>
      </trkpt>
      <trkpt lat="45.26772" lon="0.57244">
        <ele>194</ele>
        <time>2015-11-03T13:44:50Z</time>
      </trkpt>
      <trkpt lat="45.26772" lon="0.57252">
        <ele>195</ele>
        <time>2015-11-03T13:44:55Z</time>
      </trkpt>
      <trkpt lat="45.26772" lon="0.57258">
        <ele>193</ele>
        <time>2015-11-03T13:44:59Z</time>
      </trkpt>
      <trkpt lat="45.26776" lon="0.57265">
        <ele>190</ele>
        <time>2015-11-03T13:45:04Z</time>
      </trkpt>
      <trkpt lat="45.26779" lon="0.57274">
        <ele>193</ele>
        <time>2015-11-03T13:45:09Z</time>
      </trkpt>
      <trkpt lat="45.26776" lon="0.57278">
        <ele>193</ele>
        <time>2015-11-03T13:45:18Z</time>
      </trkpt>
      <trkpt lat="45.26774" lon="0.57284">
        <ele>192</ele>
        <time>2015-11-03T13:46:37Z</time>
      </trkpt>
      <trkpt lat="45.26775" lon="0.5729">
        <ele>188</ele>
        <time>2015-11-03T13:46:47Z</time>
      </trkpt>
      <trkpt lat="45.26778" lon="0.57293">
        <ele>186</ele>
        <time>2015-11-03T13:46:52Z</time>
      </trkpt>
      <trkpt lat="45.26782" lon="0.57296">
        <ele>187</ele>
        <time>2015-11-03T13:46:56Z</time>
      </trkpt>
      <trkpt lat="45.26787" lon="0.57296">
        <ele>187</ele>
        <time>2015-11-03T13:47:01Z</time>
      </trkpt>
      <trkpt lat="45.26792" lon="0.57294">
        <ele>189</ele>
        <time>2015-11-03T13:47:05Z</time>
      </trkpt>
      <trkpt lat="45.26795" lon="0.57291">
        <ele>190</ele>
        <time>2015-11-03T13:47:09Z</time>
      </trkpt>
      <trkpt lat="45.26799" lon="0.57293">
        <ele>191</ele>
        <time>2015-11-03T13:47:13Z</time>
      </trkpt>
      <trkpt lat="45.26803" lon="0.57292">
        <ele>194</ele>
        <time>2015-11-03T13:47:20Z</time>
      </trkpt>
      <trkpt lat="45.26807" lon="0.5729">
        <ele>196</ele>
        <time>2015-11-03T13:47:29Z</time>
      </trkpt>
      <trkpt lat="45.2681" lon="0.57285">
        <ele>197</ele>
        <time>2015-11-03T13:47:34Z</time>
      </trkpt>
      <trkpt lat="45.26814" lon="0.57284">
        <ele>197</ele>
        <time>2015-11-03T13:47:39Z</time>
      </trkpt>
      <trkpt lat="45.26818" lon="0.5728">
        <ele>197</ele>
        <time>2015-11-03T13:47:44Z</time>
      </trkpt>
      <trkpt lat="45.26823" lon="0.57277">
        <ele>197</ele>
        <time>2015-11-03T13:47:49Z</time>
      </trkpt>
      <trkpt lat="45.26827" lon="0.57276">
        <ele>200</ele>
        <time>2015-11-03T13:47:55Z</time>
      </trkpt>
      <trkpt lat="45.26831" lon="0.57275">
        <ele>202</ele>
        <time>2015-11-03T13:48:01Z</time>
      </trkpt>
      <trkpt lat="45.26837" lon="0.57272">
        <ele>201</ele>
        <time>2015-11-03T13:48:06Z</time>
      </trkpt>
      <trkpt lat="45.26838" lon="0.5727">
        <ele>201</ele>
        <time>2015-11-03T13:48:10Z</time>
      </trkpt>
      <trkpt lat="45.26845" lon="0.57263">
        <ele>202</ele>
        <time>2015-11-03T13:48:15Z</time>
      </trkpt>
      <trkpt lat="45.2685" lon="0.57262">
        <ele>202</ele>
        <time>2015-11-03T13:48:19Z</time>
      </trkpt>
      <trkpt lat="45.26854" lon="0.57259">
        <ele>202</ele>
        <time>2015-11-03T13:48:23Z</time>
      </trkpt>
      <trkpt lat="45.26859" lon="0.57256">
        <ele>202</ele>
        <time>2015-11-03T13:48:27Z</time>
      </trkpt>
      <trkpt lat="45.26865" lon="0.57255">
        <ele>201</ele>
        <time>2015-11-03T13:48:32Z</time>
      </trkpt>
      <trkpt lat="45.26871" lon="0.57251">
        <ele>202</ele>
        <time>2015-11-03T13:48:37Z</time>
      </trkpt>
      <trkpt lat="45.26875" lon="0.57249">
        <ele>203</ele>
        <time>2015-11-03T13:48:42Z</time>
      </trkpt>
      <trkpt lat="45.26881" lon="0.57245">
        <ele>201</ele>
        <time>2015-11-03T13:48:46Z</time>
      </trkpt>
      <trkpt lat="45.26885" lon="0.57245">
        <ele>200</ele>
        <time>2015-11-03T13:48:50Z</time>
      </trkpt>
      <trkpt lat="45.2689" lon="0.57244">
        <ele>200</ele>
        <time>2015-11-03T13:48:55Z</time>
      </trkpt>
      <trkpt lat="45.26894" lon="0.57243">
        <ele>199</ele>
        <time>2015-11-03T13:48:59Z</time>
      </trkpt>
      <trkpt lat="45.26898" lon="0.57242">
        <ele>200</ele>
        <time>2015-11-03T13:49:03Z</time>
      </trkpt>
      <trkpt lat="45.26902" lon="0.57242">
        <ele>202</ele>
        <time>2015-11-03T13:49:07Z</time>
      </trkpt>
      <trkpt lat="45.26907" lon="0.57241">
        <ele>204</ele>
        <time>2015-11-03T13:49:12Z</time>
      </trkpt>
      <trkpt lat="45.26911" lon="0.5724">
        <ele>203</ele>
        <time>2015-11-03T13:49:17Z</time>
      </trkpt>
      <trkpt lat="45.26916" lon="0.5724">
        <ele>200</ele>
        <time>2015-11-03T13:49:22Z</time>
      </trkpt>
      <trkpt lat="45.26921" lon="0.57242">
        <ele>198</ele>
        <time>2015-11-03T13:49:26Z</time>
      </trkpt>
      <trkpt lat="45.26925" lon="0.57242">
        <ele>198</ele>
        <time>2015-11-03T13:49:31Z</time>
      </trkpt>
      <trkpt lat="45.26931" lon="0.57243">
        <ele>198</ele>
        <time>2015-11-03T13:49:36Z</time>
      </trkpt>
      <trkpt lat="45.26934" lon="0.57245">
        <ele>200</ele>
        <time>2015-11-03T13:49:42Z</time>
      </trkpt>
      <trkpt lat="45.26938" lon="0.57246">
        <ele>200</ele>
        <time>2015-11-03T13:49:46Z</time>
      </trkpt>
      <trkpt lat="45.26942" lon="0.57248">
        <ele>200</ele>
        <time>2015-11-03T13:49:51Z</time>
      </trkpt>
      <trkpt lat="45.26947" lon="0.5725">
        <ele>201</ele>
        <time>2015-11-03T13:49:55Z</time>
      </trkpt>
      <trkpt lat="45.26952" lon="0.57253">
        <ele>202</ele>
        <time>2015-11-03T13:49:59Z</time>
      </trkpt>
      <trkpt lat="45.26956" lon="0.57257">
        <ele>203</ele>
        <time>2015-11-03T13:50:03Z</time>
      </trkpt>
      <trkpt lat="45.26959" lon="0.5726">
        <ele>202</ele>
        <time>2015-11-03T13:50:07Z</time>
      </trkpt>
      <trkpt lat="45.26965" lon="0.57263">
        <ele>201</ele>
        <time>2015-11-03T13:50:12Z</time>
      </trkpt>
      <trkpt lat="45.26968" lon="0.57265">
        <ele>203</ele>
        <time>2015-11-03T13:50:16Z</time>
      </trkpt>
      <trkpt lat="45.26973" lon="0.57269">
        <ele>203</ele>
        <time>2015-11-03T13:50:21Z</time>
      </trkpt>
      <trkpt lat="45.26978" lon="0.57274">
        <ele>201</ele>
        <time>2015-11-03T13:50:25Z</time>
      </trkpt>
      <trkpt lat="45.26983" lon="0.57278">
        <ele>201</ele>
        <time>2015-11-03T13:50:30Z</time>
      </trkpt>
      <trkpt lat="45.26988" lon="0.57283">
        <ele>200</ele>
        <time>2015-11-03T13:50:34Z</time>
      </trkpt>
      <trkpt lat="45.2699" lon="0.57287">
        <ele>200</ele>
        <time>2015-11-03T13:50:39Z</time>
      </trkpt>
      <trkpt lat="45.26992" lon="0.57293">
        <ele>201</ele>
        <time>2015-11-03T13:50:45Z</time>
      </trkpt>
      <trkpt lat="45.26993" lon="0.57296">
        <ele>199</ele>
        <time>2015-11-03T13:50:50Z</time>
      </trkpt>
      <trkpt lat="45.26996" lon="0.57303">
        <ele>198</ele>
        <time>2015-11-03T13:50:54Z</time>
      </trkpt>
      <trkpt lat="45.26995" lon="0.57307">
        <ele>198</ele>
        <time>2015-11-03T13:51:01Z</time>
      </trkpt>
      <trkpt lat="45.26993" lon="0.57312">
        <ele>202</ele>
        <time>2015-11-03T13:51:05Z</time>
      </trkpt>
      <trkpt lat="45.26993" lon="0.57319">
        <ele>201</ele>
        <time>2015-11-03T13:51:10Z</time>
      </trkpt>
      <trkpt lat="45.26993" lon="0.57323">
        <ele>200</ele>
        <time>2015-11-03T13:51:14Z</time>
      </trkpt>
      <trkpt lat="45.26994" lon="0.57328">
        <ele>198</ele>
        <time>2015-11-03T13:51:18Z</time>
      </trkpt>
      <trkpt lat="45.26992" lon="0.57336">
        <ele>199</ele>
        <time>2015-11-03T13:51:23Z</time>
      </trkpt>
      <trkpt lat="45.26991" lon="0.57344">
        <ele>198</ele>
        <time>2015-11-03T13:51:27Z</time>
      </trkpt>
      <trkpt lat="45.26989" lon="0.57349">
        <ele>198</ele>
        <time>2015-11-03T13:51:31Z</time>
      </trkpt>
      <trkpt lat="45.26987" lon="0.57355">
        <ele>197</ele>
        <time>2015-11-03T13:51:36Z</time>
      </trkpt>
      <trkpt lat="45.26986" lon="0.57359">
        <ele>199</ele>
        <time>2015-11-03T13:51:41Z</time>
      </trkpt>
      <trkpt lat="45.26982" lon="0.57362">
        <ele>200</ele>
        <time>2015-11-03T13:51:46Z</time>
      </trkpt>
      <trkpt lat="45.26978" lon="0.57364">
        <ele>199</ele>
        <time>2015-11-03T13:51:51Z</time>
      </trkpt>
      <trkpt lat="45.26975" lon="0.57367">
        <ele>200</ele>
        <time>2015-11-03T13:51:55Z</time>
      </trkpt>
      <trkpt lat="45.26973" lon="0.57372">
        <ele>201</ele>
        <time>2015-11-03T13:51:59Z</time>
      </trkpt>
      <trkpt lat="45.26971" lon="0.57379">
        <ele>199</ele>
        <time>2015-11-03T13:52:03Z</time>
      </trkpt>
      <trkpt lat="45.26969" lon="0.57385">
        <ele>198</ele>
        <time>2015-11-03T13:52:07Z</time>
      </trkpt>
      <trkpt lat="45.26966" lon="0.57388">
        <ele>199</ele>
        <time>2015-11-03T13:52:11Z</time>
      </trkpt>
      <trkpt lat="45.26963" lon="0.57392">
        <ele>201</ele>
        <time>2015-11-03T13:52:16Z</time>
      </trkpt>
      <trkpt lat="45.26961" lon="0.57397">
        <ele>204</ele>
        <time>2015-11-03T13:52:22Z</time>
      </trkpt>
      <trkpt lat="45.26957" lon="0.57402">
        <ele>203</ele>
        <time>2015-11-03T13:52:27Z</time>
      </trkpt>
      <trkpt lat="45.26952" lon="0.57407">
        <ele>204</ele>
        <time>2015-11-03T13:52:32Z</time>
      </trkpt>
      <trkpt lat="45.26949" lon="0.5741">
        <ele>203</ele>
        <time>2015-11-03T13:52:36Z</time>
      </trkpt>
      <trkpt lat="45.26945" lon="0.57411">
        <ele>201</ele>
        <time>2015-11-03T13:52:40Z</time>
      </trkpt>
      <trkpt lat="45.26941" lon="0.57414">
        <ele>199</ele>
        <time>2015-11-03T13:52:44Z</time>
      </trkpt>
      <trkpt lat="45.26938" lon="0.57418">
        <ele>201</ele>
        <time>2015-11-03T13:52:50Z</time>
      </trkpt>
      <trkpt lat="45.26935" lon="0.57424">
        <ele>199</ele>
        <time>2015-11-03T13:52:55Z</time>
      </trkpt>
      <trkpt lat="45.2693" lon="0.5743">
        <ele>196</ele>
        <time>2015-11-03T13:53:00Z</time>
      </trkpt>
      <trkpt lat="45.26926" lon="0.57435">
        <ele>197</ele>
        <time>2015-11-03T13:53:05Z</time>
      </trkpt>
      <trkpt lat="45.26924" lon="0.57441">
        <ele>195</ele>
        <time>2015-11-03T13:53:09Z</time>
      </trkpt>
      <trkpt lat="45.26921" lon="0.57446">
        <ele>194</ele>
        <time>2015-11-03T13:53:14Z</time>
      </trkpt>
      <trkpt lat="45.26917" lon="0.57447">
        <ele>195</ele>
        <time>2015-11-03T13:53:18Z</time>
      </trkpt>
      <trkpt lat="45.26915" lon="0.57453">
        <ele>194</ele>
        <time>2015-11-03T13:53:27Z</time>
      </trkpt>
      <trkpt lat="45.26911" lon="0.57456">
        <ele>191</ele>
        <time>2015-11-03T13:53:31Z</time>
      </trkpt>
      <trkpt lat="45.26908" lon="0.57461">
        <ele>190</ele>
        <time>2015-11-03T13:53:35Z</time>
      </trkpt>
      <trkpt lat="45.26904" lon="0.57464">
        <ele>189</ele>
        <time>2015-11-03T13:53:40Z</time>
      </trkpt>
      <trkpt lat="45.269" lon="0.5747">
        <ele>188</ele>
        <time>2015-11-03T13:53:45Z</time>
      </trkpt>
      <trkpt lat="45.26897" lon="0.57475">
        <ele>187</ele>
        <time>2015-11-03T13:53:49Z</time>
      </trkpt>
      <trkpt lat="45.26894" lon="0.57478">
        <ele>189</ele>
        <time>2015-11-03T13:53:55Z</time>
      </trkpt>
      <trkpt lat="45.26891" lon="0.57482">
        <ele>187</ele>
        <time>2015-11-03T13:54:01Z</time>
      </trkpt>
      <trkpt lat="45.26887" lon="0.57484">
        <ele>185</ele>
        <time>2015-11-03T13:54:05Z</time>
      </trkpt>
      <trkpt lat="45.26884" lon="0.5749">
        <ele>184</ele>
        <time>2015-11-03T13:54:10Z</time>
      </trkpt>
      <trkpt lat="45.2688" lon="0.57494">
        <ele>185</ele>
        <time>2015-11-03T13:54:15Z</time>
      </trkpt>
      <trkpt lat="45.26877" lon="0.57498">
        <ele>183</ele>
        <time>2015-11-03T13:54:20Z</time>
      </trkpt>
      <trkpt lat="45.26873" lon="0.57502">
        <ele>183</ele>
        <time>2015-11-03T13:54:36Z</time>
      </trkpt>
      <trkpt lat="45.26867" lon="0.57509">
        <ele>182</ele>
        <time>2015-11-03T13:54:41Z</time>
      </trkpt>
      <trkpt lat="45.26864" lon="0.57513">
        <ele>180</ele>
        <time>2015-11-03T13:54:45Z</time>
      </trkpt>
      <trkpt lat="45.26858" lon="0.57512">
        <ele>179</ele>
        <time>2015-11-03T13:54:50Z</time>
      </trkpt>
      <trkpt lat="45.26854" lon="0.57512">
        <ele>178</ele>
        <time>2015-11-03T13:54:54Z</time>
      </trkpt>
      <trkpt lat="45.2685" lon="0.57513">
        <ele>176</ele>
        <time>2015-11-03T13:54:58Z</time>
      </trkpt>
      <trkpt lat="45.26846" lon="0.57513">
        <ele>178</ele>
        <time>2015-11-03T13:55:38Z</time>
      </trkpt>
      <trkpt lat="45.26841" lon="0.57515">
        <ele>181</ele>
        <time>2015-11-03T13:55:43Z</time>
      </trkpt>
      <trkpt lat="45.26837" lon="0.57517">
        <ele>183</ele>
        <time>2015-11-03T13:55:48Z</time>
      </trkpt>
      <trkpt lat="45.26832" lon="0.57517">
        <ele>182</ele>
        <time>2015-11-03T13:55:52Z</time>
      </trkpt>
      <trkpt lat="45.26829" lon="0.57518">
        <ele>183</ele>
        <time>2015-11-03T13:56:06Z</time>
      </trkpt>
      <trkpt lat="45.26821" lon="0.57517">
        <ele>183</ele>
        <time>2015-11-03T13:56:11Z</time>
      </trkpt>
      <trkpt lat="45.26814" lon="0.57519">
        <ele>184</ele>
        <time>2015-11-03T13:56:16Z</time>
      </trkpt>
      <trkpt lat="45.26806" lon="0.57523">
        <ele>186</ele>
        <time>2015-11-03T13:56:20Z</time>
      </trkpt>
      <trkpt lat="45.268" lon="0.57524">
        <ele>188</ele>
        <time>2015-11-03T13:56:24Z</time>
      </trkpt>
      <trkpt lat="45.26795" lon="0.57526">
        <ele>184</ele>
        <time>2015-11-03T13:56:28Z</time>
      </trkpt>
      <trkpt lat="45.26792" lon="0.57531">
        <ele>184</ele>
        <time>2015-11-03T13:56:37Z</time>
      </trkpt>
      <trkpt lat="45.26787" lon="0.57531">
        <ele>185</ele>
        <time>2015-11-03T13:56:42Z</time>
      </trkpt>
      <trkpt lat="45.26783" lon="0.57534">
        <ele>184</ele>
        <time>2015-11-03T13:56:46Z</time>
      </trkpt>
      <trkpt lat="45.26779" lon="0.57537">
        <ele>183</ele>
        <time>2015-11-03T13:56:50Z</time>
      </trkpt>
      <trkpt lat="45.26775" lon="0.57536">
        <ele>180</ele>
        <time>2015-11-03T13:57:03Z</time>
      </trkpt>
      <trkpt lat="45.26773" lon="0.57541">
        <ele>178</ele>
        <time>2015-11-03T13:57:48Z</time>
      </trkpt>
      <trkpt lat="45.26769" lon="0.57541">
        <ele>175</ele>
        <time>2015-11-03T13:58:13Z</time>
      </trkpt>
      <trkpt lat="45.26765" lon="0.57541">
        <ele>172</ele>
        <time>2015-11-03T13:58:32Z</time>
      </trkpt>
      <trkpt lat="45.26761" lon="0.57539">
        <ele>172</ele>
        <time>2015-11-03T13:58:44Z</time>
      </trkpt>
      <trkpt lat="45.26757" lon="0.5754">
        <ele>173</ele>
        <time>2015-11-03T13:59:02Z</time>
      </trkpt>
      <trkpt lat="45.26753" lon="0.57543">
        <ele>175</ele>
        <time>2015-11-03T13:59:06Z</time>
      </trkpt>
      <trkpt lat="45.2675" lon="0.57547">
        <ele>170</ele>
        <time>2015-11-03T13:59:16Z</time>
      </trkpt>
      <trkpt lat="45.26747" lon="0.57547">
        <ele>171</ele>
        <time>2015-11-03T13:59:28Z</time>
      </trkpt>
      <trkpt lat="45.26743" lon="0.57544">
        <ele>168</ele>
        <time>2015-11-03T13:59:33Z</time>
      </trkpt>
      <trkpt lat="45.26738" lon="0.57542">
        <ele>169</ele>
        <time>2015-11-03T13:59:38Z</time>
      </trkpt>
      <trkpt lat="45.26734" lon="0.5754">
        <ele>170</ele>
        <time>2015-11-03T13:59:42Z</time>
      </trkpt>
      <trkpt lat="45.26729" lon="0.57539">
        <ele>173</ele>
        <time>2015-11-03T13:59:46Z</time>
      </trkpt>
      <trkpt lat="45.26722" lon="0.57538">
        <ele>174</ele>
        <time>2015-11-03T13:59:50Z</time>
      </trkpt>
      <trkpt lat="45.26718" lon="0.57539">
        <ele>177</ele>
        <time>2015-11-03T13:59:55Z</time>
      </trkpt>
      <trkpt lat="45.26714" lon="0.57539">
        <ele>176</ele>
        <time>2015-11-03T14:00:05Z</time>
      </trkpt>
      <trkpt lat="45.26707" lon="0.57539">
        <ele>176</ele>
        <time>2015-11-03T14:00:09Z</time>
      </trkpt>
      <trkpt lat="45.26702" lon="0.57539">
        <ele>177</ele>
        <time>2015-11-03T14:00:13Z</time>
      </trkpt>
      <trkpt lat="45.26699" lon="0.57537">
        <ele>180</ele>
        <time>2015-11-03T14:00:17Z</time>
      </trkpt>
      <trkpt lat="45.26695" lon="0.57536">
        <ele>181</ele>
        <time>2015-11-03T14:00:22Z</time>
      </trkpt>
      <trkpt lat="45.26692" lon="0.57535">
        <ele>182</ele>
        <time>2015-11-03T14:00:26Z</time>
      </trkpt>
      <trkpt lat="45.26684" lon="0.57534">
        <ele>181</ele>
        <time>2015-11-03T14:00:30Z</time>
      </trkpt>
      <trkpt lat="45.26681" lon="0.57534">
        <ele>182</ele>
        <time>2015-11-03T14:00:36Z</time>
      </trkpt>
      <trkpt lat="45.26676" lon="0.57531">
        <ele>183</ele>
        <time>2015-11-03T14:00:40Z</time>
      </trkpt>
      <trkpt lat="45.26671" lon="0.57527">
        <ele>185</ele>
        <time>2015-11-03T14:00:45Z</time>
      </trkpt>
      <trkpt lat="45.26667" lon="0.57524">
        <ele>184</ele>
        <time>2015-11-03T14:00:49Z</time>
      </trkpt>
      <trkpt lat="45.26664" lon="0.57519">
        <ele>185</ele>
        <time>2015-11-03T14:00:53Z</time>
      </trkpt>
      <trkpt lat="45.26659" lon="0.57513">
        <ele>186</ele>
        <time>2015-11-03T14:00:58Z</time>
      </trkpt>
      <trkpt lat="45.26654" lon="0.57512">
        <ele>186</ele>
        <time>2015-11-03T14:01:02Z</time>
      </trkpt>
      <trkpt lat="45.2665" lon="0.57507">
        <ele>187</ele>
        <time>2015-11-03T14:01:06Z</time>
      </trkpt>
      <trkpt lat="45.26643" lon="0.57503">
        <ele>185</ele>
        <time>2015-11-03T14:01:11Z</time>
      </trkpt>
      <trkpt lat="45.26638" lon="0.57502">
        <ele>185</ele>
        <time>2015-11-03T14:01:15Z</time>
      </trkpt>
      <trkpt lat="45.26635" lon="0.57501">
        <ele>187</ele>
        <time>2015-11-03T14:01:20Z</time>
      </trkpt>
      <trkpt lat="45.26626" lon="0.57501">
        <ele>188</ele>
        <time>2015-11-03T14:01:25Z</time>
      </trkpt>
      <trkpt lat="45.26622" lon="0.57499">
        <ele>188</ele>
        <time>2015-11-03T14:01:29Z</time>
      </trkpt>
      <trkpt lat="45.26617" lon="0.57497">
        <ele>184</ele>
        <time>2015-11-03T14:01:37Z</time>
      </trkpt>
      <trkpt lat="45.26614" lon="0.57497">
        <ele>184</ele>
        <time>2015-11-03T14:01:42Z</time>
      </trkpt>
      <trkpt lat="45.26608" lon="0.57497">
        <ele>186</ele>
        <time>2015-11-03T14:01:46Z</time>
      </trkpt>
      <trkpt lat="45.26605" lon="0.57495">
        <ele>188</ele>
        <time>2015-11-03T14:01:50Z</time>
      </trkpt>
      <trkpt lat="45.26596" lon="0.57493">
        <ele>186</ele>
        <time>2015-11-03T14:01:55Z</time>
      </trkpt>
      <trkpt lat="45.26591" lon="0.57492">
        <ele>185</ele>
        <time>2015-11-03T14:02:03Z</time>
      </trkpt>
      <trkpt lat="45.26587" lon="0.5749">
        <ele>186</ele>
        <time>2015-11-03T14:02:08Z</time>
      </trkpt>
      <trkpt lat="45.26579" lon="0.57489">
        <ele>185</ele>
        <time>2015-11-03T14:02:12Z</time>
      </trkpt>
      <trkpt lat="45.26573" lon="0.57488">
        <ele>185</ele>
        <time>2015-11-03T14:02:17Z</time>
      </trkpt>
      <trkpt lat="45.26569" lon="0.57486">
        <ele>186</ele>
        <time>2015-11-03T14:02:24Z</time>
      </trkpt>
      <trkpt lat="45.26565" lon="0.57486">
        <ele>187</ele>
        <time>2015-11-03T14:02:28Z</time>
      </trkpt>
      <trkpt lat="45.26559" lon="0.57482">
        <ele>187</ele>
        <time>2015-11-03T14:02:32Z</time>
      </trkpt>
      <trkpt lat="45.26556" lon="0.57479">
        <ele>186</ele>
        <time>2015-11-03T14:02:36Z</time>
      </trkpt>
      <trkpt lat="45.26552" lon="0.57475">
        <ele>188</ele>
        <time>2015-11-03T14:02:41Z</time>
      </trkpt>
      <trkpt lat="45.26546" lon="0.57472">
        <ele>189</ele>
        <time>2015-11-03T14:02:46Z</time>
      </trkpt>
      <trkpt lat="45.26539" lon="0.57469">
        <ele>188</ele>
        <time>2015-11-03T14:02:51Z</time>
      </trkpt>
      <trkpt lat="45.26535" lon="0.57466">
        <ele>187</ele>
        <time>2015-11-03T14:02:55Z</time>
      </trkpt>
      <trkpt lat="45.26529" lon="0.57464">
        <ele>187</ele>
        <time>2015-11-03T14:03:00Z</time>
      </trkpt>
      <trkpt lat="45.26524" lon="0.57463">
        <ele>191</ele>
        <time>2015-11-03T14:03:07Z</time>
      </trkpt>
      <trkpt lat="45.2652" lon="0.5746">
        <ele>192</ele>
        <time>2015-11-03T14:03:11Z</time>
      </trkpt>
      <trkpt lat="45.26516" lon="0.57458">
        <ele>193</ele>
        <time>2015-11-03T14:03:16Z</time>
      </trkpt>
      <trkpt lat="45.26512" lon="0.57456">
        <ele>195</ele>
        <time>2015-11-03T14:03:22Z</time>
      </trkpt>
      <trkpt lat="45.26506" lon="0.57456">
        <ele>193</ele>
        <time>2015-11-03T14:03:27Z</time>
      </trkpt>
      <trkpt lat="45.26499" lon="0.57456">
        <ele>191</ele>
        <time>2015-11-03T14:03:31Z</time>
      </trkpt>
      <trkpt lat="45.26495" lon="0.57457">
        <ele>192</ele>
        <time>2015-11-03T14:03:36Z</time>
      </trkpt>
      <trkpt lat="45.2649" lon="0.57456">
        <ele>194</ele>
        <time>2015-11-03T14:03:40Z</time>
      </trkpt>
      <trkpt lat="45.26484" lon="0.57456">
        <ele>195</ele>
        <time>2015-11-03T14:03:45Z</time>
      </trkpt>
      <trkpt lat="45.2648" lon="0.57459">
        <ele>193</ele>
        <time>2015-11-03T14:03:50Z</time>
      </trkpt>
      <trkpt lat="45.26471" lon="0.57458">
        <ele>192</ele>
        <time>2015-11-03T14:03:55Z</time>
      </trkpt>
      <trkpt lat="45.26469" lon="0.57458">
        <ele>192</ele>
        <time>2015-11-03T14:04:01Z</time>
      </trkpt>
      <trkpt lat="45.26456" lon="0.57459">
        <ele>190</ele>
        <time>2015-11-03T14:04:06Z</time>
      </trkpt>
      <trkpt lat="45.26449" lon="0.57458">
        <ele>192</ele>
        <time>2015-11-03T14:04:10Z</time>
      </trkpt>
      <trkpt lat="45.26446" lon="0.57459">
        <ele>190</ele>
        <time>2015-11-03T14:04:16Z</time>
      </trkpt>
      <trkpt lat="45.26439" lon="0.57459">
        <ele>190</ele>
        <time>2015-11-03T14:04:20Z</time>
      </trkpt>
      <trkpt lat="45.26436" lon="0.57461">
        <ele>190</ele>
        <time>2015-11-03T14:04:25Z</time>
      </trkpt>
      <trkpt lat="45.26429" lon="0.57462">
        <ele>182</ele>
        <time>2015-11-03T14:04:30Z</time>
      </trkpt>
      <trkpt lat="45.26419" lon="0.57465">
        <ele>182</ele>
        <time>2015-11-03T14:04:35Z</time>
      </trkpt>
      <trkpt lat="45.26415" lon="0.57469">
        <ele>183</ele>
        <time>2015-11-03T14:04:40Z</time>
      </trkpt>
      <trkpt lat="45.26408" lon="0.57471">
        <ele>182</ele>
        <time>2015-11-03T14:04:44Z</time>
      </trkpt>
      <trkpt lat="45.26403" lon="0.57473">
        <ele>181</ele>
        <time>2015-11-03T14:04:48Z</time>
      </trkpt>
      <trkpt lat="45.26398" lon="0.57475">
        <ele>182</ele>
        <time>2015-11-03T14:04:53Z</time>
      </trkpt>
      <trkpt lat="45.26392" lon="0.57478">
        <ele>182</ele>
        <time>2015-11-03T14:04:57Z</time>
      </trkpt>
      <trkpt lat="45.26388" lon="0.57481">
        <ele>182</ele>
        <time>2015-11-03T14:05:01Z</time>
      </trkpt>
      <trkpt lat="45.26384" lon="0.57485">
        <ele>180</ele>
        <time>2015-11-03T14:05:06Z</time>
      </trkpt>
      <trkpt lat="45.2638" lon="0.57487">
        <ele>181</ele>
        <time>2015-11-03T14:05:12Z</time>
      </trkpt>
      <trkpt lat="45.26374" lon="0.5749">
        <ele>182</ele>
        <time>2015-11-03T14:05:17Z</time>
      </trkpt>
      <trkpt lat="45.26368" lon="0.57491">
        <ele>179</ele>
        <time>2015-11-03T14:05:21Z</time>
      </trkpt>
      <trkpt lat="45.2636" lon="0.5749">
        <ele>179</ele>
        <time>2015-11-03T14:05:26Z</time>
      </trkpt>
      <trkpt lat="45.26356" lon="0.57492">
        <ele>182</ele>
        <time>2015-11-03T14:05:30Z</time>
      </trkpt>
      <trkpt lat="45.26351" lon="0.57492">
        <ele>182</ele>
        <time>2015-11-03T14:05:35Z</time>
      </trkpt>
      <trkpt lat="45.26346" lon="0.57491">
        <ele>182</ele>
        <time>2015-11-03T14:05:39Z</time>
      </trkpt>
      <trkpt lat="45.26342" lon="0.5749">
        <ele>180</ele>
        <time>2015-11-03T14:05:43Z</time>
      </trkpt>
      <trkpt lat="45.26337" lon="0.57488">
        <ele>180</ele>
        <time>2015-11-03T14:05:48Z</time>
      </trkpt>
      <trkpt lat="45.26331" lon="0.57487">
        <ele>180</ele>
        <time>2015-11-03T14:05:53Z</time>
      </trkpt>
      <trkpt lat="45.26326" lon="0.57487">
        <ele>179</ele>
        <time>2015-11-03T14:05:57Z</time>
      </trkpt>
      <trkpt lat="45.26323" lon="0.57486">
        <ele>180</ele>
        <time>2015-11-03T14:06:01Z</time>
      </trkpt>
      <trkpt lat="45.26319" lon="0.57482">
        <ele>186</ele>
        <time>2015-11-03T14:06:06Z</time>
      </trkpt>
      <trkpt lat="45.26316" lon="0.57482">
        <ele>183</ele>
        <time>2015-11-03T14:06:11Z</time>
      </trkpt>
      <trkpt lat="45.2631" lon="0.57481">
        <ele>186</ele>
        <time>2015-11-03T14:06:15Z</time>
      </trkpt>
      <trkpt lat="45.26304" lon="0.57479">
        <ele>187</ele>
        <time>2015-11-03T14:06:19Z</time>
      </trkpt>
      <trkpt lat="45.263" lon="0.57481">
        <ele>188</ele>
        <time>2015-11-03T14:06:25Z</time>
      </trkpt>
      <trkpt lat="45.26296" lon="0.57482">
        <ele>188</ele>
        <time>2015-11-03T14:06:31Z</time>
      </trkpt>
      <trkpt lat="45.26291" lon="0.57482">
        <ele>190</ele>
        <time>2015-11-03T14:06:35Z</time>
      </trkpt>
      <trkpt lat="45.26285" lon="0.57484">
        <ele>192</ele>
        <time>2015-11-03T14:06:40Z</time>
      </trkpt>
      <trkpt lat="45.26281" lon="0.57484">
        <ele>190</ele>
        <time>2015-11-03T14:06:44Z</time>
      </trkpt>
      <trkpt lat="45.26277" lon="0.57486">
        <ele>190</ele>
        <time>2015-11-03T14:06:48Z</time>
      </trkpt>
      <trkpt lat="45.26273" lon="0.57489">
        <ele>191</ele>
        <time>2015-11-03T14:06:52Z</time>
      </trkpt>
      <trkpt lat="45.26269" lon="0.57489">
        <ele>193</ele>
        <time>2015-11-03T14:06:57Z</time>
      </trkpt>
      <trkpt lat="45.26266" lon="0.57492">
        <ele>192</ele>
        <time>2015-11-03T14:07:01Z</time>
      </trkpt>
      <trkpt lat="45.2626" lon="0.57497">
        <ele>189</ele>
        <time>2015-11-03T14:07:05Z</time>
      </trkpt>
      <trkpt lat="45.26253" lon="0.575">
        <ele>190</ele>
        <time>2015-11-03T14:07:10Z</time>
      </trkpt>
      <trkpt lat="45.26249" lon="0.57502">
        <ele>193</ele>
        <time>2015-11-03T14:07:14Z</time>
      </trkpt>
      <trkpt lat="45.26244" lon="0.57504">
        <ele>191</ele>
        <time>2015-11-03T14:07:18Z</time>
      </trkpt>
      <trkpt lat="45.2624" lon="0.57509">
        <ele>189</ele>
        <time>2015-11-03T14:07:23Z</time>
      </trkpt>
      <trkpt lat="45.26237" lon="0.57514">
        <ele>188</ele>
        <time>2015-11-03T14:07:27Z</time>
      </trkpt>
      <trkpt lat="45.26232" lon="0.57518">
        <ele>189</ele>
        <time>2015-11-03T14:07:31Z</time>
      </trkpt>
      <trkpt lat="45.2623" lon="0.57523">
        <ele>190</ele>
        <time>2015-11-03T14:07:37Z</time>
      </trkpt>
      <trkpt lat="45.26226" lon="0.57525">
        <ele>189</ele>
        <time>2015-11-03T14:07:42Z</time>
      </trkpt>
      <trkpt lat="45.26222" lon="0.57529">
        <ele>188</ele>
        <time>2015-11-03T14:07:46Z</time>
      </trkpt>
      <trkpt lat="45.2622" lon="0.57534">
        <ele>188</ele>
        <time>2015-11-03T14:07:52Z</time>
      </trkpt>
      <trkpt lat="45.26212" lon="0.57538">
        <ele>187</ele>
        <time>2015-11-03T14:07:57Z</time>
      </trkpt>
      <trkpt lat="45.26207" lon="0.57542">
        <ele>187</ele>
        <time>2015-11-03T14:08:01Z</time>
      </trkpt>
      <trkpt lat="45.26205" lon="0.57547">
        <ele>184</ele>
        <time>2015-11-03T14:08:07Z</time>
      </trkpt>
      <trkpt lat="45.26201" lon="0.5755">
        <ele>183</ele>
        <time>2015-11-03T14:08:11Z</time>
      </trkpt>
      <trkpt lat="45.26199" lon="0.57553">
        <ele>184</ele>
        <time>2015-11-03T14:08:16Z</time>
      </trkpt>
      <trkpt lat="45.26194" lon="0.57559">
        <ele>186</ele>
        <time>2015-11-03T14:08:20Z</time>
      </trkpt>
      <trkpt lat="45.26188" lon="0.57563">
        <ele>186</ele>
        <time>2015-11-03T14:08:25Z</time>
      </trkpt>
      <trkpt lat="45.26181" lon="0.57569">
        <ele>188</ele>
        <time>2015-11-03T14:08:29Z</time>
      </trkpt>
      <trkpt lat="45.26178" lon="0.57575">
        <ele>186</ele>
        <time>2015-11-03T14:08:33Z</time>
      </trkpt>
      <trkpt lat="45.26174" lon="0.57578">
        <ele>186</ele>
        <time>2015-11-03T14:08:37Z</time>
      </trkpt>
      <trkpt lat="45.2617" lon="0.57583">
        <ele>184</ele>
        <time>2015-11-03T14:08:41Z</time>
      </trkpt>
      <trkpt lat="45.26166" lon="0.57586">
        <ele>182</ele>
        <time>2015-11-03T14:08:47Z</time>
      </trkpt>
      <trkpt lat="45.26161" lon="0.57589">
        <ele>180</ele>
        <time>2015-11-03T14:08:52Z</time>
      </trkpt>
      <trkpt lat="45.26158" lon="0.57593">
        <ele>179</ele>
        <time>2015-11-03T14:08:57Z</time>
      </trkpt>
      <trkpt lat="45.26153" lon="0.57597">
        <ele>178</ele>
        <time>2015-11-03T14:09:02Z</time>
      </trkpt>
      <trkpt lat="45.2615" lon="0.576">
        <ele>176</ele>
        <time>2015-11-03T14:09:06Z</time>
      </trkpt>
      <trkpt lat="45.26146" lon="0.57602">
        <ele>176</ele>
        <time>2015-11-03T14:09:10Z</time>
      </trkpt>
      <trkpt lat="45.26142" lon="0.57605">
        <ele>177</ele>
        <time>2015-11-03T14:09:14Z</time>
      </trkpt>
      <trkpt lat="45.26138" lon="0.57606">
        <ele>177</ele>
        <time>2015-11-03T14:09:19Z</time>
      </trkpt>
      <trkpt lat="45.26134" lon="0.57609">
        <ele>176</ele>
        <time>2015-11-03T14:09:24Z</time>
      </trkpt>
      <trkpt lat="45.2613" lon="0.57613">
        <ele>173</ele>
        <time>2015-11-03T14:09:28Z</time>
      </trkpt>
      <trkpt lat="45.26126" lon="0.57615">
        <ele>173</ele>
        <time>2015-11-03T14:09:33Z</time>
      </trkpt>
      <trkpt lat="45.26122" lon="0.57617">
        <ele>171</ele>
        <time>2015-11-03T14:09:37Z</time>
      </trkpt>
      <trkpt lat="45.2612" lon="0.57622">
        <ele>165</ele>
        <time>2015-11-03T14:09:41Z</time>
      </trkpt>
      <trkpt lat="45.26115" lon="0.57623">
        <ele>165</ele>
        <time>2015-11-03T14:09:45Z</time>
      </trkpt>
      <trkpt lat="45.26112" lon="0.57622">
        <ele>162</ele>
        <time>2015-11-03T14:09:49Z</time>
      </trkpt>
      <trkpt lat="45.26107" lon="0.57624">
        <ele>161</ele>
        <time>2015-11-03T14:09:53Z</time>
      </trkpt>
      <trkpt lat="45.26103" lon="0.57626">
        <ele>159</ele>
        <time>2015-11-03T14:09:59Z</time>
      </trkpt>
      <trkpt lat="45.26096" lon="0.57628">
        <ele>158</ele>
        <time>2015-11-03T14:10:03Z</time>
      </trkpt>
      <trkpt lat="45.26091" lon="0.57628">
        <ele>155</ele>
        <time>2015-11-03T14:10:07Z</time>
      </trkpt>
      <trkpt lat="45.26088" lon="0.57628">
        <ele>158</ele>
        <time>2015-11-03T14:10:11Z</time>
      </trkpt>
      <trkpt lat="45.26083" lon="0.57627">
        <ele>159</ele>
        <time>2015-11-03T14:10:15Z</time>
      </trkpt>
      <trkpt lat="45.26078" lon="0.57627">
        <ele>158</ele>
        <time>2015-11-03T14:10:19Z</time>
      </trkpt>
      <trkpt lat="45.26074" lon="0.57625">
        <ele>158</ele>
        <time>2015-11-03T14:10:24Z</time>
      </trkpt>
      <trkpt lat="45.26069" lon="0.57624">
        <ele>157</ele>
        <time>2015-11-03T14:10:29Z</time>
      </trkpt>
      <trkpt lat="45.26064" lon="0.57625">
        <ele>159</ele>
        <time>2015-11-03T14:10:33Z</time>
      </trkpt>
      <trkpt lat="45.26059" lon="0.57625">
        <ele>157</ele>
        <time>2015-11-03T14:10:37Z</time>
      </trkpt>
      <trkpt lat="45.26054" lon="0.57624">
        <ele>156</ele>
        <time>2015-11-03T14:10:41Z</time>
      </trkpt>
      <trkpt lat="45.2605" lon="0.57624">
        <ele>154</ele>
        <time>2015-11-03T14:10:46Z</time>
      </trkpt>
      <trkpt lat="45.26042" lon="0.57625">
        <ele>155</ele>
        <time>2015-11-03T14:10:51Z</time>
      </trkpt>
      <trkpt lat="45.26038" lon="0.57625">
        <ele>156</ele>
        <time>2015-11-03T14:10:55Z</time>
      </trkpt>
      <trkpt lat="45.26034" lon="0.57625">
        <ele>157</ele>
        <time>2015-11-03T14:11:01Z</time>
      </trkpt>
      <trkpt lat="45.2603" lon="0.57622">
        <ele>153</ele>
        <time>2015-11-03T14:11:06Z</time>
      </trkpt>
      <trkpt lat="45.26025" lon="0.5762">
        <ele>152</ele>
        <time>2015-11-03T14:11:10Z</time>
      </trkpt>
      <trkpt lat="45.2602" lon="0.57619">
        <ele>152</ele>
        <time>2015-11-03T14:11:14Z</time>
      </trkpt>
      <trkpt lat="45.26016" lon="0.57619">
        <ele>147</ele>
        <time>2015-11-03T14:11:21Z</time>
      </trkpt>
      <trkpt lat="45.26011" lon="0.57618">
        <ele>147</ele>
        <time>2015-11-03T14:11:27Z</time>
      </trkpt>
      <trkpt lat="45.26006" lon="0.57619">
        <ele>146</ele>
        <time>2015-11-03T14:11:32Z</time>
      </trkpt>
      <trkpt lat="45.26002" lon="0.57621">
        <ele>143</ele>
        <time>2015-11-03T14:11:44Z</time>
      </trkpt>
      <trkpt lat="45.25998" lon="0.57619">
        <ele>146</ele>
        <time>2015-11-03T14:12:07Z</time>
      </trkpt>
      <trkpt lat="45.25995" lon="0.57617">
        <ele>148</ele>
        <time>2015-11-03T14:12:21Z</time>
      </trkpt>
      <trkpt lat="45.25991" lon="0.57616">
        <ele>150</ele>
        <time>2015-11-03T14:12:27Z</time>
      </trkpt>
      <trkpt lat="45.25988" lon="0.57611">
        <ele>149</ele>
        <time>2015-11-03T14:12:39Z</time>
      </trkpt>
      <trkpt lat="45.25983" lon="0.57611">
        <ele>148</ele>
        <time>2015-11-03T14:12:44Z</time>
      </trkpt>
      <trkpt lat="45.2598" lon="0.57607">
        <ele>155</ele>
        <time>2015-11-03T14:12:58Z</time>
      </trkpt>
      <trkpt lat="45.2598" lon="0.57602">
        <ele>159</ele>
        <time>2015-11-03T14:13:06Z</time>
      </trkpt>
      <trkpt lat="45.25981" lon="0.57596">
        <ele>164</ele>
        <time>2015-11-03T14:13:11Z</time>
      </trkpt>
      <trkpt lat="45.25981" lon="0.57591">
        <ele>164</ele>
        <time>2015-11-03T14:13:17Z</time>
      </trkpt>
      <trkpt lat="45.25982" lon="0.57585">
        <ele>163</ele>
        <time>2015-11-03T14:13:22Z</time>
      </trkpt>
      <trkpt lat="45.25983" lon="0.5758">
        <ele>163</ele>
        <time>2015-11-03T14:13:27Z</time>
      </trkpt>
      <trkpt lat="45.25984" lon="0.57574">
        <ele>164</ele>
        <time>2015-11-03T14:13:33Z</time>
      </trkpt>
      <trkpt lat="45.25985" lon="0.57567">
        <ele>165</ele>
        <time>2015-11-03T14:13:38Z</time>
      </trkpt>
      <trkpt lat="45.25987" lon="0.57563">
        <ele>165</ele>
        <time>2015-11-03T14:13:42Z</time>
      </trkpt>
      <trkpt lat="45.25987" lon="0.57558">
        <ele>167</ele>
        <time>2015-11-03T14:13:47Z</time>
      </trkpt>
      <trkpt lat="45.25989" lon="0.5755">
        <ele>168</ele>
        <time>2015-11-03T14:13:52Z</time>
      </trkpt>
      <trkpt lat="45.25987" lon="0.57541">
        <ele>167</ele>
        <time>2015-11-03T14:13:57Z</time>
      </trkpt>
      <trkpt lat="45.25988" lon="0.57535">
        <ele>168</ele>
        <time>2015-11-03T14:14:01Z</time>
      </trkpt>
      <trkpt lat="45.25988" lon="0.57529">
        <ele>169</ele>
        <time>2015-11-03T14:14:06Z</time>
      </trkpt>
      <trkpt lat="45.25989" lon="0.57522">
        <ele>170</ele>
        <time>2015-11-03T14:14:11Z</time>
      </trkpt>
      <trkpt lat="45.25989" lon="0.57515">
        <ele>169</ele>
        <time>2015-11-03T14:14:15Z</time>
      </trkpt>
      <trkpt lat="45.25987" lon="0.57509">
        <ele>171</ele>
        <time>2015-11-03T14:14:21Z</time>
      </trkpt>
      <trkpt lat="45.25987" lon="0.57502">
        <ele>170</ele>
        <time>2015-11-03T14:14:26Z</time>
      </trkpt>
      <trkpt lat="45.25988" lon="0.57496">
        <ele>171</ele>
        <time>2015-11-03T14:14:31Z</time>
      </trkpt>
      <trkpt lat="45.25985" lon="0.5749">
        <ele>171</ele>
        <time>2015-11-03T14:14:35Z</time>
      </trkpt>
      <trkpt lat="45.2598" lon="0.57484">
        <ele>170</ele>
        <time>2015-11-03T14:14:40Z</time>
      </trkpt>
      <trkpt lat="45.25979" lon="0.57477">
        <ele>170</ele>
        <time>2015-11-03T14:14:44Z</time>
      </trkpt>
      <trkpt lat="45.25979" lon="0.57472">
        <ele>171</ele>
        <time>2015-11-03T14:14:50Z</time>
      </trkpt>
      <trkpt lat="45.2598" lon="0.57467">
        <ele>172</ele>
        <time>2015-11-03T14:14:54Z</time>
      </trkpt>
      <trkpt lat="45.25976" lon="0.57464">
        <ele>171</ele>
        <time>2015-11-03T14:14:58Z</time>
      </trkpt>
      <trkpt lat="45.25975" lon="0.57458">
        <ele>171</ele>
        <time>2015-11-03T14:15:02Z</time>
      </trkpt>
      <trkpt lat="45.25976" lon="0.57453">
        <ele>173</ele>
        <time>2015-11-03T14:15:07Z</time>
      </trkpt>
      <trkpt lat="45.25974" lon="0.57448">
        <ele>174</ele>
        <time>2015-11-03T14:15:11Z</time>
      </trkpt>
      <trkpt lat="45.25973" lon="0.57442">
        <ele>177</ele>
        <time>2015-11-03T14:15:17Z</time>
      </trkpt>
      <trkpt lat="45.25961" lon="0.57438">
        <ele>171</ele>
        <time>2015-11-03T14:15:22Z</time>
      </trkpt>
      <trkpt lat="45.2596" lon="0.57432">
        <ele>173</ele>
        <time>2015-11-03T14:15:27Z</time>
      </trkpt>
      <trkpt lat="45.25961" lon="0.57427">
        <ele>174</ele>
        <time>2015-11-03T14:15:31Z</time>
      </trkpt>
      <trkpt lat="45.25961" lon="0.5742">
        <ele>178</ele>
        <time>2015-11-03T14:15:36Z</time>
      </trkpt>
      <trkpt lat="45.25961" lon="0.57414">
        <ele>179</ele>
        <time>2015-11-03T14:15:40Z</time>
      </trkpt>
      <trkpt lat="45.25961" lon="0.57405">
        <ele>178</ele>
        <time>2015-11-03T14:15:44Z</time>
      </trkpt>
      <trkpt lat="45.25958" lon="0.57399">
        <ele>178</ele>
        <time>2015-11-03T14:15:48Z</time>
      </trkpt>
      <trkpt lat="45.25957" lon="0.57393">
        <ele>178</ele>
        <time>2015-11-03T14:15:53Z</time>
      </trkpt>
      <trkpt lat="45.25957" lon="0.57387">
        <ele>180</ele>
        <time>2015-11-03T14:15:58Z</time>
      </trkpt>
      <trkpt lat="45.25957" lon="0.57381">
        <ele>180</ele>
        <time>2015-11-03T14:16:02Z</time>
      </trkpt>
      <trkpt lat="45.25956" lon="0.57375">
        <ele>180</ele>
        <time>2015-11-03T14:16:07Z</time>
      </trkpt>
      <trkpt lat="45.25956" lon="0.57368">
        <ele>180</ele>
        <time>2015-11-03T14:16:12Z</time>
      </trkpt>
      <trkpt lat="45.25952" lon="0.57365">
        <ele>180</ele>
        <time>2015-11-03T14:16:16Z</time>
      </trkpt>
      <trkpt lat="45.2595" lon="0.57355">
        <ele>180</ele>
        <time>2015-11-03T14:16:21Z</time>
      </trkpt>
      <trkpt lat="45.25951" lon="0.57349">
        <ele>181</ele>
        <time>2015-11-03T14:16:25Z</time>
      </trkpt>
      <trkpt lat="45.2595" lon="0.57341">
        <ele>178</ele>
        <time>2015-11-03T14:16:29Z</time>
      </trkpt>
      <trkpt lat="45.25951" lon="0.57334">
        <ele>178</ele>
        <time>2015-11-03T14:16:34Z</time>
      </trkpt>
      <trkpt lat="45.25948" lon="0.57329">
        <ele>181</ele>
        <time>2015-11-03T14:16:39Z</time>
      </trkpt>
      <trkpt lat="45.25949" lon="0.57317">
        <ele>180</ele>
        <time>2015-11-03T14:16:43Z</time>
      </trkpt>
      <trkpt lat="45.2595" lon="0.57305">
        <ele>182</ele>
        <time>2015-11-03T14:16:48Z</time>
      </trkpt>
      <trkpt lat="45.25949" lon="0.57299">
        <ele>185</ele>
        <time>2015-11-03T14:16:52Z</time>
      </trkpt>
      <trkpt lat="45.25951" lon="0.57294">
        <ele>188</ele>
        <time>2015-11-03T14:16:56Z</time>
      </trkpt>
      <trkpt lat="45.25952" lon="0.57287">
        <ele>188</ele>
        <time>2015-11-03T14:17:01Z</time>
      </trkpt>
      <trkpt lat="45.25953" lon="0.57282">
        <ele>190</ele>
        <time>2015-11-03T14:17:06Z</time>
      </trkpt>
      <trkpt lat="45.25952" lon="0.57275">
        <ele>190</ele>
        <time>2015-11-03T14:17:10Z</time>
      </trkpt>
      <trkpt lat="45.2595" lon="0.57269">
        <ele>190</ele>
        <time>2015-11-03T14:17:15Z</time>
      </trkpt>
      <trkpt lat="45.25949" lon="0.57264">
        <ele>189</ele>
        <time>2015-11-03T14:17:21Z</time>
      </trkpt>
      <trkpt lat="45.25949" lon="0.57258">
        <ele>190</ele>
        <time>2015-11-03T14:17:26Z</time>
      </trkpt>
      <trkpt lat="45.25949" lon="0.57252">
        <ele>188</ele>
        <time>2015-11-03T14:17:30Z</time>
      </trkpt>
      <trkpt lat="45.25949" lon="0.57247">
        <ele>190</ele>
        <time>2015-11-03T14:17:34Z</time>
      </trkpt>
      <trkpt lat="45.2595" lon="0.57235">
        <ele>187</ele>
        <time>2015-11-03T14:17:39Z</time>
      </trkpt>
      <trkpt lat="45.25951" lon="0.57229">
        <ele>188</ele>
        <time>2015-11-03T14:17:45Z</time>
      </trkpt>
      <trkpt lat="45.25953" lon="0.57223">
        <ele>187</ele>
        <time>2015-11-03T14:17:49Z</time>
      </trkpt>
      <trkpt lat="45.25954" lon="0.57218">
        <ele>185</ele>
        <time>2015-11-03T14:17:53Z</time>
      </trkpt>
      <trkpt lat="45.25956" lon="0.57212">
        <ele>185</ele>
        <time>2015-11-03T14:17:59Z</time>
      </trkpt>
      <trkpt lat="45.25958" lon="0.57206">
        <ele>186</ele>
        <time>2015-11-03T14:18:04Z</time>
      </trkpt>
      <trkpt lat="45.2596" lon="0.57201">
        <ele>187</ele>
        <time>2015-11-03T14:18:10Z</time>
      </trkpt>
      <trkpt lat="45.25962" lon="0.57195">
        <ele>188</ele>
        <time>2015-11-03T14:18:15Z</time>
      </trkpt>
      <trkpt lat="45.25964" lon="0.57189">
        <ele>187</ele>
        <time>2015-11-03T14:18:19Z</time>
      </trkpt>
      <trkpt lat="45.25965" lon="0.57183">
        <ele>186</ele>
        <time>2015-11-03T14:18:23Z</time>
      </trkpt>
      <trkpt lat="45.25968" lon="0.57177">
        <ele>186</ele>
        <time>2015-11-03T14:18:28Z</time>
      </trkpt>
      <trkpt lat="45.25971" lon="0.57171">
        <ele>187</ele>
        <time>2015-11-03T14:18:33Z</time>
      </trkpt>
      <trkpt lat="45.25972" lon="0.57166">
        <ele>187</ele>
        <time>2015-11-03T14:18:38Z</time>
      </trkpt>
      <trkpt lat="45.25975" lon="0.57162">
        <ele>189</ele>
        <time>2015-11-03T14:18:43Z</time>
      </trkpt>
      <trkpt lat="45.25977" lon="0.57157">
        <ele>189</ele>
        <time>2015-11-03T14:18:48Z</time>
      </trkpt>
      <trkpt lat="45.25981" lon="0.57152">
        <ele>189</ele>
        <time>2015-11-03T14:18:53Z</time>
      </trkpt>
      <trkpt lat="45.25983" lon="0.57147">
        <ele>190</ele>
        <time>2015-11-03T14:18:57Z</time>
      </trkpt>
      <trkpt lat="45.25986" lon="0.57143">
        <ele>190</ele>
        <time>2015-11-03T14:19:01Z</time>
      </trkpt>
      <trkpt lat="45.25988" lon="0.57138">
        <ele>189</ele>
        <time>2015-11-03T14:19:06Z</time>
      </trkpt>
      <trkpt lat="45.2599" lon="0.57134">
        <ele>190</ele>
        <time>2015-11-03T14:19:10Z</time>
      </trkpt>
      <trkpt lat="45.25992" lon="0.57128">
        <ele>190</ele>
        <time>2015-11-03T14:19:14Z</time>
      </trkpt>
      <trkpt lat="45.25996" lon="0.57122">
        <ele>189</ele>
        <time>2015-11-03T14:19:19Z</time>
      </trkpt>
      <trkpt lat="45.25998" lon="0.57117">
        <ele>188</ele>
        <time>2015-11-03T14:19:23Z</time>
      </trkpt>
      <trkpt lat="45.25999" lon="0.57113">
        <ele>189</ele>
        <time>2015-11-03T14:19:27Z</time>
      </trkpt>
      <trkpt lat="45.26002" lon="0.57107">
        <ele>190</ele>
        <time>2015-11-03T14:19:31Z</time>
      </trkpt>
      <trkpt lat="45.26004" lon="0.57101">
        <ele>190</ele>
        <time>2015-11-03T14:19:36Z</time>
      </trkpt>
      <trkpt lat="45.26006" lon="0.57097">
        <ele>191</ele>
        <time>2015-11-03T14:19:40Z</time>
      </trkpt>
      <trkpt lat="45.26007" lon="0.57092">
        <ele>191</ele>
        <time>2015-11-03T14:19:44Z</time>
      </trkpt>
      <trkpt lat="45.2601" lon="0.57086">
        <ele>190</ele>
        <time>2015-11-03T14:19:48Z</time>
      </trkpt>
      <trkpt lat="45.26013" lon="0.5708">
        <ele>190</ele>
        <time>2015-11-03T14:19:53Z</time>
      </trkpt>
      <trkpt lat="45.26015" lon="0.57073">
        <ele>190</ele>
        <time>2015-11-03T14:19:58Z</time>
      </trkpt>
      <trkpt lat="45.26017" lon="0.57067">
        <ele>191</ele>
        <time>2015-11-03T14:20:03Z</time>
      </trkpt>
      <trkpt lat="45.26018" lon="0.57063">
        <ele>191</ele>
        <time>2015-11-03T14:20:07Z</time>
      </trkpt>
      <trkpt lat="45.26021" lon="0.57055">
        <ele>190</ele>
        <time>2015-11-03T14:20:12Z</time>
      </trkpt>
      <trkpt lat="45.26024" lon="0.57048">
        <ele>190</ele>
        <time>2015-11-03T14:20:17Z</time>
      </trkpt>
      <trkpt lat="45.26025" lon="0.57042">
        <ele>191</ele>
        <time>2015-11-03T14:20:21Z</time>
      </trkpt>
      <trkpt lat="45.26027" lon="0.57036">
        <ele>190</ele>
        <time>2015-11-03T14:20:25Z</time>
      </trkpt>
      <trkpt lat="45.26028" lon="0.57031">
        <ele>190</ele>
        <time>2015-11-03T14:20:30Z</time>
      </trkpt>
      <trkpt lat="45.26029" lon="0.57024">
        <ele>191</ele>
        <time>2015-11-03T14:20:34Z</time>
      </trkpt>
      <trkpt lat="45.26031" lon="0.57018">
        <ele>192</ele>
        <time>2015-11-03T14:20:39Z</time>
      </trkpt>
      <trkpt lat="45.26032" lon="0.57013">
        <ele>193</ele>
        <time>2015-11-03T14:20:43Z</time>
      </trkpt>
      <trkpt lat="45.26033" lon="0.57007">
        <ele>195</ele>
        <time>2015-11-03T14:20:49Z</time>
      </trkpt>
      <trkpt lat="45.26034" lon="0.57001">
        <ele>197</ele>
        <time>2015-11-03T14:20:54Z</time>
      </trkpt>
      <trkpt lat="45.26034" lon="0.56996">
        <ele>197</ele>
        <time>2015-11-03T14:20:58Z</time>
      </trkpt>
      <trkpt lat="45.26035" lon="0.56989">
        <ele>196</ele>
        <time>2015-11-03T14:21:03Z</time>
      </trkpt>
      <trkpt lat="45.26035" lon="0.56984">
        <ele>195</ele>
        <time>2015-11-03T14:21:07Z</time>
      </trkpt>
      <trkpt lat="45.26037" lon="0.56978">
        <ele>195</ele>
        <time>2015-11-03T14:21:12Z</time>
      </trkpt>
      <trkpt lat="45.26037" lon="0.56973">
        <ele>199</ele>
        <time>2015-11-03T14:21:20Z</time>
      </trkpt>
      <trkpt lat="45.26037" lon="0.56966">
        <ele>198</ele>
        <time>2015-11-03T14:21:24Z</time>
      </trkpt>
      <trkpt lat="45.2604" lon="0.56961">
        <ele>199</ele>
        <time>2015-11-03T14:21:31Z</time>
      </trkpt>
      <trkpt lat="45.26041" lon="0.56954">
        <ele>201</ele>
        <time>2015-11-03T14:21:35Z</time>
      </trkpt>
      <trkpt lat="45.26041" lon="0.56948">
        <ele>200</ele>
        <time>2015-11-03T14:21:39Z</time>
      </trkpt>
      <trkpt lat="45.26043" lon="0.56943">
        <ele>200</ele>
        <time>2015-11-03T14:21:45Z</time>
      </trkpt>
      <trkpt lat="45.26043" lon="0.56939">
        <ele>200</ele>
        <time>2015-11-03T14:21:49Z</time>
      </trkpt>
      <trkpt lat="45.26044" lon="0.56932">
        <ele>203</ele>
        <time>2015-11-03T14:21:54Z</time>
      </trkpt>
      <trkpt lat="45.26044" lon="0.56927">
        <ele>203</ele>
        <time>2015-11-03T14:21:59Z</time>
      </trkpt>
      <trkpt lat="45.26045" lon="0.56918">
        <ele>203</ele>
        <time>2015-11-03T14:22:04Z</time>
      </trkpt>
      <trkpt lat="45.26045" lon="0.56912">
        <ele>203</ele>
        <time>2015-11-03T14:22:10Z</time>
      </trkpt>
      <trkpt lat="45.26041" lon="0.56909">
        <ele>205</ele>
        <time>2015-11-03T14:22:55Z</time>
      </trkpt>
      <trkpt lat="45.26043" lon="0.56908">
        <ele>204</ele>
        <time>2015-11-03T14:25:09Z</time>
      </trkpt>
      <trkpt lat="45.26048" lon="0.56891">
        <ele>206</ele>
        <time>2015-11-03T14:25:39Z</time>
      </trkpt>
      <trkpt lat="45.26049" lon="0.56879">
        <ele>205</ele>
        <time>2015-11-03T14:25:44Z</time>
      </trkpt>
      <trkpt lat="45.2605" lon="0.56871">
        <ele>205</ele>
        <time>2015-11-03T14:25:49Z</time>
      </trkpt>
      <trkpt lat="45.26051" lon="0.56865">
        <ele>205</ele>
        <time>2015-11-03T14:25:54Z</time>
      </trkpt>
      <trkpt lat="45.26053" lon="0.56859">
        <ele>208</ele>
        <time>2015-11-03T14:25:58Z</time>
      </trkpt>
      <trkpt lat="45.26055" lon="0.56856">
        <ele>207</ele>
        <time>2015-11-03T14:26:07Z</time>
      </trkpt>
      <trkpt lat="45.26058" lon="0.5685">
        <ele>207</ele>
        <time>2015-11-03T14:26:10Z</time>
      </trkpt>
      <trkpt lat="45.26059" lon="0.56846">
        <ele>206</ele>
        <time>2015-11-03T14:26:36Z</time>
      </trkpt>
      <trkpt lat="45.26076" lon="0.56801">
        <ele>208</ele>
        <time>2015-11-03T14:26:41Z</time>
      </trkpt>
      <trkpt lat="45.26078" lon="0.56794">
        <ele>206</ele>
        <time>2015-11-03T14:26:44Z</time>
      </trkpt>
      <trkpt lat="45.26079" lon="0.56791">
        <ele>206</ele>
        <time>2015-11-03T14:26:49Z</time>
      </trkpt>
      <trkpt lat="45.26079" lon="0.56785">
        <ele>204</ele>
        <time>2015-11-03T14:26:49Z</time>
      </trkpt>
      <trkpt lat="45.26084" lon="0.56767">
        <ele>207</ele>
        <time>2015-11-03T14:27:00Z</time>
      </trkpt>
      <trkpt lat="45.26088" lon="0.5676">
        <ele>206</ele>
        <time>2015-11-03T14:27:05Z</time>
      </trkpt>
      <trkpt lat="45.26092" lon="0.56753">
        <ele>207</ele>
        <time>2015-11-03T14:27:10Z</time>
      </trkpt>
      <trkpt lat="45.26095" lon="0.56747">
        <ele>209</ele>
        <time>2015-11-03T14:27:14Z</time>
      </trkpt>
      <trkpt lat="45.26098" lon="0.56736">
        <ele>211</ele>
        <time>2015-11-03T14:27:19Z</time>
      </trkpt>
      <trkpt lat="45.261" lon="0.56731">
        <ele>211</ele>
        <time>2015-11-03T14:27:23Z</time>
      </trkpt>
      <trkpt lat="45.26099" lon="0.56725">
        <ele>211</ele>
        <time>2015-11-03T14:27:25Z</time>
      </trkpt>
      <trkpt lat="45.26099" lon="0.56708">
        <ele>210</ele>
        <time>2015-11-03T14:27:38Z</time>
      </trkpt>
      <trkpt lat="45.26098" lon="0.56707">
        <ele>209</ele>
        <time>2015-11-03T14:27:40Z</time>
      </trkpt>
      <trkpt lat="45.26103" lon="0.567">
        <ele>203</ele>
        <time>2015-11-03T14:28:00Z</time>
      </trkpt>
      <trkpt lat="45.261" lon="0.56697">
        <ele>202</ele>
        <time>2015-11-03T14:28:39Z</time>
      </trkpt>
      <trkpt lat="45.26098" lon="0.56693">
        <ele>203</ele>
        <time>2015-11-03T14:29:03Z</time>
      </trkpt>
      <trkpt lat="45.26098" lon="0.56683">
        <ele>202</ele>
        <time>2015-11-03T14:29:08Z</time>
      </trkpt>
      <trkpt lat="45.26096" lon="0.56679">
        <ele>201</ele>
        <time>2015-11-03T14:29:29Z</time>
      </trkpt>
      <trkpt lat="45.26099" lon="0.56648">
        <ele>205</ele>
        <time>2015-11-03T14:29:32Z</time>
      </trkpt>
      <trkpt lat="45.261" lon="0.56647">
        <ele>205</ele>
        <time>2015-11-03T14:29:38Z</time>
      </trkpt>
      <trkpt lat="45.26103" lon="0.56638">
        <ele>204</ele>
        <time>2015-11-03T14:29:40Z</time>
      </trkpt>
      <trkpt lat="45.26101" lon="0.56632">
        <ele>203</ele>
        <time>2015-11-03T14:30:25Z</time>
      </trkpt>
      <trkpt lat="45.26107" lon="0.56601">
        <ele>203</ele>
        <time>2015-11-03T14:30:30Z</time>
      </trkpt>
      <trkpt lat="45.26111" lon="0.5659">
        <ele>199</ele>
        <time>2015-11-03T14:30:35Z</time>
      </trkpt>
      <trkpt lat="45.26111" lon="0.56586">
        <ele>200</ele>
        <time>2015-11-03T14:30:40Z</time>
      </trkpt>
      <trkpt lat="45.26114" lon="0.56576">
        <ele>199</ele>
        <time>2015-11-03T14:30:44Z</time>
      </trkpt>
      <trkpt lat="45.26119" lon="0.56552">
        <ele>198</ele>
        <time>2015-11-03T14:31:00Z</time>
      </trkpt>
      <trkpt lat="45.26121" lon="0.56542">
        <ele>199</ele>
        <time>2015-11-03T14:31:05Z</time>
      </trkpt>
      <trkpt lat="45.26124" lon="0.56539">
        <ele>198</ele>
        <time>2015-11-03T14:31:10Z</time>
      </trkpt>
      <trkpt lat="45.26143" lon="0.56503">
        <ele>188</ele>
        <time>2015-11-03T14:31:38Z</time>
      </trkpt>
      <trkpt lat="45.26145" lon="0.56502">
        <ele>188</ele>
        <time>2015-11-03T14:31:40Z</time>
      </trkpt>
      <trkpt lat="45.2616" lon="0.56478">
        <ele>183</ele>
        <time>2015-11-03T14:32:00Z</time>
      </trkpt>
      <trkpt lat="45.26164" lon="0.56474">
        <ele>184</ele>
        <time>2015-11-03T14:32:05Z</time>
      </trkpt>
      <trkpt lat="45.26168" lon="0.5647">
        <ele>181</ele>
        <time>2015-11-03T14:32:10Z</time>
      </trkpt>
      <trkpt lat="45.26172" lon="0.56469">
        <ele>180</ele>
        <time>2015-11-03T14:32:13Z</time>
      </trkpt>
      <trkpt lat="45.26173" lon="0.56468">
        <ele>178</ele>
        <time>2015-11-03T14:32:24Z</time>
      </trkpt>
      <trkpt lat="45.26185" lon="0.56456">
        <ele>176</ele>
        <time>2015-11-03T14:32:28Z</time>
      </trkpt>
      <trkpt lat="45.26189" lon="0.56449">
        <ele>176</ele>
        <time>2015-11-03T14:32:33Z</time>
      </trkpt>
      <trkpt lat="45.26193" lon="0.56447">
        <ele>176</ele>
        <time>2015-11-03T14:32:37Z</time>
      </trkpt>
      <trkpt lat="45.26198" lon="0.5644">
        <ele>174</ele>
        <time>2015-11-03T14:32:42Z</time>
      </trkpt>
      <trkpt lat="45.26201" lon="0.56434">
        <ele>174</ele>
        <time>2015-11-03T14:32:44Z</time>
      </trkpt>
      <trkpt lat="45.26218" lon="0.56416">
        <ele>172</ele>
        <time>2015-11-03T14:33:00Z</time>
      </trkpt>
      <trkpt lat="45.26221" lon="0.56413">
        <ele>173</ele>
        <time>2015-11-03T14:33:05Z</time>
      </trkpt>
      <trkpt lat="45.26227" lon="0.56411">
        <ele>173</ele>
        <time>2015-11-03T14:33:10Z</time>
      </trkpt>
      <trkpt lat="45.26232" lon="0.56404">
        <ele>172</ele>
        <time>2015-11-03T14:33:14Z</time>
      </trkpt>
      <trkpt lat="45.26235" lon="0.56399">
        <ele>173</ele>
        <time>2015-11-03T14:33:19Z</time>
      </trkpt>
      <trkpt lat="45.2624" lon="0.56392">
        <ele>173</ele>
        <time>2015-11-03T14:33:23Z</time>
      </trkpt>
      <trkpt lat="45.26246" lon="0.56387">
        <ele>172</ele>
        <time>2015-11-03T14:33:28Z</time>
      </trkpt>
      <trkpt lat="45.26249" lon="0.56383">
        <ele>171</ele>
        <time>2015-11-03T14:33:32Z</time>
      </trkpt>
      <trkpt lat="45.26254" lon="0.56379">
        <ele>171</ele>
        <time>2015-11-03T14:33:36Z</time>
      </trkpt>
      <trkpt lat="45.26256" lon="0.56373">
        <ele>167</ele>
        <time>2015-11-03T14:33:40Z</time>
      </trkpt>
      <trkpt lat="45.26259" lon="0.56372">
        <ele>167</ele>
        <time>2015-11-03T14:34:00Z</time>
      </trkpt>
      <trkpt lat="45.26283" lon="0.56352">
        <ele>166</ele>
        <time>2015-11-03T14:34:05Z</time>
      </trkpt>
      <trkpt lat="45.26286" lon="0.56348">
        <ele>166</ele>
        <time>2015-11-03T14:34:13Z</time>
      </trkpt>
      <trkpt lat="45.26295" lon="0.56342">
        <ele>163</ele>
        <time>2015-11-03T14:34:18Z</time>
      </trkpt>
      <trkpt lat="45.263" lon="0.56338">
        <ele>166</ele>
        <time>2015-11-03T14:34:23Z</time>
      </trkpt>
      <trkpt lat="45.26302" lon="0.56335">
        <ele>168</ele>
        <time>2015-11-03T14:34:27Z</time>
      </trkpt>
      <trkpt lat="45.26308" lon="0.56329">
        <ele>167</ele>
        <time>2015-11-03T14:34:30Z</time>
      </trkpt>
      <trkpt lat="45.26312" lon="0.56324">
        <ele>167</ele>
        <time>2015-11-03T14:34:35Z</time>
      </trkpt>
      <trkpt lat="45.26317" lon="0.56318">
        <ele>167</ele>
        <time>2015-11-03T14:34:39Z</time>
      </trkpt>
      <trkpt lat="45.26319" lon="0.56315">
        <ele>165</ele>
        <time>2015-11-03T14:34:41Z</time>
      </trkpt>
      <trkpt lat="45.26329" lon="0.56292">
        <ele>160</ele>
        <time>2015-11-03T14:35:00Z</time>
      </trkpt>
      <trkpt lat="45.26333" lon="0.5628">
        <ele>159</ele>
        <time>2015-11-03T14:35:05Z</time>
      </trkpt>
      <trkpt lat="45.26335" lon="0.56272">
        <ele>158</ele>
        <time>2015-11-03T14:35:10Z</time>
      </trkpt>
      <trkpt lat="45.26342" lon="0.56232">
        <ele>154</ele>
        <time>2015-11-03T14:35:34Z</time>
      </trkpt>
      <trkpt lat="45.26343" lon="0.56223">
        <ele>154</ele>
        <time>2015-11-03T14:35:39Z</time>
      </trkpt>
      <trkpt lat="45.26344" lon="0.56216">
        <ele>155</ele>
        <time>2015-11-03T14:35:43Z</time>
      </trkpt>
      <trkpt lat="45.26343" lon="0.5621">
        <ele>155</ele>
        <time>2015-11-03T14:35:48Z</time>
      </trkpt>
      <trkpt lat="45.26344" lon="0.56202">
        <ele>156</ele>
        <time>2015-11-03T14:35:53Z</time>
      </trkpt>
      <trkpt lat="45.26343" lon="0.56196">
        <ele>155</ele>
        <time>2015-11-03T14:35:56Z</time>
      </trkpt>
      <trkpt lat="45.2634" lon="0.56188">
        <ele>154</ele>
        <time>2015-11-03T14:36:00Z</time>
      </trkpt>
      <trkpt lat="45.26337" lon="0.5618">
        <ele>154</ele>
        <time>2015-11-03T14:36:05Z</time>
      </trkpt>
      <trkpt lat="45.26333" lon="0.56176">
        <ele>155</ele>
        <time>2015-11-03T14:36:10Z</time>
      </trkpt>
      <trkpt lat="45.26331" lon="0.56172">
        <ele>154</ele>
        <time>2015-11-03T14:36:15Z</time>
      </trkpt>
      <trkpt lat="45.26327" lon="0.56167">
        <ele>155</ele>
        <time>2015-11-03T14:36:19Z</time>
      </trkpt>
      <trkpt lat="45.26325" lon="0.56161">
        <ele>158</ele>
        <time>2015-11-03T14:36:23Z</time>
      </trkpt>
      <trkpt lat="45.26324" lon="0.56157">
        <ele>158</ele>
        <time>2015-11-03T14:36:27Z</time>
      </trkpt>
      <trkpt lat="45.26317" lon="0.56148">
        <ele>157</ele>
        <time>2015-11-03T14:36:34Z</time>
      </trkpt>
      <trkpt lat="45.26312" lon="0.56143">
        <ele>155</ele>
        <time>2015-11-03T14:36:39Z</time>
      </trkpt>
      <trkpt lat="45.2631" lon="0.56138">
        <ele>153</ele>
        <time>2015-11-03T14:36:43Z</time>
      </trkpt>
      <trkpt lat="45.26307" lon="0.56137">
        <ele>152</ele>
        <time>2015-11-03T14:37:27Z</time>
      </trkpt>
      <trkpt lat="45.26302" lon="0.5613">
        <ele>152</ele>
        <time>2015-11-03T14:37:32Z</time>
      </trkpt>
      <trkpt lat="45.26298" lon="0.56127">
        <ele>152</ele>
        <time>2015-11-03T14:37:36Z</time>
      </trkpt>
      <trkpt lat="45.26295" lon="0.56124">
        <ele>151</ele>
        <time>2015-11-03T14:37:40Z</time>
      </trkpt>
      <trkpt lat="45.26291" lon="0.5612">
        <ele>151</ele>
        <time>2015-11-03T14:37:44Z</time>
      </trkpt>
      <trkpt lat="45.2629" lon="0.56119">
        <ele>151</ele>
        <time>2015-11-03T14:37:50Z</time>
      </trkpt>
      <trkpt lat="45.26285" lon="0.56119">
        <ele>152</ele>
        <time>2015-11-03T14:37:54Z</time>
      </trkpt>
      <trkpt lat="45.26281" lon="0.56117">
        <ele>155</ele>
        <time>2015-11-03T14:38:13Z</time>
      </trkpt>
      <trkpt lat="45.26277" lon="0.56116">
        <ele>155</ele>
        <time>2015-11-03T14:38:26Z</time>
      </trkpt>
      <trkpt lat="45.26272" lon="0.56113">
        <ele>156</ele>
        <time>2015-11-03T14:38:31Z</time>
      </trkpt>
      <trkpt lat="45.26268" lon="0.56108">
        <ele>156</ele>
        <time>2015-11-03T14:38:35Z</time>
      </trkpt>
      <trkpt lat="45.26263" lon="0.56104">
        <ele>156</ele>
        <time>2015-11-03T14:38:40Z</time>
      </trkpt>
      <trkpt lat="45.26259" lon="0.56102">
        <ele>154</ele>
        <time>2015-11-03T14:38:44Z</time>
      </trkpt>
      <trkpt lat="45.26249" lon="0.56089">
        <ele>152</ele>
        <time>2015-11-03T14:39:00Z</time>
      </trkpt>
      <trkpt lat="45.26246" lon="0.56084">
        <ele>153</ele>
        <time>2015-11-03T14:39:05Z</time>
      </trkpt>
      <trkpt lat="45.26241" lon="0.56078">
        <ele>151</ele>
        <time>2015-11-03T14:39:10Z</time>
      </trkpt>
      <trkpt lat="45.26238" lon="0.56074">
        <ele>148</ele>
        <time>2015-11-03T14:39:14Z</time>
      </trkpt>
      <trkpt lat="45.26234" lon="0.56067">
        <ele>149</ele>
        <time>2015-11-03T14:39:18Z</time>
      </trkpt>
      <trkpt lat="45.2623" lon="0.56064">
        <ele>151</ele>
        <time>2015-11-03T14:39:22Z</time>
      </trkpt>
      <trkpt lat="45.26225" lon="0.56062">
        <ele>150</ele>
        <time>2015-11-03T14:39:27Z</time>
      </trkpt>
      <trkpt lat="45.26222" lon="0.56053">
        <ele>152</ele>
        <time>2015-11-03T14:39:31Z</time>
      </trkpt>
      <trkpt lat="45.26219" lon="0.56048">
        <ele>153</ele>
        <time>2015-11-03T14:39:36Z</time>
      </trkpt>
      <trkpt lat="45.26214" lon="0.56044">
        <ele>152</ele>
        <time>2015-11-03T14:39:40Z</time>
      </trkpt>
      <trkpt lat="45.26212" lon="0.56041">
        <ele>152</ele>
        <time>2015-11-03T14:40:00Z</time>
      </trkpt>
      <trkpt lat="45.26202" lon="0.5601">
        <ele>159</ele>
        <time>2015-11-03T14:40:05Z</time>
      </trkpt>
      <trkpt lat="45.26199" lon="0.56003">
        <ele>163</ele>
        <time>2015-11-03T14:40:10Z</time>
      </trkpt>
      <trkpt lat="45.26198" lon="0.55999">
        <ele>164</ele>
        <time>2015-11-03T14:40:23Z</time>
      </trkpt>
      <trkpt lat="45.26196" lon="0.55983">
        <ele>166</ele>
        <time>2015-11-03T14:40:28Z</time>
      </trkpt>
      <trkpt lat="45.26194" lon="0.55976">
        <ele>169</ele>
        <time>2015-11-03T14:40:33Z</time>
      </trkpt>
      <trkpt lat="45.26192" lon="0.5597">
        <ele>168</ele>
        <time>2015-11-03T14:40:38Z</time>
      </trkpt>
      <trkpt lat="45.2619" lon="0.55965">
        <ele>166</ele>
        <time>2015-11-03T14:40:44Z</time>
      </trkpt>
      <trkpt lat="45.2619" lon="0.55964">
        <ele>166</ele>
        <time>2015-11-03T14:41:00Z</time>
      </trkpt>
      <trkpt lat="45.26184" lon="0.55942">
        <ele>169</ele>
        <time>2015-11-03T14:41:05Z</time>
      </trkpt>
      <trkpt lat="45.26184" lon="0.55939">
        <ele>169</ele>
        <time>2015-11-03T14:41:10Z</time>
      </trkpt>
      <trkpt lat="45.26185" lon="0.55936">
        <ele>169</ele>
        <time>2015-11-03T14:41:13Z</time>
      </trkpt>
      <trkpt lat="45.26184" lon="0.55929">
        <ele>167</ele>
        <time>2015-11-03T14:41:25Z</time>
      </trkpt>
      <trkpt lat="45.26175" lon="0.55898">
        <ele>170</ele>
        <time>2015-11-03T14:41:30Z</time>
      </trkpt>
      <trkpt lat="45.26172" lon="0.55892">
        <ele>170</ele>
        <time>2015-11-03T14:41:35Z</time>
      </trkpt>
      <trkpt lat="45.26166" lon="0.55887">
        <ele>169</ele>
        <time>2015-11-03T14:41:40Z</time>
      </trkpt>
      <trkpt lat="45.26163" lon="0.55885">
        <ele>170</ele>
        <time>2015-11-03T14:41:47Z</time>
      </trkpt>
      <trkpt lat="45.26158" lon="0.55882">
        <ele>168</ele>
        <time>2015-11-03T14:41:52Z</time>
      </trkpt>
      <trkpt lat="45.26155" lon="0.55878">
        <ele>168</ele>
        <time>2015-11-03T14:42:02Z</time>
      </trkpt>
      <trkpt lat="45.26151" lon="0.55873">
        <ele>169</ele>
        <time>2015-11-03T14:42:07Z</time>
      </trkpt>
      <trkpt lat="45.26147" lon="0.55867">
        <ele>170</ele>
        <time>2015-11-03T14:42:12Z</time>
      </trkpt>
      <trkpt lat="45.26144" lon="0.55863">
        <ele>169</ele>
        <time>2015-11-03T14:42:16Z</time>
      </trkpt>
      <trkpt lat="45.26141" lon="0.55859">
        <ele>172</ele>
        <time>2015-11-03T14:42:22Z</time>
      </trkpt>
      <trkpt lat="45.26139" lon="0.55853">
        <ele>174</ele>
        <time>2015-11-03T14:42:26Z</time>
      </trkpt>
      <trkpt lat="45.26136" lon="0.55848">
        <ele>174</ele>
        <time>2015-11-03T14:42:30Z</time>
      </trkpt>
      <trkpt lat="45.26135" lon="0.55843">
        <ele>175</ele>
        <time>2015-11-03T14:42:33Z</time>
      </trkpt>
      <trkpt lat="45.2613" lon="0.55839">
        <ele>174</ele>
        <time>2015-11-03T14:42:38Z</time>
      </trkpt>
      <trkpt lat="45.26124" lon="0.55838">
        <ele>175</ele>
        <time>2015-11-03T14:42:43Z</time>
      </trkpt>
      <trkpt lat="45.26122" lon="0.55836">
        <ele>175</ele>
        <time>2015-11-03T14:43:00Z</time>
      </trkpt>
      <trkpt lat="45.26099" lon="0.55849">
        <ele>178</ele>
        <time>2015-11-03T14:43:05Z</time>
      </trkpt>
      <trkpt lat="45.26095" lon="0.55857">
        <ele>178</ele>
        <time>2015-11-03T14:43:10Z</time>
      </trkpt>
      <trkpt lat="45.26093" lon="0.55858">
        <ele>178</ele>
        <time>2015-11-03T14:43:11Z</time>
      </trkpt>
      <trkpt lat="45.26079" lon="0.55855">
        <ele>181</ele>
        <time>2015-11-03T14:43:26Z</time>
      </trkpt>
      <trkpt lat="45.26077" lon="0.55849">
        <ele>179</ele>
        <time>2015-11-03T14:43:31Z</time>
      </trkpt>
      <trkpt lat="45.26077" lon="0.55843">
        <ele>180</ele>
        <time>2015-11-03T14:43:35Z</time>
      </trkpt>
      <trkpt lat="45.26081" lon="0.55834">
        <ele>180</ele>
        <time>2015-11-03T14:43:40Z</time>
      </trkpt>
      <trkpt lat="45.26085" lon="0.55817">
        <ele>181</ele>
        <time>2015-11-03T14:43:50Z</time>
      </trkpt>
      <trkpt lat="45.26086" lon="0.55807">
        <ele>180</ele>
        <time>2015-11-03T14:43:54Z</time>
      </trkpt>
      <trkpt lat="45.26087" lon="0.55801">
        <ele>180</ele>
        <time>2015-11-03T14:43:58Z</time>
      </trkpt>
      <trkpt lat="45.26089" lon="0.55793">
        <ele>180</ele>
        <time>2015-11-03T14:44:03Z</time>
      </trkpt>
      <trkpt lat="45.26094" lon="0.55786">
        <ele>180</ele>
        <time>2015-11-03T14:44:07Z</time>
      </trkpt>
      <trkpt lat="45.26097" lon="0.55782">
        <ele>178</ele>
        <time>2015-11-03T14:44:15Z</time>
      </trkpt>
      <trkpt lat="45.26102" lon="0.55764">
        <ele>181</ele>
        <time>2015-11-03T14:44:20Z</time>
      </trkpt>
      <trkpt lat="45.26106" lon="0.55759">
        <ele>183</ele>
        <time>2015-11-03T14:44:24Z</time>
      </trkpt>
      <trkpt lat="45.26109" lon="0.55753">
        <ele>181</ele>
        <time>2015-11-03T14:44:29Z</time>
      </trkpt>
      <trkpt lat="45.26111" lon="0.55744">
        <ele>179</ele>
        <time>2015-11-03T14:44:33Z</time>
      </trkpt>
      <trkpt lat="45.26113" lon="0.55736">
        <ele>180</ele>
        <time>2015-11-03T14:44:38Z</time>
      </trkpt>
      <trkpt lat="45.26115" lon="0.55727">
        <ele>179</ele>
        <time>2015-11-03T14:44:42Z</time>
      </trkpt>
      <trkpt lat="45.26115" lon="0.55724">
        <ele>180</ele>
        <time>2015-11-03T14:44:50Z</time>
      </trkpt>
      <trkpt lat="45.26112" lon="0.5571">
        <ele>180</ele>
        <time>2015-11-03T14:44:50Z</time>
      </trkpt>
      <trkpt lat="45.26107" lon="0.55699">
        <ele>177</ele>
        <time>2015-11-03T14:44:57Z</time>
      </trkpt>
      <trkpt lat="45.26103" lon="0.55689">
        <ele>177</ele>
        <time>2015-11-03T14:45:02Z</time>
      </trkpt>
      <trkpt lat="45.26101" lon="0.5568">
        <ele>177</ele>
        <time>2015-11-03T14:45:06Z</time>
      </trkpt>
      <trkpt lat="45.26098" lon="0.55671">
        <ele>174</ele>
        <time>2015-11-03T14:45:11Z</time>
      </trkpt>
      <trkpt lat="45.26095" lon="0.55663">
        <ele>173</ele>
        <time>2015-11-03T14:45:15Z</time>
      </trkpt>
      <trkpt lat="45.26093" lon="0.55655">
        <ele>174</ele>
        <time>2015-11-03T14:45:19Z</time>
      </trkpt>
      <trkpt lat="45.2609" lon="0.55646">
        <ele>175</ele>
        <time>2015-11-03T14:45:24Z</time>
      </trkpt>
      <trkpt lat="45.26089" lon="0.55639">
        <ele>175</ele>
        <time>2015-11-03T14:45:29Z</time>
      </trkpt>
      <trkpt lat="45.26084" lon="0.55629">
        <ele>173</ele>
        <time>2015-11-03T14:45:33Z</time>
      </trkpt>
      <trkpt lat="45.26079" lon="0.5562">
        <ele>175</ele>
        <time>2015-11-03T14:45:38Z</time>
      </trkpt>
      <trkpt lat="45.26078" lon="0.55617">
        <ele>176</ele>
        <time>2015-11-03T14:45:40Z</time>
      </trkpt>
      <trkpt lat="45.26071" lon="0.55605">
        <ele>175</ele>
        <time>2015-11-03T14:45:49Z</time>
      </trkpt>
      <trkpt lat="45.26066" lon="0.55593">
        <ele>176</ele>
        <time>2015-11-03T14:45:54Z</time>
      </trkpt>
      <trkpt lat="45.26061" lon="0.55583">
        <ele>172</ele>
        <time>2015-11-03T14:45:59Z</time>
      </trkpt>
      <trkpt lat="45.26062" lon="0.55573">
        <ele>172</ele>
        <time>2015-11-03T14:46:03Z</time>
      </trkpt>
      <trkpt lat="45.26061" lon="0.55562">
        <ele>170</ele>
        <time>2015-11-03T14:46:08Z</time>
      </trkpt>
      <trkpt lat="45.2606" lon="0.55556">
        <ele>170</ele>
        <time>2015-11-03T14:46:11Z</time>
      </trkpt>
      <trkpt lat="45.26058" lon="0.55551">
        <ele>170</ele>
        <time>2015-11-03T14:46:24Z</time>
      </trkpt>
      <trkpt lat="45.2605" lon="0.55525">
        <ele>176</ele>
        <time>2015-11-03T14:46:28Z</time>
      </trkpt>
      <trkpt lat="45.2605" lon="0.55519">
        <ele>180</ele>
        <time>2015-11-03T14:46:32Z</time>
      </trkpt>
      <trkpt lat="45.26047" lon="0.5551">
        <ele>178</ele>
        <time>2015-11-03T14:46:37Z</time>
      </trkpt>
      <trkpt lat="45.26046" lon="0.55505">
        <ele>176</ele>
        <time>2015-11-03T14:46:42Z</time>
      </trkpt>
      <trkpt lat="45.26044" lon="0.555">
        <ele>173</ele>
        <time>2015-11-03T14:46:45Z</time>
      </trkpt>
      <trkpt lat="45.26036" lon="0.55476">
        <ele>173</ele>
        <time>2015-11-03T14:47:00Z</time>
      </trkpt>
      <trkpt lat="45.26036" lon="0.5547">
        <ele>175</ele>
        <time>2015-11-03T14:47:06Z</time>
      </trkpt>
      <trkpt lat="45.26035" lon="0.55466">
        <ele>177</ele>
        <time>2015-11-03T14:47:27Z</time>
      </trkpt>
      <trkpt lat="45.26039" lon="0.5544">
        <ele>177</ele>
        <time>2015-11-03T14:47:31Z</time>
      </trkpt>
      <trkpt lat="45.2604" lon="0.55433">
        <ele>178</ele>
        <time>2015-11-03T14:47:35Z</time>
      </trkpt>
      <trkpt lat="45.26042" lon="0.55426">
        <ele>178</ele>
        <time>2015-11-03T14:47:40Z</time>
      </trkpt>
      <trkpt lat="45.26042" lon="0.5542">
        <ele>178</ele>
        <time>2015-11-03T14:47:58Z</time>
      </trkpt>
      <trkpt lat="45.26046" lon="0.55402">
        <ele>174</ele>
        <time>2015-11-03T14:48:03Z</time>
      </trkpt>
      <trkpt lat="45.26048" lon="0.55394">
        <ele>174</ele>
        <time>2015-11-03T14:48:08Z</time>
      </trkpt>
      <trkpt lat="45.26052" lon="0.55386">
        <ele>174</ele>
        <time>2015-11-03T14:48:12Z</time>
      </trkpt>
      <trkpt lat="45.26054" lon="0.55381">
        <ele>174</ele>
        <time>2015-11-03T14:48:16Z</time>
      </trkpt>
      <trkpt lat="45.26056" lon="0.55375">
        <ele>172</ele>
        <time>2015-11-03T14:48:21Z</time>
      </trkpt>
      <trkpt lat="45.26058" lon="0.55371">
        <ele>172</ele>
        <time>2015-11-03T14:48:25Z</time>
      </trkpt>
      <trkpt lat="45.2606" lon="0.55364">
        <ele>170</ele>
        <time>2015-11-03T14:48:29Z</time>
      </trkpt>
      <trkpt lat="45.26062" lon="0.5536">
        <ele>169</ele>
        <time>2015-11-03T14:48:33Z</time>
      </trkpt>
      <trkpt lat="45.26065" lon="0.55355">
        <ele>169</ele>
        <time>2015-11-03T14:48:38Z</time>
      </trkpt>
      <trkpt lat="45.26066" lon="0.55346">
        <ele>168</ele>
        <time>2015-11-03T14:48:43Z</time>
      </trkpt>
      <trkpt lat="45.26069" lon="0.55343">
        <ele>168</ele>
        <time>2015-11-03T14:48:51Z</time>
      </trkpt>
      <trkpt lat="45.26075" lon="0.55338">
        <ele>167</ele>
        <time>2015-11-03T14:48:52Z</time>
      </trkpt>
      <trkpt lat="45.26082" lon="0.5533">
        <ele>167</ele>
        <time>2015-11-03T14:49:00Z</time>
      </trkpt>
      <trkpt lat="45.26086" lon="0.55328">
        <ele>166</ele>
        <time>2015-11-03T14:49:05Z</time>
      </trkpt>
      <trkpt lat="45.2609" lon="0.55325">
        <ele>165</ele>
        <time>2015-11-03T14:49:10Z</time>
      </trkpt>
      <trkpt lat="45.2609" lon="0.55324">
        <ele>166</ele>
        <time>2015-11-03T14:49:19Z</time>
      </trkpt>
      <trkpt lat="45.26097" lon="0.55315">
        <ele>165</ele>
        <time>2015-11-03T14:49:21Z</time>
      </trkpt>
      <trkpt lat="45.261" lon="0.5531">
        <ele>163</ele>
        <time>2015-11-03T14:49:30Z</time>
      </trkpt>
      <trkpt lat="45.26104" lon="0.55308">
        <ele>165</ele>
        <time>2015-11-03T14:49:34Z</time>
      </trkpt>
      <trkpt lat="45.26107" lon="0.55304">
        <ele>165</ele>
        <time>2015-11-03T14:49:41Z</time>
      </trkpt>
      <trkpt lat="45.26108" lon="0.55303">
        <ele>166</ele>
        <time>2015-11-03T14:49:47Z</time>
      </trkpt>
      <trkpt lat="45.26114" lon="0.55294">
        <ele>165</ele>
        <time>2015-11-03T14:50:00Z</time>
      </trkpt>
      <trkpt lat="45.26125" lon="0.55283">
        <ele>164</ele>
        <time>2015-11-03T14:50:05Z</time>
      </trkpt>
      <trkpt lat="45.26129" lon="0.55276">
        <ele>164</ele>
        <time>2015-11-03T14:50:10Z</time>
      </trkpt>
      <trkpt lat="45.26133" lon="0.55274">
        <ele>166</ele>
        <time>2015-11-03T14:50:19Z</time>
      </trkpt>
      <trkpt lat="45.26135" lon="0.5527">
        <ele>168</ele>
        <time>2015-11-03T14:50:23Z</time>
      </trkpt>
      <trkpt lat="45.26137" lon="0.55266">
        <ele>168</ele>
        <time>2015-11-03T14:50:28Z</time>
      </trkpt>
      <trkpt lat="45.26143" lon="0.55259">
        <ele>168</ele>
        <time>2015-11-03T14:50:33Z</time>
      </trkpt>
      <trkpt lat="45.26146" lon="0.55252">
        <ele>170</ele>
        <time>2015-11-03T14:50:37Z</time>
      </trkpt>
      <trkpt lat="45.2615" lon="0.55243">
        <ele>165</ele>
        <time>2015-11-03T14:50:42Z</time>
      </trkpt>
      <trkpt lat="45.26151" lon="0.55237">
        <ele>163</ele>
        <time>2015-11-03T14:50:45Z</time>
      </trkpt>
      <trkpt lat="45.2616" lon="0.55219">
        <ele>164</ele>
        <time>2015-11-03T14:51:00Z</time>
      </trkpt>
      <trkpt lat="45.26163" lon="0.55212">
        <ele>165</ele>
        <time>2015-11-03T14:51:05Z</time>
      </trkpt>
      <trkpt lat="45.26166" lon="0.55206">
        <ele>160</ele>
        <time>2015-11-03T14:51:10Z</time>
      </trkpt>
      <trkpt lat="45.26168" lon="0.552">
        <ele>158</ele>
        <time>2015-11-03T14:51:18Z</time>
      </trkpt>
      <trkpt lat="45.26171" lon="0.55195">
        <ele>161</ele>
        <time>2015-11-03T14:51:22Z</time>
      </trkpt>
      <trkpt lat="45.26176" lon="0.55188">
        <ele>157</ele>
        <time>2015-11-03T14:51:26Z</time>
      </trkpt>
      <trkpt lat="45.26179" lon="0.5518">
        <ele>155</ele>
        <time>2015-11-03T14:51:30Z</time>
      </trkpt>
      <trkpt lat="45.26182" lon="0.55174">
        <ele>159</ele>
        <time>2015-11-03T14:51:35Z</time>
      </trkpt>
      <trkpt lat="45.26185" lon="0.55168">
        <ele>163</ele>
        <time>2015-11-03T14:51:40Z</time>
      </trkpt>
      <trkpt lat="45.26186" lon="0.55167">
        <ele>162</ele>
        <time>2015-11-03T14:52:00Z</time>
      </trkpt>
      <trkpt lat="45.26203" lon="0.5514">
        <ele>162</ele>
        <time>2015-11-03T14:52:05Z</time>
      </trkpt>
      <trkpt lat="45.26205" lon="0.55137">
        <ele>163</ele>
        <time>2015-11-03T14:52:27Z</time>
      </trkpt>
      <trkpt lat="45.26225" lon="0.55123">
        <ele>164</ele>
        <time>2015-11-03T14:52:32Z</time>
      </trkpt>
      <trkpt lat="45.26231" lon="0.55118">
        <ele>165</ele>
        <time>2015-11-03T14:52:37Z</time>
      </trkpt>
      <trkpt lat="45.26237" lon="0.55115">
        <ele>169</ele>
        <time>2015-11-03T14:52:42Z</time>
      </trkpt>
      <trkpt lat="45.2624" lon="0.55113">
        <ele>168</ele>
        <time>2015-11-03T14:52:45Z</time>
      </trkpt>
      <trkpt lat="45.26241" lon="0.55112">
        <ele>167</ele>
        <time>2015-11-03T14:53:00Z</time>
      </trkpt>
      <trkpt lat="45.26258" lon="0.55097">
        <ele>168</ele>
        <time>2015-11-03T14:53:05Z</time>
      </trkpt>
      <trkpt lat="45.26264" lon="0.55088">
        <ele>167</ele>
        <time>2015-11-03T14:53:10Z</time>
      </trkpt>
      <trkpt lat="45.26264" lon="0.55087">
        <ele>167</ele>
        <time>2015-11-03T14:53:11Z</time>
      </trkpt>
      <trkpt lat="45.26269" lon="0.55083">
        <ele>166</ele>
        <time>2015-11-03T14:53:20Z</time>
      </trkpt>
      <trkpt lat="45.26273" lon="0.55075">
        <ele>163</ele>
        <time>2015-11-03T14:53:25Z</time>
      </trkpt>
      <trkpt lat="45.26275" lon="0.55071">
        <ele>162</ele>
        <time>2015-11-03T14:53:30Z</time>
      </trkpt>
      <trkpt lat="45.26279" lon="0.55067">
        <ele>164</ele>
        <time>2015-11-03T14:53:34Z</time>
      </trkpt>
      <trkpt lat="45.26283" lon="0.5506">
        <ele>165</ele>
        <time>2015-11-03T14:53:39Z</time>
      </trkpt>
      <trkpt lat="45.26285" lon="0.55057">
        <ele>165</ele>
        <time>2015-11-03T14:53:41Z</time>
      </trkpt>
      <trkpt lat="45.26288" lon="0.55052">
        <ele>165</ele>
        <time>2015-11-03T14:53:46Z</time>
      </trkpt>
      <trkpt lat="45.26292" lon="0.5505">
        <ele>164</ele>
        <time>2015-11-03T14:53:53Z</time>
      </trkpt>
      <trkpt lat="45.26299" lon="0.55041">
        <ele>161</ele>
        <time>2015-11-03T14:53:57Z</time>
      </trkpt>
      <trkpt lat="45.26303" lon="0.5503">
        <ele>160</ele>
        <time>2015-11-03T14:54:02Z</time>
      </trkpt>
      <trkpt lat="45.26307" lon="0.55024">
        <ele>161</ele>
        <time>2015-11-03T14:54:06Z</time>
      </trkpt>
      <trkpt lat="45.26311" lon="0.55017">
        <ele>162</ele>
        <time>2015-11-03T14:54:11Z</time>
      </trkpt>
      <trkpt lat="45.26313" lon="0.55014">
        <ele>162</ele>
        <time>2015-11-03T14:54:16Z</time>
      </trkpt>
      <trkpt lat="45.26316" lon="0.5501">
        <ele>161</ele>
        <time>2015-11-03T14:54:19Z</time>
      </trkpt>
      <trkpt lat="45.26321" lon="0.55">
        <ele>161</ele>
        <time>2015-11-03T14:54:31Z</time>
      </trkpt>
      <trkpt lat="45.26328" lon="0.54989">
        <ele>162</ele>
        <time>2015-11-03T14:54:36Z</time>
      </trkpt>
      <trkpt lat="45.26331" lon="0.54985">
        <ele>162</ele>
        <time>2015-11-03T14:54:42Z</time>
      </trkpt>
      <trkpt lat="45.26333" lon="0.54976">
        <ele>159</ele>
        <time>2015-11-03T14:54:46Z</time>
      </trkpt>
      <trkpt lat="45.26338" lon="0.54966">
        <ele>159</ele>
        <time>2015-11-03T14:54:51Z</time>
      </trkpt>
      <trkpt lat="45.2634" lon="0.54961">
        <ele>159</ele>
        <time>2015-11-03T14:54:58Z</time>
      </trkpt>
      <trkpt lat="45.26342" lon="0.54956">
        <ele>158</ele>
        <time>2015-11-03T14:55:07Z</time>
      </trkpt>
      <trkpt lat="45.26343" lon="0.5495">
        <ele>155</ele>
        <time>2015-11-03T14:56:34Z</time>
      </trkpt>
      <trkpt lat="45.26347" lon="0.54946">
        <ele>154</ele>
        <time>2015-11-03T14:56:39Z</time>
      </trkpt>
      <trkpt lat="45.26348" lon="0.54945">
        <ele>152</ele>
        <time>2015-11-03T14:56:45Z</time>
      </trkpt>
      <trkpt lat="45.26354" lon="0.54941">
        <ele>156</ele>
        <time>2015-11-03T14:56:57Z</time>
      </trkpt>
      <trkpt lat="45.2636" lon="0.54936">
        <ele>159</ele>
        <time>2015-11-03T14:57:02Z</time>
      </trkpt>
      <trkpt lat="45.26363" lon="0.54933">
        <ele>158</ele>
        <time>2015-11-03T14:57:10Z</time>
      </trkpt>
      <trkpt lat="45.26366" lon="0.54927">
        <ele>157</ele>
        <time>2015-11-03T14:57:14Z</time>
      </trkpt>
      <trkpt lat="45.2637" lon="0.54923">
        <ele>156</ele>
        <time>2015-11-03T14:57:19Z</time>
      </trkpt>
      <trkpt lat="45.26372" lon="0.5492">
        <ele>158</ele>
        <time>2015-11-03T14:57:40Z</time>
      </trkpt>
      <trkpt lat="45.2639" lon="0.54901">
        <ele>157</ele>
        <time>2015-11-03T14:57:45Z</time>
      </trkpt>
      <trkpt lat="45.26394" lon="0.54895">
        <ele>157</ele>
        <time>2015-11-03T14:57:50Z</time>
      </trkpt>
      <trkpt lat="45.26398" lon="0.54887">
        <ele>154</ele>
        <time>2015-11-03T14:57:55Z</time>
      </trkpt>
      <trkpt lat="45.26402" lon="0.54886">
        <ele>156</ele>
        <time>2015-11-03T14:58:01Z</time>
      </trkpt>
      <trkpt lat="45.26406" lon="0.54882">
        <ele>154</ele>
        <time>2015-11-03T14:58:05Z</time>
      </trkpt>
      <trkpt lat="45.26409" lon="0.54883">
        <ele>154</ele>
        <time>2015-11-03T14:58:11Z</time>
      </trkpt>
      <trkpt lat="45.26423" lon="0.54896">
        <ele>161</ele>
        <time>2015-11-03T14:58:39Z</time>
      </trkpt>
      <trkpt lat="45.26437" lon="0.54898">
        <ele>159</ele>
        <time>2015-11-03T14:58:44Z</time>
      </trkpt>
      <trkpt lat="45.26438" lon="0.54899">
        <ele>160</ele>
        <time>2015-11-03T14:58:45Z</time>
      </trkpt>
      <trkpt lat="45.26444" lon="0.54897">
        <ele>159</ele>
        <time>2015-11-03T14:59:00Z</time>
      </trkpt>
      <trkpt lat="45.26463" lon="0.54903">
        <ele>157</ele>
        <time>2015-11-03T14:59:05Z</time>
      </trkpt>
      <trkpt lat="45.26469" lon="0.54902">
        <ele>157</ele>
        <time>2015-11-03T14:59:10Z</time>
      </trkpt>
      <trkpt lat="45.26474" lon="0.54904">
        <ele>158</ele>
        <time>2015-11-03T14:59:14Z</time>
      </trkpt>
      <trkpt lat="45.26478" lon="0.54902">
        <ele>157</ele>
        <time>2015-11-03T14:59:18Z</time>
      </trkpt>
      <trkpt lat="45.26482" lon="0.549">
        <ele>155</ele>
        <time>2015-11-03T14:59:22Z</time>
      </trkpt>
      <trkpt lat="45.26488" lon="0.54898">
        <ele>154</ele>
        <time>2015-11-03T14:59:27Z</time>
      </trkpt>
      <trkpt lat="45.26493" lon="0.54899">
        <ele>153</ele>
        <time>2015-11-03T14:59:32Z</time>
      </trkpt>
      <trkpt lat="45.26498" lon="0.54898">
        <ele>151</ele>
        <time>2015-11-03T14:59:36Z</time>
      </trkpt>
      <trkpt lat="45.26502" lon="0.54898">
        <ele>152</ele>
        <time>2015-11-03T14:59:41Z</time>
      </trkpt>
      <trkpt lat="45.26518" lon="0.54899">
        <ele>149</ele>
        <time>2015-11-03T14:59:57Z</time>
      </trkpt>
      <trkpt lat="45.26523" lon="0.54896">
        <ele>149</ele>
        <time>2015-11-03T15:00:01Z</time>
      </trkpt>
      <trkpt lat="45.26525" lon="0.54897">
        <ele>149</ele>
        <time>2015-11-03T15:00:06Z</time>
      </trkpt>
      <trkpt lat="45.26534" lon="0.54895">
        <ele>147</ele>
        <time>2015-11-03T15:00:11Z</time>
      </trkpt>
      <trkpt lat="45.26538" lon="0.54895">
        <ele>148</ele>
        <time>2015-11-03T15:00:16Z</time>
      </trkpt>
      <trkpt lat="45.26542" lon="0.54894">
        <ele>147</ele>
        <time>2015-11-03T15:00:20Z</time>
      </trkpt>
      <trkpt lat="45.26545" lon="0.54895">
        <ele>149</ele>
        <time>2015-11-03T15:00:24Z</time>
      </trkpt>
      <trkpt lat="45.2655" lon="0.54894">
        <ele>147</ele>
        <time>2015-11-03T15:00:28Z</time>
      </trkpt>
      <trkpt lat="45.26555" lon="0.54889">
        <ele>146</ele>
        <time>2015-11-03T15:00:32Z</time>
      </trkpt>
      <trkpt lat="45.2656" lon="0.54891">
        <ele>145</ele>
        <time>2015-11-03T15:00:36Z</time>
      </trkpt>
      <trkpt lat="45.26564" lon="0.54891">
        <ele>144</ele>
        <time>2015-11-03T15:00:42Z</time>
      </trkpt>
      <trkpt lat="45.26568" lon="0.54893">
        <ele>145</ele>
        <time>2015-11-03T15:00:45Z</time>
      </trkpt>
      <trkpt lat="45.2657" lon="0.5489">
        <ele>144</ele>
        <time>2015-11-03T15:00:58Z</time>
      </trkpt>
      <trkpt lat="45.26592" lon="0.54875">
        <ele>143</ele>
        <time>2015-11-03T15:01:03Z</time>
      </trkpt>
      <trkpt lat="45.26597" lon="0.54872">
        <ele>143</ele>
        <time>2015-11-03T15:01:07Z</time>
      </trkpt>
      <trkpt lat="45.26602" lon="0.54868">
        <ele>142</ele>
        <time>2015-11-03T15:01:11Z</time>
      </trkpt>
      <trkpt lat="45.26603" lon="0.54868">
        <ele>141</ele>
        <time>2015-11-03T15:01:35Z</time>
      </trkpt>
      <trkpt lat="45.26633" lon="0.54861">
        <ele>138</ele>
        <time>2015-11-03T15:01:40Z</time>
      </trkpt>
      <trkpt lat="45.26636" lon="0.54858">
        <ele>137</ele>
        <time>2015-11-03T15:01:43Z</time>
      </trkpt>
      <trkpt lat="45.26641" lon="0.5486">
        <ele>136</ele>
        <time>2015-11-03T15:01:48Z</time>
      </trkpt>
      <trkpt lat="45.26645" lon="0.5486">
        <ele>133</ele>
        <time>2015-11-03T15:01:57Z</time>
      </trkpt>
      <trkpt lat="45.26651" lon="0.54859">
        <ele>133</ele>
        <time>2015-11-03T15:02:01Z</time>
      </trkpt>
      <trkpt lat="45.26656" lon="0.54858">
        <ele>130</ele>
        <time>2015-11-03T15:02:05Z</time>
      </trkpt>
      <trkpt lat="45.26663" lon="0.54858">
        <ele>129</ele>
        <time>2015-11-03T15:02:10Z</time>
      </trkpt>
      <trkpt lat="45.26666" lon="0.5486">
        <ele>128</ele>
        <time>2015-11-03T15:02:14Z</time>
      </trkpt>
      <trkpt lat="45.26672" lon="0.54865">
        <ele>127</ele>
        <time>2015-11-03T15:02:19Z</time>
      </trkpt>
      <trkpt lat="45.26678" lon="0.54869">
        <ele>126</ele>
        <time>2015-11-03T15:02:24Z</time>
      </trkpt>
      <trkpt lat="45.26683" lon="0.54869">
        <ele>126</ele>
        <time>2015-11-03T15:02:28Z</time>
      </trkpt>
      <trkpt lat="45.26688" lon="0.54871">
        <ele>124</ele>
        <time>2015-11-03T15:02:33Z</time>
      </trkpt>
      <trkpt lat="45.26692" lon="0.54873">
        <ele>124</ele>
        <time>2015-11-03T15:02:37Z</time>
      </trkpt>
      <trkpt lat="45.26697" lon="0.54872">
        <ele>129</ele>
        <time>2015-11-03T15:02:42Z</time>
      </trkpt>
      <trkpt lat="45.267" lon="0.54873">
        <ele>128</ele>
        <time>2015-11-03T15:02:45Z</time>
      </trkpt>
      <trkpt lat="45.26702" lon="0.54874">
        <ele>127</ele>
        <time>2015-11-03T15:03:00Z</time>
      </trkpt>
      <trkpt lat="45.26717" lon="0.54886">
        <ele>122</ele>
        <time>2015-11-03T15:03:05Z</time>
      </trkpt>
      <trkpt lat="45.26722" lon="0.5489">
        <ele>121</ele>
        <time>2015-11-03T15:03:10Z</time>
      </trkpt>
      <trkpt lat="45.26725" lon="0.54889">
        <ele>121</ele>
        <time>2015-11-03T15:03:15Z</time>
      </trkpt>
      <trkpt lat="45.26729" lon="0.54889">
        <ele>120</ele>
        <time>2015-11-03T15:03:20Z</time>
      </trkpt>
      <trkpt lat="45.26732" lon="0.54893">
        <ele>118</ele>
        <time>2015-11-03T15:03:24Z</time>
      </trkpt>
      <trkpt lat="45.26735" lon="0.54897">
        <ele>120</ele>
        <time>2015-11-03T15:03:29Z</time>
      </trkpt>
      <trkpt lat="45.2674" lon="0.54901">
        <ele>120</ele>
        <time>2015-11-03T15:03:34Z</time>
      </trkpt>
      <trkpt lat="45.26744" lon="0.54905">
        <ele>120</ele>
        <time>2015-11-03T15:03:39Z</time>
      </trkpt>
      <trkpt lat="45.26746" lon="0.54907">
        <ele>121</ele>
        <time>2015-11-03T15:03:41Z</time>
      </trkpt>
      <trkpt lat="45.26752" lon="0.54913">
        <ele>121</ele>
        <time>2015-11-03T15:03:52Z</time>
      </trkpt>
      <trkpt lat="45.26757" lon="0.54914">
        <ele>117</ele>
        <time>2015-11-03T15:03:53Z</time>
      </trkpt>
      <trkpt lat="45.26757" lon="0.54915">
        <ele>117</ele>
        <time>2015-11-03T15:03:59Z</time>
      </trkpt>
      <trkpt lat="45.26766" lon="0.54921">
        <ele>114</ele>
        <time>2015-11-03T15:04:03Z</time>
      </trkpt>
      <trkpt lat="45.26771" lon="0.54927">
        <ele>115</ele>
        <time>2015-11-03T15:04:07Z</time>
      </trkpt>
      <trkpt lat="45.26773" lon="0.54931">
        <ele>117</ele>
        <time>2015-11-03T15:04:11Z</time>
      </trkpt>
      <trkpt lat="45.268" lon="0.54957">
        <ele>111</ele>
        <time>2015-11-03T15:04:39Z</time>
      </trkpt>
      <trkpt lat="45.26803" lon="0.54962">
        <ele>111</ele>
        <time>2015-11-03T15:04:44Z</time>
      </trkpt>
      <trkpt lat="45.26805" lon="0.54963">
        <ele>110</ele>
        <time>2015-11-03T15:04:55Z</time>
      </trkpt>
      <trkpt lat="45.26821" lon="0.54976">
        <ele>107</ele>
        <time>2015-11-03T15:05:00Z</time>
      </trkpt>
      <trkpt lat="45.26828" lon="0.54979">
        <ele>104</ele>
        <time>2015-11-03T15:05:05Z</time>
      </trkpt>
      <trkpt lat="45.26833" lon="0.54981">
        <ele>104</ele>
        <time>2015-11-03T15:05:10Z</time>
      </trkpt>
      <trkpt lat="45.26839" lon="0.54983">
        <ele>101</ele>
        <time>2015-11-03T15:05:14Z</time>
      </trkpt>
      <trkpt lat="45.26842" lon="0.54986">
        <ele>103</ele>
        <time>2015-11-03T15:05:19Z</time>
      </trkpt>
      <trkpt lat="45.26848" lon="0.54989">
        <ele>102</ele>
        <time>2015-11-03T15:05:24Z</time>
      </trkpt>
      <trkpt lat="45.26853" lon="0.54986">
        <ele>102</ele>
        <time>2015-11-03T15:05:28Z</time>
      </trkpt>
      <trkpt lat="45.26856" lon="0.54985">
        <ele>101</ele>
        <time>2015-11-03T15:05:31Z</time>
      </trkpt>
      <trkpt lat="45.2686" lon="0.54983">
        <ele>101</ele>
        <time>2015-11-03T15:05:34Z</time>
      </trkpt>
      <trkpt lat="45.26866" lon="0.54979">
        <ele>102</ele>
        <time>2015-11-03T15:05:39Z</time>
      </trkpt>
      <trkpt lat="45.26871" lon="0.54976">
        <ele>100</ele>
        <time>2015-11-03T15:05:43Z</time>
      </trkpt>
      <trkpt lat="45.26876" lon="0.54974">
        <ele>103</ele>
        <time>2015-11-03T15:05:48Z</time>
      </trkpt>
      <trkpt lat="45.2688" lon="0.54975">
        <ele>101</ele>
        <time>2015-11-03T15:05:52Z</time>
      </trkpt>
      <trkpt lat="45.26883" lon="0.5497">
        <ele>103</ele>
        <time>2015-11-03T15:05:56Z</time>
      </trkpt>
      <trkpt lat="45.26887" lon="0.54965">
        <ele>101</ele>
        <time>2015-11-03T15:06:01Z</time>
      </trkpt>
      <trkpt lat="45.26892" lon="0.54963">
        <ele>101</ele>
        <time>2015-11-03T15:06:05Z</time>
      </trkpt>
      <trkpt lat="45.26896" lon="0.5496">
        <ele>103</ele>
        <time>2015-11-03T15:06:10Z</time>
      </trkpt>
      <trkpt lat="45.26899" lon="0.54955">
        <ele>103</ele>
        <time>2015-11-03T15:06:14Z</time>
      </trkpt>
      <trkpt lat="45.26902" lon="0.54952">
        <ele>103</ele>
        <time>2015-11-03T15:06:18Z</time>
      </trkpt>
      <trkpt lat="45.26905" lon="0.54948">
        <ele>100</ele>
        <time>2015-11-03T15:06:28Z</time>
      </trkpt>
      <trkpt lat="45.26916" lon="0.54939">
        <ele>99</ele>
        <time>2015-11-03T15:06:39Z</time>
      </trkpt>
      <trkpt lat="45.26919" lon="0.54935">
        <ele>97</ele>
        <time>2015-11-03T15:06:44Z</time>
      </trkpt>
      <trkpt lat="45.26921" lon="0.54929">
        <ele>93</ele>
        <time>2015-11-03T15:06:49Z</time>
      </trkpt>
      <trkpt lat="45.26927" lon="0.54928">
        <ele>92</ele>
        <time>2015-11-03T15:06:53Z</time>
      </trkpt>
      <trkpt lat="45.26932" lon="0.54921">
        <ele>91</ele>
        <time>2015-11-03T15:06:58Z</time>
      </trkpt>
      <trkpt lat="45.26937" lon="0.54915">
        <ele>90</ele>
        <time>2015-11-03T15:07:03Z</time>
      </trkpt>
      <trkpt lat="45.26939" lon="0.54909">
        <ele>88</ele>
        <time>2015-11-03T15:07:07Z</time>
      </trkpt>
      <trkpt lat="45.26943" lon="0.54907">
        <ele>90</ele>
        <time>2015-11-03T15:07:11Z</time>
      </trkpt>
      <trkpt lat="45.26947" lon="0.54903">
        <ele>89</ele>
        <time>2015-11-03T15:07:15Z</time>
      </trkpt>
      <trkpt lat="45.2695" lon="0.54896">
        <ele>88</ele>
        <time>2015-11-03T15:07:20Z</time>
      </trkpt>
      <trkpt lat="45.26953" lon="0.54892">
        <ele>87</ele>
        <time>2015-11-03T15:07:24Z</time>
      </trkpt>
      <trkpt lat="45.26956" lon="0.5489">
        <ele>87</ele>
        <time>2015-11-03T15:07:31Z</time>
      </trkpt>
      <trkpt lat="45.26962" lon="0.54881">
        <ele>85</ele>
        <time>2015-11-03T15:07:35Z</time>
      </trkpt>
      <trkpt lat="45.26967" lon="0.54873">
        <ele>84</ele>
        <time>2015-11-03T15:07:40Z</time>
      </trkpt>
      <trkpt lat="45.26969" lon="0.54872">
        <ele>83</ele>
        <time>2015-11-03T15:07:41Z</time>
      </trkpt>
      <trkpt lat="45.26987" lon="0.54859">
        <ele>79</ele>
        <time>2015-11-03T15:08:00Z</time>
      </trkpt>
      <trkpt lat="45.26991" lon="0.54857">
        <ele>81</ele>
        <time>2015-11-03T15:08:04Z</time>
      </trkpt>
      <trkpt lat="45.26998" lon="0.54854">
        <ele>80</ele>
        <time>2015-11-03T15:08:08Z</time>
      </trkpt>
      <trkpt lat="45.27001" lon="0.54851">
        <ele>81</ele>
        <time>2015-11-03T15:08:12Z</time>
      </trkpt>
      <trkpt lat="45.27007" lon="0.54851">
        <ele>81</ele>
        <time>2015-11-03T15:08:16Z</time>
      </trkpt>
      <trkpt lat="45.27011" lon="0.54853">
        <ele>81</ele>
        <time>2015-11-03T15:08:22Z</time>
      </trkpt>
      <trkpt lat="45.27015" lon="0.54855">
        <ele>79</ele>
        <time>2015-11-03T15:08:26Z</time>
      </trkpt>
      <trkpt lat="45.27019" lon="0.54861">
        <ele>78</ele>
        <time>2015-11-03T15:08:30Z</time>
      </trkpt>
      <trkpt lat="45.27023" lon="0.54867">
        <ele>79</ele>
        <time>2015-11-03T15:08:35Z</time>
      </trkpt>
      <trkpt lat="45.27027" lon="0.54873">
        <ele>78</ele>
        <time>2015-11-03T15:08:40Z</time>
      </trkpt>
      <trkpt lat="45.27028" lon="0.54878">
        <ele>79</ele>
        <time>2015-11-03T15:08:43Z</time>
      </trkpt>
      <trkpt lat="45.27028" lon="0.54884">
        <ele>78</ele>
        <time>2015-11-03T15:08:46Z</time>
      </trkpt>
      <trkpt lat="45.27026" lon="0.54892">
        <ele>80</ele>
        <time>2015-11-03T15:08:51Z</time>
      </trkpt>
      <trkpt lat="45.27025" lon="0.54901">
        <ele>78</ele>
        <time>2015-11-03T15:08:56Z</time>
      </trkpt>
      <trkpt lat="45.27022" lon="0.54908">
        <ele>79</ele>
        <time>2015-11-03T15:09:01Z</time>
      </trkpt>
      <trkpt lat="45.27021" lon="0.54915">
        <ele>80</ele>
        <time>2015-11-03T15:09:05Z</time>
      </trkpt>
      <trkpt lat="45.27018" lon="0.54921">
        <ele>78</ele>
        <time>2015-11-03T15:09:10Z</time>
      </trkpt>
      <trkpt lat="45.27016" lon="0.54927">
        <ele>80</ele>
        <time>2015-11-03T15:09:14Z</time>
      </trkpt>
      <trkpt lat="45.27014" lon="0.54934">
        <ele>80</ele>
        <time>2015-11-03T15:09:18Z</time>
      </trkpt>
      <trkpt lat="45.27011" lon="0.54939">
        <ele>79</ele>
        <time>2015-11-03T15:09:23Z</time>
      </trkpt>
      <trkpt lat="45.2701" lon="0.54946">
        <ele>81</ele>
        <time>2015-11-03T15:09:27Z</time>
      </trkpt>
      <trkpt lat="45.27008" lon="0.54952">
        <ele>81</ele>
        <time>2015-11-03T15:09:31Z</time>
      </trkpt>
      <trkpt lat="45.27005" lon="0.54958">
        <ele>81</ele>
        <time>2015-11-03T15:09:35Z</time>
      </trkpt>
      <trkpt lat="45.27003" lon="0.54965">
        <ele>81</ele>
        <time>2015-11-03T15:09:39Z</time>
      </trkpt>
      <trkpt lat="45.27001" lon="0.5497">
        <ele>82</ele>
        <time>2015-11-03T15:09:43Z</time>
      </trkpt>
      <trkpt lat="45.26999" lon="0.54975">
        <ele>82</ele>
        <time>2015-11-03T15:09:48Z</time>
      </trkpt>
      <trkpt lat="45.26997" lon="0.54981">
        <ele>83</ele>
        <time>2015-11-03T15:09:50Z</time>
      </trkpt>
      <trkpt lat="45.26995" lon="0.54989">
        <ele>84</ele>
        <time>2015-11-03T15:09:55Z</time>
      </trkpt>
      <trkpt lat="45.26993" lon="0.54994">
        <ele>83</ele>
        <time>2015-11-03T15:10:01Z</time>
      </trkpt>
      <trkpt lat="45.26992" lon="0.54995">
        <ele>83</ele>
        <time>2015-11-03T15:10:10Z</time>
      </trkpt>
      <trkpt lat="45.26987" lon="0.55008">
        <ele>84</ele>
        <time>2015-11-03T15:10:12Z</time>
      </trkpt>
      <trkpt lat="45.26987" lon="0.5501">
        <ele>83</ele>
        <time>2015-11-03T15:10:31Z</time>
      </trkpt>
      <trkpt lat="45.26984" lon="0.55042">
        <ele>84</ele>
        <time>2015-11-03T15:10:36Z</time>
      </trkpt>
      <trkpt lat="45.26985" lon="0.55048">
        <ele>85</ele>
        <time>2015-11-03T15:10:41Z</time>
      </trkpt>
      <trkpt lat="45.26984" lon="0.55054">
        <ele>87</ele>
        <time>2015-11-03T15:10:46Z</time>
      </trkpt>
      <trkpt lat="45.26984" lon="0.55055">
        <ele>87</ele>
        <time>2015-11-03T15:10:58Z</time>
      </trkpt>
      <trkpt lat="45.26983" lon="0.55071">
        <ele>93</ele>
        <time>2015-11-03T15:11:03Z</time>
      </trkpt>
      <trkpt lat="45.26982" lon="0.55077">
        <ele>93</ele>
        <time>2015-11-03T15:11:09Z</time>
      </trkpt>
      <trkpt lat="45.26982" lon="0.55081">
        <ele>94</ele>
        <time>2015-11-03T15:11:19Z</time>
      </trkpt>
      <trkpt lat="45.26983" lon="0.55091">
        <ele>95</ele>
        <time>2015-11-03T15:11:21Z</time>
      </trkpt>
      <trkpt lat="45.26981" lon="0.55096">
        <ele>95</ele>
        <time>2015-11-03T15:11:30Z</time>
      </trkpt>
      <trkpt lat="45.26982" lon="0.55105">
        <ele>92</ele>
        <time>2015-11-03T15:11:35Z</time>
      </trkpt>
      <trkpt lat="45.2698" lon="0.5511">
        <ele>97</ele>
        <time>2015-11-03T15:11:42Z</time>
      </trkpt>
      <trkpt lat="45.26979" lon="0.55113">
        <ele>98</ele>
        <time>2015-11-03T15:11:44Z</time>
      </trkpt>
      <trkpt lat="45.26979" lon="0.55118">
        <ele>101</ele>
        <time>2015-11-03T15:11:52Z</time>
      </trkpt>
      <trkpt lat="45.26978" lon="0.55125">
        <ele>101</ele>
        <time>2015-11-03T15:11:56Z</time>
      </trkpt>
      <trkpt lat="45.26977" lon="0.55134">
        <ele>97</ele>
        <time>2015-11-03T15:12:00Z</time>
      </trkpt>
      <trkpt lat="45.26975" lon="0.5514">
        <ele>97</ele>
        <time>2015-11-03T15:12:04Z</time>
      </trkpt>
      <trkpt lat="45.26975" lon="0.55146">
        <ele>94</ele>
        <time>2015-11-03T15:12:08Z</time>
      </trkpt>
      <trkpt lat="45.26974" lon="0.55154">
        <ele>95</ele>
        <time>2015-11-03T15:12:13Z</time>
      </trkpt>
      <trkpt lat="45.26974" lon="0.55162">
        <ele>96</ele>
        <time>2015-11-03T15:12:17Z</time>
      </trkpt>
      <trkpt lat="45.26974" lon="0.55167">
        <ele>92</ele>
        <time>2015-11-03T15:12:25Z</time>
      </trkpt>
      <trkpt lat="45.26975" lon="0.55176">
        <ele>91</ele>
        <time>2015-11-03T15:12:29Z</time>
      </trkpt>
      <trkpt lat="45.26974" lon="0.55182">
        <ele>91</ele>
        <time>2015-11-03T15:12:36Z</time>
      </trkpt>
      <trkpt lat="45.26972" lon="0.55193">
        <ele>91</ele>
        <time>2015-11-03T15:12:41Z</time>
      </trkpt>
      <trkpt lat="45.26971" lon="0.55197">
        <ele>94</ele>
        <time>2015-11-03T15:12:46Z</time>
      </trkpt>
      <trkpt lat="45.2697" lon="0.552">
        <ele>96</ele>
        <time>2015-11-03T15:13:00Z</time>
      </trkpt>
      <trkpt lat="45.26969" lon="0.55224">
        <ele>96</ele>
        <time>2015-11-03T15:13:05Z</time>
      </trkpt>
      <trkpt lat="45.26971" lon="0.55234">
        <ele>97</ele>
        <time>2015-11-03T15:13:10Z</time>
      </trkpt>
      <trkpt lat="45.26971" lon="0.55238">
        <ele>96</ele>
        <time>2015-11-03T15:13:26Z</time>
      </trkpt>
      <trkpt lat="45.26969" lon="0.55257">
        <ele>96</ele>
        <time>2015-11-03T15:13:31Z</time>
      </trkpt>
      <trkpt lat="45.26969" lon="0.55263">
        <ele>99</ele>
        <time>2015-11-03T15:13:35Z</time>
      </trkpt>
      <trkpt lat="45.2697" lon="0.5527">
        <ele>100</ele>
        <time>2015-11-03T15:13:42Z</time>
      </trkpt>
      <trkpt lat="45.2697" lon="0.5527">
        <ele>100</ele>
        <time>2015-11-03T15:14:00Z</time>
      </trkpt>
      <trkpt lat="45.26973" lon="0.55296">
        <ele>105</ele>
        <time>2015-11-03T15:14:05Z</time>
      </trkpt>
      <trkpt lat="45.26973" lon="0.55302">
        <ele>102</ele>
        <time>2015-11-03T15:14:12Z</time>
      </trkpt>
      <trkpt lat="45.26973" lon="0.55307">
        <ele>103</ele>
        <time>2015-11-03T15:14:17Z</time>
      </trkpt>
      <trkpt lat="45.26973" lon="0.55313">
        <ele>105</ele>
        <time>2015-11-03T15:14:26Z</time>
      </trkpt>
      <trkpt lat="45.26973" lon="0.55319">
        <ele>108</ele>
        <time>2015-11-03T15:14:32Z</time>
      </trkpt>
      <trkpt lat="45.26974" lon="0.55324">
        <ele>109</ele>
        <time>2015-11-03T15:14:38Z</time>
      </trkpt>
      <trkpt lat="45.26972" lon="0.5533">
        <ele>110</ele>
        <time>2015-11-03T15:14:45Z</time>
      </trkpt>
      <trkpt lat="45.26972" lon="0.55332">
        <ele>111</ele>
        <time>2015-11-03T15:15:00Z</time>
      </trkpt>
      <trkpt lat="45.26975" lon="0.5535">
        <ele>111</ele>
        <time>2015-11-03T15:15:05Z</time>
      </trkpt>
      <trkpt lat="45.26974" lon="0.55355">
        <ele>111</ele>
        <time>2015-11-03T15:15:10Z</time>
      </trkpt>
      <trkpt lat="45.26974" lon="0.55363">
        <ele>109</ele>
        <time>2015-11-03T15:15:15Z</time>
      </trkpt>
      <trkpt lat="45.26974" lon="0.55368">
        <ele>110</ele>
        <time>2015-11-03T15:15:19Z</time>
      </trkpt>
      <trkpt lat="45.26974" lon="0.55374">
        <ele>111</ele>
        <time>2015-11-03T15:15:24Z</time>
      </trkpt>
      <trkpt lat="45.26974" lon="0.55379">
        <ele>113</ele>
        <time>2015-11-03T15:15:33Z</time>
      </trkpt>
      <trkpt lat="45.26976" lon="0.55386">
        <ele>115</ele>
        <time>2015-11-03T15:15:38Z</time>
      </trkpt>
      <trkpt lat="45.26974" lon="0.55387">
        <ele>117</ele>
        <time>2015-11-03T15:15:56Z</time>
      </trkpt>
      <trkpt lat="45.26977" lon="0.55407">
        <ele>123</ele>
        <time>2015-11-03T15:16:01Z</time>
      </trkpt>
      <trkpt lat="45.26978" lon="0.55412">
        <ele>121</ele>
        <time>2015-11-03T15:16:06Z</time>
      </trkpt>
      <trkpt lat="45.26981" lon="0.55417">
        <ele>121</ele>
        <time>2015-11-03T15:16:11Z</time>
      </trkpt>
      <trkpt lat="45.26979" lon="0.55422">
        <ele>124</ele>
        <time>2015-11-03T15:16:37Z</time>
      </trkpt>
      <trkpt lat="45.26981" lon="0.55464">
        <ele>129</ele>
        <time>2015-11-03T15:16:42Z</time>
      </trkpt>
      <trkpt lat="45.26981" lon="0.5547">
        <ele>130</ele>
        <time>2015-11-03T15:16:46Z</time>
      </trkpt>
      <trkpt lat="45.2698" lon="0.55492">
        <ele>135</ele>
        <time>2015-11-03T15:17:00Z</time>
      </trkpt>
      <trkpt lat="45.26984" lon="0.55491">
        <ele>135</ele>
        <time>2015-11-03T15:17:07Z</time>
      </trkpt>
      <trkpt lat="45.26987" lon="0.55495">
        <ele>135</ele>
        <time>2015-11-03T15:17:31Z</time>
      </trkpt>
      <trkpt lat="45.26986" lon="0.55501">
        <ele>135</ele>
        <time>2015-11-03T15:18:31Z</time>
      </trkpt>
      <trkpt lat="45.26985" lon="0.55506">
        <ele>135</ele>
        <time>2015-11-03T15:18:39Z</time>
      </trkpt>
      <trkpt lat="45.26984" lon="0.55511">
        <ele>136</ele>
        <time>2015-11-03T15:19:00Z</time>
      </trkpt>
      <trkpt lat="45.26984" lon="0.5553">
        <ele>140</ele>
        <time>2015-11-03T15:19:05Z</time>
      </trkpt>
      <trkpt lat="45.26984" lon="0.55535">
        <ele>140</ele>
        <time>2015-11-03T15:19:10Z</time>
      </trkpt>
      <trkpt lat="45.26984" lon="0.55541">
        <ele>140</ele>
        <time>2015-11-03T15:19:14Z</time>
      </trkpt>
      <trkpt lat="45.26982" lon="0.55547">
        <ele>139</ele>
        <time>2015-11-03T15:19:18Z</time>
      </trkpt>
      <trkpt lat="45.26982" lon="0.55554">
        <ele>138</ele>
        <time>2015-11-03T15:19:22Z</time>
      </trkpt>
      <trkpt lat="45.26981" lon="0.55562">
        <ele>139</ele>
        <time>2015-11-03T15:19:27Z</time>
      </trkpt>
      <trkpt lat="45.26981" lon="0.55568">
        <ele>139</ele>
        <time>2015-11-03T15:19:31Z</time>
      </trkpt>
      <trkpt lat="45.26979" lon="0.55576">
        <ele>137</ele>
        <time>2015-11-03T15:19:36Z</time>
      </trkpt>
      <trkpt lat="45.26978" lon="0.55582">
        <ele>138</ele>
        <time>2015-11-03T15:19:51Z</time>
      </trkpt>
      <trkpt lat="45.2698" lon="0.55589">
        <ele>139</ele>
        <time>2015-11-03T15:19:56Z</time>
      </trkpt>
      <trkpt lat="45.26985" lon="0.55592">
        <ele>141</ele>
        <time>2015-11-03T15:20:01Z</time>
      </trkpt>
      <trkpt lat="45.26989" lon="0.55589">
        <ele>139</ele>
        <time>2015-11-03T15:20:05Z</time>
      </trkpt>
      <trkpt lat="45.26991" lon="0.55584">
        <ele>142</ele>
        <time>2015-11-03T15:20:12Z</time>
      </trkpt>
      <trkpt lat="45.26993" lon="0.55579">
        <ele>140</ele>
        <time>2015-11-03T15:20:18Z</time>
      </trkpt>
      <trkpt lat="45.26996" lon="0.55572">
        <ele>142</ele>
        <time>2015-11-03T15:20:22Z</time>
      </trkpt>
      <trkpt lat="45.26999" lon="0.55567">
        <ele>143</ele>
        <time>2015-11-03T15:20:27Z</time>
      </trkpt>
      <trkpt lat="45.27002" lon="0.55562">
        <ele>144</ele>
        <time>2015-11-03T15:20:32Z</time>
      </trkpt>
      <trkpt lat="45.27005" lon="0.55558">
        <ele>145</ele>
        <time>2015-11-03T15:20:37Z</time>
      </trkpt>
      <trkpt lat="45.27007" lon="0.55552">
        <ele>148</ele>
        <time>2015-11-03T15:20:42Z</time>
      </trkpt>
      <trkpt lat="45.27009" lon="0.55548">
        <ele>148</ele>
        <time>2015-11-03T15:20:46Z</time>
      </trkpt>
      <trkpt lat="45.27018" lon="0.55533">
        <ele>151</ele>
        <time>2015-11-03T15:21:02Z</time>
      </trkpt>
      <trkpt lat="45.27023" lon="0.55528">
        <ele>150</ele>
        <time>2015-11-03T15:21:07Z</time>
      </trkpt>
      <trkpt lat="45.27025" lon="0.55524">
        <ele>151</ele>
        <time>2015-11-03T15:21:12Z</time>
      </trkpt>
      <trkpt lat="45.27038" lon="0.55496">
        <ele>150</ele>
        <time>2015-11-03T15:21:32Z</time>
      </trkpt>
      <trkpt lat="45.27042" lon="0.55489">
        <ele>152</ele>
        <time>2015-11-03T15:21:37Z</time>
      </trkpt>
      <trkpt lat="45.27045" lon="0.55483">
        <ele>152</ele>
        <time>2015-11-03T15:21:42Z</time>
      </trkpt>
      <trkpt lat="45.27047" lon="0.55477">
        <ele>154</ele>
        <time>2015-11-03T15:21:46Z</time>
      </trkpt>
      <trkpt lat="45.2705" lon="0.5547">
        <ele>154</ele>
        <time>2015-11-03T15:21:51Z</time>
      </trkpt>
      <trkpt lat="45.27051" lon="0.55464">
        <ele>153</ele>
        <time>2015-11-03T15:21:56Z</time>
      </trkpt>
      <trkpt lat="45.27054" lon="0.55457">
        <ele>152</ele>
        <time>2015-11-03T15:22:00Z</time>
      </trkpt>
      <trkpt lat="45.27058" lon="0.55455">
        <ele>153</ele>
        <time>2015-11-03T15:22:04Z</time>
      </trkpt>
      <trkpt lat="45.27062" lon="0.55459">
        <ele>154</ele>
        <time>2015-11-03T15:22:09Z</time>
      </trkpt>
      <trkpt lat="45.27065" lon="0.55464">
        <ele>154</ele>
        <time>2015-11-03T15:22:17Z</time>
      </trkpt>
      <trkpt lat="45.27067" lon="0.55469">
        <ele>156</ele>
        <time>2015-11-03T15:22:21Z</time>
      </trkpt>
      <trkpt lat="45.27069" lon="0.55474">
        <ele>156</ele>
        <time>2015-11-03T15:22:26Z</time>
      </trkpt>
      <trkpt lat="45.27072" lon="0.55478">
        <ele>155</ele>
        <time>2015-11-03T15:22:31Z</time>
      </trkpt>
      <trkpt lat="45.27074" lon="0.55484">
        <ele>157</ele>
        <time>2015-11-03T15:22:35Z</time>
      </trkpt>
      <trkpt lat="45.27078" lon="0.55488">
        <ele>158</ele>
        <time>2015-11-03T15:22:40Z</time>
      </trkpt>
      <trkpt lat="45.27081" lon="0.55492">
        <ele>158</ele>
        <time>2015-11-03T15:22:44Z</time>
      </trkpt>
      <trkpt lat="45.27083" lon="0.55495">
        <ele>157</ele>
        <time>2015-11-03T15:22:46Z</time>
      </trkpt>
      <trkpt lat="45.27087" lon="0.55502">
        <ele>157</ele>
        <time>2015-11-03T15:22:53Z</time>
      </trkpt>
      <trkpt lat="45.27092" lon="0.55513">
        <ele>158</ele>
        <time>2015-11-03T15:22:58Z</time>
      </trkpt>
      <trkpt lat="45.27096" lon="0.55517">
        <ele>157</ele>
        <time>2015-11-03T15:23:02Z</time>
      </trkpt>
      <trkpt lat="45.27101" lon="0.55519">
        <ele>157</ele>
        <time>2015-11-03T15:23:06Z</time>
      </trkpt>
      <trkpt lat="45.27107" lon="0.55519">
        <ele>156</ele>
        <time>2015-11-03T15:23:11Z</time>
      </trkpt>
      <trkpt lat="45.27111" lon="0.55515">
        <ele>155</ele>
        <time>2015-11-03T15:23:15Z</time>
      </trkpt>
      <trkpt lat="45.27114" lon="0.55511">
        <ele>157</ele>
        <time>2015-11-03T15:23:19Z</time>
      </trkpt>
      <trkpt lat="45.27117" lon="0.55507">
        <ele>157</ele>
        <time>2015-11-03T15:23:23Z</time>
      </trkpt>
      <trkpt lat="45.2712" lon="0.55503">
        <ele>156</ele>
        <time>2015-11-03T15:23:27Z</time>
      </trkpt>
      <trkpt lat="45.27124" lon="0.55499">
        <ele>153</ele>
        <time>2015-11-03T15:23:32Z</time>
      </trkpt>
      <trkpt lat="45.27127" lon="0.55496">
        <ele>153</ele>
        <time>2015-11-03T15:23:36Z</time>
      </trkpt>
      <trkpt lat="45.2713" lon="0.5549">
        <ele>152</ele>
        <time>2015-11-03T15:23:41Z</time>
      </trkpt>
      <trkpt lat="45.27131" lon="0.55488">
        <ele>151</ele>
        <time>2015-11-03T15:23:42Z</time>
      </trkpt>
      <trkpt lat="45.2714" lon="0.55474">
        <ele>149</ele>
        <time>2015-11-03T15:24:00Z</time>
      </trkpt>
      <trkpt lat="45.27146" lon="0.55463">
        <ele>149</ele>
        <time>2015-11-03T15:24:05Z</time>
      </trkpt>
      <trkpt lat="45.27148" lon="0.55458">
        <ele>146</ele>
        <time>2015-11-03T15:24:10Z</time>
      </trkpt>
      <trkpt lat="45.27149" lon="0.55452">
        <ele>145</ele>
        <time>2015-11-03T15:24:16Z</time>
      </trkpt>
      <trkpt lat="45.27153" lon="0.55446">
        <ele>146</ele>
        <time>2015-11-03T15:24:20Z</time>
      </trkpt>
      <trkpt lat="45.27156" lon="0.55441">
        <ele>147</ele>
        <time>2015-11-03T15:24:24Z</time>
      </trkpt>
      <trkpt lat="45.27159" lon="0.55437">
        <ele>148</ele>
        <time>2015-11-03T15:24:28Z</time>
      </trkpt>
      <trkpt lat="45.27163" lon="0.55431">
        <ele>147</ele>
        <time>2015-11-03T15:24:33Z</time>
      </trkpt>
      <trkpt lat="45.27167" lon="0.55426">
        <ele>150</ele>
        <time>2015-11-03T15:24:37Z</time>
      </trkpt>
      <trkpt lat="45.27168" lon="0.55421">
        <ele>147</ele>
        <time>2015-11-03T15:24:42Z</time>
      </trkpt>
      <trkpt lat="45.27171" lon="0.55416">
        <ele>146</ele>
        <time>2015-11-03T15:24:46Z</time>
      </trkpt>
      <trkpt lat="45.27174" lon="0.55412">
        <ele>145</ele>
        <time>2015-11-03T15:24:49Z</time>
      </trkpt>
      <trkpt lat="45.27178" lon="0.55408">
        <ele>144</ele>
        <time>2015-11-03T15:24:54Z</time>
      </trkpt>
      <trkpt lat="45.27182" lon="0.55403">
        <ele>145</ele>
        <time>2015-11-03T15:24:58Z</time>
      </trkpt>
      <trkpt lat="45.27185" lon="0.55397">
        <ele>142</ele>
        <time>2015-11-03T15:25:03Z</time>
      </trkpt>
      <trkpt lat="45.27187" lon="0.55394">
        <ele>141</ele>
        <time>2015-11-03T15:25:07Z</time>
      </trkpt>
      <trkpt lat="45.27191" lon="0.5539">
        <ele>138</ele>
        <time>2015-11-03T15:25:12Z</time>
      </trkpt>
      <trkpt lat="45.27193" lon="0.55386">
        <ele>138</ele>
        <time>2015-11-03T15:25:15Z</time>
      </trkpt>
      <trkpt lat="45.27205" lon="0.55375">
        <ele>136</ele>
        <time>2015-11-03T15:25:29Z</time>
      </trkpt>
      <trkpt lat="45.27208" lon="0.55372">
        <ele>136</ele>
        <time>2015-11-03T15:25:34Z</time>
      </trkpt>
      <trkpt lat="45.27215" lon="0.5537">
        <ele>138</ele>
        <time>2015-11-03T15:25:39Z</time>
      </trkpt>
      <trkpt lat="45.27217" lon="0.55367">
        <ele>138</ele>
        <time>2015-11-03T15:25:43Z</time>
      </trkpt>
      <trkpt lat="45.27224" lon="0.55362">
        <ele>137</ele>
        <time>2015-11-03T15:26:00Z</time>
      </trkpt>
      <trkpt lat="45.27238" lon="0.5535">
        <ele>136</ele>
        <time>2015-11-03T15:26:05Z</time>
      </trkpt>
      <trkpt lat="45.27243" lon="0.55344">
        <ele>135</ele>
        <time>2015-11-03T15:26:10Z</time>
      </trkpt>
      <trkpt lat="45.27247" lon="0.55343">
        <ele>135</ele>
        <time>2015-11-03T15:26:15Z</time>
      </trkpt>
      <trkpt lat="45.27253" lon="0.55337">
        <ele>133</ele>
        <time>2015-11-03T15:26:20Z</time>
      </trkpt>
      <trkpt lat="45.2726" lon="0.55332">
        <ele>130</ele>
        <time>2015-11-03T15:26:25Z</time>
      </trkpt>
      <trkpt lat="45.27263" lon="0.55329">
        <ele>130</ele>
        <time>2015-11-03T15:26:29Z</time>
      </trkpt>
      <trkpt lat="45.27267" lon="0.55326">
        <ele>129</ele>
        <time>2015-11-03T15:26:33Z</time>
      </trkpt>
      <trkpt lat="45.27273" lon="0.55323">
        <ele>131</ele>
        <time>2015-11-03T15:26:38Z</time>
      </trkpt>
      <trkpt lat="45.27278" lon="0.55321">
        <ele>134</ele>
        <time>2015-11-03T15:26:43Z</time>
      </trkpt>
      <trkpt lat="45.27278" lon="0.5532">
        <ele>134</ele>
        <time>2015-11-03T15:26:44Z</time>
      </trkpt>
      <trkpt lat="45.27283" lon="0.55314">
        <ele>132</ele>
        <time>2015-11-03T15:27:00Z</time>
      </trkpt>
      <trkpt lat="45.27298" lon="0.55297">
        <ele>133</ele>
        <time>2015-11-03T15:27:05Z</time>
      </trkpt>
      <trkpt lat="45.27302" lon="0.55295">
        <ele>132</ele>
        <time>2015-11-03T15:27:09Z</time>
      </trkpt>
      <trkpt lat="45.27306" lon="0.55291">
        <ele>131</ele>
        <time>2015-11-03T15:27:13Z</time>
      </trkpt>
      <trkpt lat="45.27307" lon="0.55291">
        <ele>131</ele>
        <time>2015-11-03T15:27:41Z</time>
      </trkpt>
      <trkpt lat="45.27335" lon="0.5526">
        <ele>124</ele>
        <time>2015-11-03T15:27:45Z</time>
      </trkpt>
      <trkpt lat="45.27337" lon="0.55258">
        <ele>125</ele>
        <time>2015-11-03T15:27:50Z</time>
      </trkpt>
      <trkpt lat="45.27342" lon="0.55256">
        <ele>127</ele>
        <time>2015-11-03T15:27:54Z</time>
      </trkpt>
      <trkpt lat="45.27344" lon="0.55254">
        <ele>127</ele>
        <time>2015-11-03T15:28:00Z</time>
      </trkpt>
      <trkpt lat="45.27351" lon="0.55251">
        <ele>127</ele>
        <time>2015-11-03T15:28:04Z</time>
      </trkpt>
      <trkpt lat="45.27358" lon="0.55246">
        <ele>128</ele>
        <time>2015-11-03T15:28:09Z</time>
      </trkpt>
      <trkpt lat="45.27363" lon="0.55242">
        <ele>127</ele>
        <time>2015-11-03T15:28:13Z</time>
      </trkpt>
      <trkpt lat="45.27365" lon="0.55241">
        <ele>126</ele>
        <time>2015-11-03T15:28:29Z</time>
      </trkpt>
      <trkpt lat="45.27382" lon="0.55231">
        <ele>122</ele>
        <time>2015-11-03T15:28:34Z</time>
      </trkpt>
      <trkpt lat="45.27387" lon="0.55232">
        <ele>123</ele>
        <time>2015-11-03T15:28:38Z</time>
      </trkpt>
      <trkpt lat="45.27391" lon="0.55232">
        <ele>124</ele>
        <time>2015-11-03T15:28:43Z</time>
      </trkpt>
      <trkpt lat="45.27392" lon="0.55231">
        <ele>124</ele>
        <time>2015-11-03T15:28:44Z</time>
      </trkpt>
      <trkpt lat="45.27406" lon="0.55226">
        <ele>119</ele>
        <time>2015-11-03T15:28:59Z</time>
      </trkpt>
      <trkpt lat="45.27414" lon="0.55223">
        <ele>119</ele>
        <time>2015-11-03T15:29:04Z</time>
      </trkpt>
      <trkpt lat="45.2742" lon="0.55221">
        <ele>118</ele>
        <time>2015-11-03T15:29:08Z</time>
      </trkpt>
      <trkpt lat="45.27424" lon="0.55217">
        <ele>116</ele>
        <time>2015-11-03T15:29:13Z</time>
      </trkpt>
      <trkpt lat="45.27436" lon="0.55211">
        <ele>117</ele>
        <time>2015-11-03T15:29:38Z</time>
      </trkpt>
      <trkpt lat="45.27455" lon="0.55198">
        <ele>115</ele>
        <time>2015-11-03T15:29:43Z</time>
      </trkpt>
      <trkpt lat="45.27465" lon="0.5519">
        <ele>111</ele>
        <time>2015-11-03T15:30:00Z</time>
      </trkpt>
      <trkpt lat="45.27477" lon="0.5518">
        <ele>108</ele>
        <time>2015-11-03T15:30:05Z</time>
      </trkpt>
      <trkpt lat="45.27481" lon="0.55174">
        <ele>109</ele>
        <time>2015-11-03T15:30:10Z</time>
      </trkpt>
      <trkpt lat="45.27484" lon="0.55171">
        <ele>107</ele>
        <time>2015-11-03T15:30:13Z</time>
      </trkpt>
      <trkpt lat="45.27485" lon="0.55171">
        <ele>107</ele>
        <time>2015-11-03T15:30:15Z</time>
      </trkpt>
      <trkpt lat="45.27498" lon="0.55152">
        <ele>107</ele>
        <time>2015-11-03T15:30:32Z</time>
      </trkpt>
      <trkpt lat="45.27503" lon="0.55145">
        <ele>107</ele>
        <time>2015-11-03T15:30:36Z</time>
      </trkpt>
      <trkpt lat="45.27505" lon="0.5514">
        <ele>108</ele>
        <time>2015-11-03T15:30:41Z</time>
      </trkpt>
      <trkpt lat="45.27509" lon="0.55134">
        <ele>105</ele>
        <time>2015-11-03T15:30:46Z</time>
      </trkpt>
      <trkpt lat="45.27512" lon="0.55128">
        <ele>104</ele>
        <time>2015-11-03T15:30:50Z</time>
      </trkpt>
      <trkpt lat="45.27516" lon="0.55123">
        <ele>104</ele>
        <time>2015-11-03T15:30:55Z</time>
      </trkpt>
      <trkpt lat="45.27518" lon="0.55119">
        <ele>103</ele>
        <time>2015-11-03T15:30:59Z</time>
      </trkpt>
      <trkpt lat="45.27522" lon="0.55114">
        <ele>102</ele>
        <time>2015-11-03T15:31:03Z</time>
      </trkpt>
      <trkpt lat="45.27526" lon="0.5511">
        <ele>99</ele>
        <time>2015-11-03T15:31:08Z</time>
      </trkpt>
      <trkpt lat="45.27531" lon="0.55105">
        <ele>97</ele>
        <time>2015-11-03T15:31:13Z</time>
      </trkpt>
      <trkpt lat="45.27533" lon="0.551">
        <ele>97</ele>
        <time>2015-11-03T15:31:17Z</time>
      </trkpt>
      <trkpt lat="45.27538" lon="0.55096">
        <ele>97</ele>
        <time>2015-11-03T15:31:22Z</time>
      </trkpt>
      <trkpt lat="45.27541" lon="0.55091">
        <ele>96</ele>
        <time>2015-11-03T15:31:26Z</time>
      </trkpt>
      <trkpt lat="45.27545" lon="0.55086">
        <ele>97</ele>
        <time>2015-11-03T15:31:31Z</time>
      </trkpt>
      <trkpt lat="45.27547" lon="0.5508">
        <ele>97</ele>
        <time>2015-11-03T15:31:36Z</time>
      </trkpt>
      <trkpt lat="45.2755" lon="0.55075">
        <ele>95</ele>
        <time>2015-11-03T15:31:41Z</time>
      </trkpt>
      <trkpt lat="45.27552" lon="0.55073">
        <ele>95</ele>
        <time>2015-11-03T15:31:43Z</time>
      </trkpt>
      <trkpt lat="45.27565" lon="0.55053">
        <ele>90</ele>
        <time>2015-11-03T15:32:00Z</time>
      </trkpt>
      <trkpt lat="45.27569" lon="0.55048">
        <ele>89</ele>
        <time>2015-11-03T15:32:05Z</time>
      </trkpt>
      <trkpt lat="45.27571" lon="0.55043">
        <ele>90</ele>
        <time>2015-11-03T15:32:09Z</time>
      </trkpt>
      <trkpt lat="45.27575" lon="0.55039">
        <ele>90</ele>
        <time>2015-11-03T15:32:13Z</time>
      </trkpt>
      <trkpt lat="45.27575" lon="0.55038">
        <ele>90</ele>
        <time>2015-11-03T15:32:21Z</time>
      </trkpt>
      <trkpt lat="45.27588" lon="0.55028">
        <ele>90</ele>
        <time>2015-11-03T15:32:26Z</time>
      </trkpt>
      <trkpt lat="45.27593" lon="0.55026">
        <ele>90</ele>
        <time>2015-11-03T15:32:30Z</time>
      </trkpt>
      <trkpt lat="45.27595" lon="0.55022">
        <ele>93</ele>
        <time>2015-11-03T15:32:37Z</time>
      </trkpt>
      <trkpt lat="45.27603" lon="0.55018">
        <ele>94</ele>
        <time>2015-11-03T15:32:42Z</time>
      </trkpt>
      <trkpt lat="45.27605" lon="0.55017">
        <ele>94</ele>
        <time>2015-11-03T15:32:44Z</time>
      </trkpt>
      <trkpt lat="45.27621" lon="0.55">
        <ele>93</ele>
        <time>2015-11-03T15:33:00Z</time>
      </trkpt>
      <trkpt lat="45.27625" lon="0.54996">
        <ele>95</ele>
        <time>2015-11-03T15:33:05Z</time>
      </trkpt>
      <trkpt lat="45.27631" lon="0.54991">
        <ele>92</ele>
        <time>2015-11-03T15:33:10Z</time>
      </trkpt>
      <trkpt lat="45.27634" lon="0.54987">
        <ele>92</ele>
        <time>2015-11-03T15:33:24Z</time>
      </trkpt>
      <trkpt lat="45.27649" lon="0.54981">
        <ele>91</ele>
        <time>2015-11-03T15:33:28Z</time>
      </trkpt>
      <trkpt lat="45.27656" lon="0.5498">
        <ele>90</ele>
        <time>2015-11-03T15:33:33Z</time>
      </trkpt>
      <trkpt lat="45.2766" lon="0.54975">
        <ele>88</ele>
        <time>2015-11-03T15:33:38Z</time>
      </trkpt>
      <trkpt lat="45.27664" lon="0.54971">
        <ele>87</ele>
        <time>2015-11-03T15:33:43Z</time>
      </trkpt>
      <trkpt lat="45.2767" lon="0.54967">
        <ele>87</ele>
        <time>2015-11-03T15:33:47Z</time>
      </trkpt>
      <trkpt lat="45.27674" lon="0.54965">
        <ele>88</ele>
        <time>2015-11-03T15:33:50Z</time>
      </trkpt>
      <trkpt lat="45.27678" lon="0.54963">
        <ele>89</ele>
        <time>2015-11-03T15:33:54Z</time>
      </trkpt>
      <trkpt lat="45.27682" lon="0.54962">
        <ele>93</ele>
        <time>2015-11-03T15:34:00Z</time>
      </trkpt>
      <trkpt lat="45.27687" lon="0.54961">
        <ele>93</ele>
        <time>2015-11-03T15:34:05Z</time>
      </trkpt>
      <trkpt lat="45.27692" lon="0.54961">
        <ele>89</ele>
        <time>2015-11-03T15:34:09Z</time>
      </trkpt>
      <trkpt lat="45.27697" lon="0.54961">
        <ele>91</ele>
        <time>2015-11-03T15:34:13Z</time>
      </trkpt>
      <trkpt lat="45.27702" lon="0.54963">
        <ele>91</ele>
        <time>2015-11-03T15:34:17Z</time>
      </trkpt>
      <trkpt lat="45.27705" lon="0.54962">
        <ele>89</ele>
        <time>2015-11-03T15:34:23Z</time>
      </trkpt>
      <trkpt lat="45.27716" lon="0.54951">
        <ele>87</ele>
        <time>2015-11-03T15:34:28Z</time>
      </trkpt>
      <trkpt lat="45.27718" lon="0.54947">
        <ele>87</ele>
        <time>2015-11-03T15:34:34Z</time>
      </trkpt>
      <trkpt lat="45.27726" lon="0.54942">
        <ele>88</ele>
        <time>2015-11-03T15:34:39Z</time>
      </trkpt>
      <trkpt lat="45.27729" lon="0.54936">
        <ele>85</ele>
        <time>2015-11-03T15:34:44Z</time>
      </trkpt>
      <trkpt lat="45.27732" lon="0.54931">
        <ele>83</ele>
        <time>2015-11-03T15:34:51Z</time>
      </trkpt>
      <trkpt lat="45.27734" lon="0.54929">
        <ele>82</ele>
        <time>2015-11-03T15:35:00Z</time>
      </trkpt>
      <trkpt lat="45.27743" lon="0.54922">
        <ele>82</ele>
        <time>2015-11-03T15:35:05Z</time>
      </trkpt>
      <trkpt lat="45.27746" lon="0.5492">
        <ele>85</ele>
        <time>2015-11-03T15:35:09Z</time>
      </trkpt>
      <trkpt lat="45.27749" lon="0.54917">
        <ele>85</ele>
        <time>2015-11-03T15:35:13Z</time>
      </trkpt>
      <trkpt lat="45.27751" lon="0.54915">
        <ele>85</ele>
        <time>2015-11-03T15:35:16Z</time>
      </trkpt>
      <trkpt lat="45.27756" lon="0.54909">
        <ele>87</ele>
        <time>2015-11-03T15:35:21Z</time>
      </trkpt>
      <trkpt lat="45.27756" lon="0.54902">
        <ele>84</ele>
        <time>2015-11-03T15:35:25Z</time>
      </trkpt>
      <trkpt lat="45.2776" lon="0.54897">
        <ele>82</ele>
        <time>2015-11-03T15:35:30Z</time>
      </trkpt>
      <trkpt lat="45.27765" lon="0.54895">
        <ele>82</ele>
        <time>2015-11-03T15:35:34Z</time>
      </trkpt>
      <trkpt lat="45.27768" lon="0.54892">
        <ele>80</ele>
        <time>2015-11-03T15:35:38Z</time>
      </trkpt>
      <trkpt lat="45.27771" lon="0.54896">
        <ele>81</ele>
        <time>2015-11-03T15:35:43Z</time>
      </trkpt>
      <trkpt lat="45.27778" lon="0.5491">
        <ele>87</ele>
        <time>2015-11-03T15:36:00Z</time>
      </trkpt>
      <trkpt lat="45.27781" lon="0.54919">
        <ele>89</ele>
        <time>2015-11-03T15:36:05Z</time>
      </trkpt>
      <trkpt lat="45.27783" lon="0.54925">
        <ele>89</ele>
        <time>2015-11-03T15:36:09Z</time>
      </trkpt>
      <trkpt lat="45.27784" lon="0.54933">
        <ele>88</ele>
        <time>2015-11-03T15:36:14Z</time>
      </trkpt>
      <trkpt lat="45.27784" lon="0.54938">
        <ele>87</ele>
        <time>2015-11-03T15:36:18Z</time>
      </trkpt>
      <trkpt lat="45.27785" lon="0.54945">
        <ele>86</ele>
        <time>2015-11-03T15:36:23Z</time>
      </trkpt>
      <trkpt lat="45.27786" lon="0.5495">
        <ele>88</ele>
        <time>2015-11-03T15:36:28Z</time>
      </trkpt>
      <trkpt lat="45.27788" lon="0.54953">
        <ele>89</ele>
        <time>2015-11-03T15:36:38Z</time>
      </trkpt>
      <trkpt lat="45.27788" lon="0.54961">
        <ele>87</ele>
        <time>2015-11-03T15:36:42Z</time>
      </trkpt>
      <trkpt lat="45.27788" lon="0.54967">
        <ele>87</ele>
        <time>2015-11-03T15:36:48Z</time>
      </trkpt>
      <trkpt lat="45.27789" lon="0.54976">
        <ele>86</ele>
        <time>2015-11-03T15:36:54Z</time>
      </trkpt>
      <trkpt lat="45.27788" lon="0.54986">
        <ele>84</ele>
        <time>2015-11-03T15:36:59Z</time>
      </trkpt>
      <trkpt lat="45.27789" lon="0.54992">
        <ele>85</ele>
        <time>2015-11-03T15:37:04Z</time>
      </trkpt>
      <trkpt lat="45.2779" lon="0.54998">
        <ele>86</ele>
        <time>2015-11-03T15:37:08Z</time>
      </trkpt>
      <trkpt lat="45.27793" lon="0.55005">
        <ele>89</ele>
        <time>2015-11-03T15:37:13Z</time>
      </trkpt>
      <trkpt lat="45.27796" lon="0.5501">
        <ele>88</ele>
        <time>2015-11-03T15:37:17Z</time>
      </trkpt>
      <trkpt lat="45.278" lon="0.55013">
        <ele>88</ele>
        <time>2015-11-03T15:37:21Z</time>
      </trkpt>
      <trkpt lat="45.27804" lon="0.55015">
        <ele>89</ele>
        <time>2015-11-03T15:37:26Z</time>
      </trkpt>
      <trkpt lat="45.27809" lon="0.55013">
        <ele>89</ele>
        <time>2015-11-03T15:37:31Z</time>
      </trkpt>
      <trkpt lat="45.27811" lon="0.55012">
        <ele>88</ele>
        <time>2015-11-03T15:37:39Z</time>
      </trkpt>
      <trkpt lat="45.2782" lon="0.55003">
        <ele>87</ele>
        <time>2015-11-03T15:37:43Z</time>
      </trkpt>
      <trkpt lat="45.27831" lon="0.54991">
        <ele>86</ele>
        <time>2015-11-03T15:37:56Z</time>
      </trkpt>
      <trkpt lat="45.27835" lon="0.54987">
        <ele>86</ele>
        <time>2015-11-03T15:38:00Z</time>
      </trkpt>
      <trkpt lat="45.27839" lon="0.54983">
        <ele>86</ele>
        <time>2015-11-03T15:38:04Z</time>
      </trkpt>
      <trkpt lat="45.27843" lon="0.54979">
        <ele>87</ele>
        <time>2015-11-03T15:38:09Z</time>
      </trkpt>
      <trkpt lat="45.27845" lon="0.54975">
        <ele>87</ele>
        <time>2015-11-03T15:38:13Z</time>
      </trkpt>
      <trkpt lat="45.2785" lon="0.54971">
        <ele>88</ele>
        <time>2015-11-03T15:38:18Z</time>
      </trkpt>
      <trkpt lat="45.27853" lon="0.54967">
        <ele>89</ele>
        <time>2015-11-03T15:38:24Z</time>
      </trkpt>
      <trkpt lat="45.27856" lon="0.54962">
        <ele>89</ele>
        <time>2015-11-03T15:38:28Z</time>
      </trkpt>
      <trkpt lat="45.2786" lon="0.54959">
        <ele>89</ele>
        <time>2015-11-03T15:38:33Z</time>
      </trkpt>
      <trkpt lat="45.27864" lon="0.54954">
        <ele>89</ele>
        <time>2015-11-03T15:38:38Z</time>
      </trkpt>
      <trkpt lat="45.27868" lon="0.5495">
        <ele>90</ele>
        <time>2015-11-03T15:38:43Z</time>
      </trkpt>
      <trkpt lat="45.2787" lon="0.54948">
        <ele>90</ele>
        <time>2015-11-03T15:38:58Z</time>
      </trkpt>
      <trkpt lat="45.27875" lon="0.54941">
        <ele>88</ele>
        <time>2015-11-03T15:39:03Z</time>
      </trkpt>
      <trkpt lat="45.27877" lon="0.54936">
        <ele>87</ele>
        <time>2015-11-03T15:39:33Z</time>
      </trkpt>
      <trkpt lat="45.27881" lon="0.54932">
        <ele>85</ele>
        <time>2015-11-03T15:39:37Z</time>
      </trkpt>
      <trkpt lat="45.27884" lon="0.54927">
        <ele>86</ele>
        <time>2015-11-03T15:39:41Z</time>
      </trkpt>
      <trkpt lat="45.27889" lon="0.54919">
        <ele>87</ele>
        <time>2015-11-03T15:39:46Z</time>
      </trkpt>
      <trkpt lat="45.27891" lon="0.54913">
        <ele>87</ele>
        <time>2015-11-03T15:39:51Z</time>
      </trkpt>
      <trkpt lat="45.27895" lon="0.54906">
        <ele>85</ele>
        <time>2015-11-03T15:39:55Z</time>
      </trkpt>
      <trkpt lat="45.27899" lon="0.54898">
        <ele>84</ele>
        <time>2015-11-03T15:40:00Z</time>
      </trkpt>
      <trkpt lat="45.27902" lon="0.54893">
        <ele>84</ele>
        <time>2015-11-03T15:40:04Z</time>
      </trkpt>
      <trkpt lat="45.27906" lon="0.54889">
        <ele>82</ele>
        <time>2015-11-03T15:40:09Z</time>
      </trkpt>
      <trkpt lat="45.27906" lon="0.54892">
        <ele>83</ele>
        <time>2015-11-03T15:40:46Z</time>
      </trkpt>
      <trkpt lat="45.27898" lon="0.54907">
        <ele>86</ele>
        <time>2015-11-03T15:41:00Z</time>
      </trkpt>
      <trkpt lat="45.27896" lon="0.54914">
        <ele>87</ele>
        <time>2015-11-03T15:41:05Z</time>
      </trkpt>
      <trkpt lat="45.27896" lon="0.54918">
        <ele>89</ele>
        <time>2015-11-03T15:42:08Z</time>
      </trkpt>
      <trkpt lat="45.27896" lon="0.54918">
        <ele>89</ele>
        <time>2015-11-03T15:42:10Z</time>
      </trkpt>
    </trkseg>
  </trk>
</gpx>